<?xml version="1.0" encoding="UTF-8" standalone="no" ?>
<gpx xmlns="http://www.topografix.com/GPX/1/1" xmlns:xsi="http://www.w3.org/2001/XMLSchema-instance" xsi:schemaLocation="http://www.topografix.com/GPX/1/1 http://www.topografix.com/GPX/1/1/gpx.xsd" version="1.1" creator="VisuGPX - https://www.visugpx.com">
  <metadata>
    <name>Castelmoron d'Albret</name>
    <desc><![CDATA[Rando pédestrede Castelmoron d'Albret le 15 05 2018 ( circuit matin)]]></desc>
  </metadata>
  <trk>
    <name><![CDATA[Tracé 13 mai 2018 09:39:47]]></name>
    <trkseg>
      <trkpt lat="44.68014" lon="-0.01147">
        <ele>17.72054</ele>
        <time>2018-05-13T07:39:47Z</time>
      </trkpt>
      <trkpt lat="44.68014" lon="-0.01147">
        <ele>17.72054</ele>
        <time>2018-05-13T07:39:51Z</time>
      </trkpt>
      <trkpt lat="44.68042" lon="-0.01147">
        <ele>17.721686666667</ele>
        <time>2018-05-13T07:39:55Z</time>
      </trkpt>
      <trkpt lat="44.68052" lon="-0.01156">
        <ele>17.72206</ele>
        <time>2018-05-13T07:39:59Z</time>
      </trkpt>
      <trkpt lat="44.68048" lon="-0.01168">
        <ele>17.72192</ele>
        <time>2018-05-13T07:40:05Z</time>
      </trkpt>
      <trkpt lat="44.68052" lon="-0.01178">
        <ele>17.72208</ele>
        <time>2018-05-13T07:40:18Z</time>
      </trkpt>
      <trkpt lat="44.68058" lon="-0.01185">
        <ele>17.722306666667</ele>
        <time>2018-05-13T07:40:28Z</time>
      </trkpt>
      <trkpt lat="44.68064" lon="-0.01194">
        <ele>17.622566666667</ele>
        <time>2018-05-13T07:40:38Z</time>
      </trkpt>
      <trkpt lat="44.68069" lon="-0.01202">
        <ele>17.62276</ele>
        <time>2018-05-13T07:40:46Z</time>
      </trkpt>
      <trkpt lat="44.68075" lon="-0.01209">
        <ele>17.523006666667</ele>
        <time>2018-05-13T07:40:51Z</time>
      </trkpt>
      <trkpt lat="44.68083" lon="-0.01214">
        <ele>17.523306666667</ele>
        <time>2018-05-13T07:40:55Z</time>
      </trkpt>
      <trkpt lat="44.6809" lon="-0.0122">
        <ele>17.323593333333</ele>
        <time>2018-05-13T07:41:01Z</time>
      </trkpt>
      <trkpt lat="44.68098" lon="-0.01225">
        <ele>17.12392</ele>
        <time>2018-05-13T07:41:10Z</time>
      </trkpt>
      <trkpt lat="44.68106" lon="-0.0123">
        <ele>17.024233333333</ele>
        <time>2018-05-13T07:41:18Z</time>
      </trkpt>
      <trkpt lat="44.68113" lon="-0.01237">
        <ele>16.82452</ele>
        <time>2018-05-13T07:41:24Z</time>
      </trkpt>
      <trkpt lat="44.68119" lon="-0.01246">
        <ele>16.624753333333</ele>
        <time>2018-05-13T07:41:31Z</time>
      </trkpt>
      <trkpt lat="44.68125" lon="-0.01255">
        <ele>16.425</ele>
        <time>2018-05-13T07:41:42Z</time>
      </trkpt>
      <trkpt lat="44.68134" lon="-0.01254">
        <ele>16.12534</ele>
        <time>2018-05-13T07:41:50Z</time>
      </trkpt>
      <trkpt lat="44.68141" lon="-0.01252">
        <ele>15.925653333333</ele>
        <time>2018-05-13T07:41:56Z</time>
      </trkpt>
      <trkpt lat="44.6815" lon="-0.01253">
        <ele>15.725986666667</ele>
        <time>2018-05-13T07:42:03Z</time>
      </trkpt>
      <trkpt lat="44.68159" lon="-0.01251">
        <ele>15.62634</ele>
        <time>2018-05-13T07:42:10Z</time>
      </trkpt>
      <trkpt lat="44.68167" lon="-0.01248">
        <ele>15.42668</ele>
        <time>2018-05-13T07:42:17Z</time>
      </trkpt>
      <trkpt lat="44.68175" lon="-0.01246">
        <ele>15.226986666667</ele>
        <time>2018-05-13T07:42:23Z</time>
      </trkpt>
      <trkpt lat="44.68183" lon="-0.01246">
        <ele>15.227313333333</ele>
        <time>2018-05-13T07:42:28Z</time>
      </trkpt>
      <trkpt lat="44.6819" lon="-0.01245">
        <ele>15.227613333333</ele>
        <time>2018-05-13T07:42:34Z</time>
      </trkpt>
      <trkpt lat="44.6819" lon="-0.01232">
        <ele>15.027606666667</ele>
        <time>2018-05-13T07:42:46Z</time>
      </trkpt>
      <trkpt lat="44.68194" lon="-0.01222">
        <ele>14.827773333333</ele>
        <time>2018-05-13T07:42:55Z</time>
      </trkpt>
      <trkpt lat="44.68206" lon="-0.01225">
        <ele>14.92822</ele>
        <time>2018-05-13T07:42:59Z</time>
      </trkpt>
      <trkpt lat="44.68214" lon="-0.01222">
        <ele>14.828546666667</ele>
        <time>2018-05-13T07:43:05Z</time>
      </trkpt>
      <trkpt lat="44.68222" lon="-0.01218">
        <ele>14.628873333333</ele>
        <time>2018-05-13T07:43:10Z</time>
      </trkpt>
      <trkpt lat="44.68229" lon="-0.01213">
        <ele>14.32914</ele>
        <time>2018-05-13T07:43:17Z</time>
      </trkpt>
      <trkpt lat="44.68234" lon="-0.01205">
        <ele>14.129373333333</ele>
        <time>2018-05-13T07:43:22Z</time>
      </trkpt>
      <trkpt lat="44.68241" lon="-0.01199">
        <ele>13.829653333333</ele>
        <time>2018-05-13T07:43:28Z</time>
      </trkpt>
      <trkpt lat="44.68248" lon="-0.01192">
        <ele>13.529913333333</ele>
        <time>2018-05-13T07:43:34Z</time>
      </trkpt>
      <trkpt lat="44.68254" lon="-0.01184">
        <ele>13.230166666667</ele>
        <time>2018-05-13T07:43:42Z</time>
      </trkpt>
      <trkpt lat="44.68259" lon="-0.01174">
        <ele>12.930373333333</ele>
        <time>2018-05-13T07:43:49Z</time>
      </trkpt>
      <trkpt lat="44.68266" lon="-0.01166">
        <ele>12.63064</ele>
        <time>2018-05-13T07:43:56Z</time>
      </trkpt>
      <trkpt lat="44.68272" lon="-0.01158">
        <ele>12.43086</ele>
        <time>2018-05-13T07:44:02Z</time>
      </trkpt>
      <trkpt lat="44.68277" lon="-0.01149">
        <ele>12.13108</ele>
        <time>2018-05-13T07:44:09Z</time>
      </trkpt>
      <trkpt lat="44.68279" lon="-0.01137">
        <ele>11.731153333333</ele>
        <time>2018-05-13T07:44:15Z</time>
      </trkpt>
      <trkpt lat="44.68285" lon="-0.01129">
        <ele>11.531413333333</ele>
        <time>2018-05-13T07:44:21Z</time>
      </trkpt>
      <trkpt lat="44.68293" lon="-0.01122">
        <ele>11.431706666667</ele>
        <time>2018-05-13T07:44:29Z</time>
      </trkpt>
      <trkpt lat="44.68299" lon="-0.01114">
        <ele>11.23196</ele>
        <time>2018-05-13T07:44:37Z</time>
      </trkpt>
      <trkpt lat="44.68305" lon="-0.01107">
        <ele>10.8322</ele>
        <time>2018-05-13T07:44:45Z</time>
      </trkpt>
      <trkpt lat="44.68312" lon="-0.011">
        <ele>10.632466666667</ele>
        <time>2018-05-13T07:44:51Z</time>
      </trkpt>
      <trkpt lat="44.68317" lon="-0.01092">
        <ele>10.532693333333</ele>
        <time>2018-05-13T07:44:58Z</time>
      </trkpt>
      <trkpt lat="44.68323" lon="-0.01083">
        <ele>10.232933333333</ele>
        <time>2018-05-13T07:45:05Z</time>
      </trkpt>
      <trkpt lat="44.68327" lon="-0.01072">
        <ele>10.033086666667</ele>
        <time>2018-05-13T07:45:12Z</time>
      </trkpt>
      <trkpt lat="44.68333" lon="-0.01063">
        <ele>9.8333266666666</ele>
        <time>2018-05-13T07:45:18Z</time>
      </trkpt>
      <trkpt lat="44.68339" lon="-0.01055">
        <ele>9.83356</ele>
        <time>2018-05-13T07:45:24Z</time>
      </trkpt>
      <trkpt lat="44.68346" lon="-0.01048">
        <ele>9.83382</ele>
        <time>2018-05-13T07:45:30Z</time>
      </trkpt>
      <trkpt lat="44.68352" lon="-0.0104">
        <ele>10.03408</ele>
        <time>2018-05-13T07:45:39Z</time>
      </trkpt>
      <trkpt lat="44.68356" lon="-0.01029">
        <ele>9.6342466666667</ele>
        <time>2018-05-13T07:45:46Z</time>
      </trkpt>
      <trkpt lat="44.6836" lon="-0.01019">
        <ele>-4.56562</ele>
        <time>2018-05-13T07:46:04Z</time>
      </trkpt>
      <trkpt lat="44.68367" lon="-0.01014">
        <ele>-6.76532</ele>
        <time>2018-05-13T07:46:11Z</time>
      </trkpt>
      <trkpt lat="44.68374" lon="-0.01006">
        <ele>-7.9650333333333</ele>
        <time>2018-05-13T07:46:16Z</time>
      </trkpt>
      <trkpt lat="44.68379" lon="-0.00998">
        <ele>-7.0648333333333</ele>
        <time>2018-05-13T07:46:20Z</time>
      </trkpt>
      <trkpt lat="44.68386" lon="-0.0099">
        <ele>-4.9645666666667</ele>
        <time>2018-05-13T07:46:27Z</time>
      </trkpt>
      <trkpt lat="44.68393" lon="-0.00988">
        <ele>-2.3642666666667</ele>
        <time>2018-05-13T07:46:33Z</time>
      </trkpt>
      <trkpt lat="44.68401" lon="-0.00984">
        <ele>-0.96394666666667</ele>
        <time>2018-05-13T07:46:39Z</time>
      </trkpt>
      <trkpt lat="44.68409" lon="-0.00978">
        <ele>0.33634666666664</ele>
        <time>2018-05-13T07:46:46Z</time>
      </trkpt>
      <trkpt lat="44.68416" lon="-0.00972">
        <ele>1.6366533333333</ele>
        <time>2018-05-13T07:46:53Z</time>
      </trkpt>
      <trkpt lat="44.68424" lon="-0.00968">
        <ele>2.0369466666666</ele>
        <time>2018-05-13T07:47:00Z</time>
      </trkpt>
      <trkpt lat="44.68432" lon="-0.00966">
        <ele>2.4372733333334</ele>
        <time>2018-05-13T07:47:07Z</time>
      </trkpt>
      <trkpt lat="44.6844" lon="-0.00962">
        <ele>3.2375933333333</ele>
        <time>2018-05-13T07:47:14Z</time>
      </trkpt>
      <trkpt lat="44.68448" lon="-0.00958">
        <ele>3.8379133333333</ele>
        <time>2018-05-13T07:47:21Z</time>
      </trkpt>
      <trkpt lat="44.68456" lon="-0.00958">
        <ele>4.1382533333333</ele>
        <time>2018-05-13T07:47:26Z</time>
      </trkpt>
      <trkpt lat="44.68465" lon="-0.00954">
        <ele>4.43858</ele>
        <time>2018-05-13T07:47:32Z</time>
      </trkpt>
      <trkpt lat="44.68473" lon="-0.00952">
        <ele>4.83892</ele>
        <time>2018-05-13T07:47:42Z</time>
      </trkpt>
      <trkpt lat="44.6848" lon="-0.0095">
        <ele>4.7392133333333</ele>
        <time>2018-05-13T07:47:47Z</time>
      </trkpt>
      <trkpt lat="44.68489" lon="-0.0095">
        <ele>4.6395666666667</ele>
        <time>2018-05-13T07:47:53Z</time>
      </trkpt>
      <trkpt lat="44.68498" lon="-0.0095">
        <ele>5.53992</ele>
        <time>2018-05-13T07:47:58Z</time>
      </trkpt>
      <trkpt lat="44.68506" lon="-0.00947">
        <ele>6.5402533333333</ele>
        <time>2018-05-13T07:48:06Z</time>
      </trkpt>
      <trkpt lat="44.68515" lon="-0.00944">
        <ele>7.04058</ele>
        <time>2018-05-13T07:48:13Z</time>
      </trkpt>
      <trkpt lat="44.68523" lon="-0.00943">
        <ele>7.5409133333333</ele>
        <time>2018-05-13T07:48:20Z</time>
      </trkpt>
      <trkpt lat="44.68531" lon="-0.00941">
        <ele>8.04122</ele>
        <time>2018-05-13T07:48:28Z</time>
      </trkpt>
      <trkpt lat="44.68539" lon="-0.0094">
        <ele>8.6415733333333</ele>
        <time>2018-05-13T07:48:34Z</time>
      </trkpt>
      <trkpt lat="44.68547" lon="-0.0094">
        <ele>9.0418733333333</ele>
        <time>2018-05-13T07:48:39Z</time>
      </trkpt>
      <trkpt lat="44.68554" lon="-0.00938">
        <ele>9.7421666666666</ele>
        <time>2018-05-13T07:48:45Z</time>
      </trkpt>
      <trkpt lat="44.68563" lon="-0.00939">
        <ele>10.8425</ele>
        <time>2018-05-13T07:48:51Z</time>
      </trkpt>
      <trkpt lat="44.68571" lon="-0.00938">
        <ele>12.442853333333</ele>
        <time>2018-05-13T07:49:00Z</time>
      </trkpt>
      <trkpt lat="44.6858" lon="-0.00936">
        <ele>14.3432</ele>
        <time>2018-05-13T07:49:08Z</time>
      </trkpt>
      <trkpt lat="44.68588" lon="-0.00935">
        <ele>15.643526666667</ele>
        <time>2018-05-13T07:49:14Z</time>
      </trkpt>
      <trkpt lat="44.68596" lon="-0.00932">
        <ele>16.243826666667</ele>
        <time>2018-05-13T07:49:21Z</time>
      </trkpt>
      <trkpt lat="44.68603" lon="-0.0093">
        <ele>16.44412</ele>
        <time>2018-05-13T07:49:26Z</time>
      </trkpt>
      <trkpt lat="44.6861" lon="-0.00922">
        <ele>17.04438</ele>
        <time>2018-05-13T07:49:34Z</time>
      </trkpt>
      <trkpt lat="44.68605" lon="-0.00912">
        <ele>17.344186666667</ele>
        <time>2018-05-13T07:49:41Z</time>
      </trkpt>
      <trkpt lat="44.686" lon="-0.00902">
        <ele>18.044013333333</ele>
        <time>2018-05-13T07:49:49Z</time>
      </trkpt>
      <trkpt lat="44.68596" lon="-0.00894">
        <ele>18.14382</ele>
        <time>2018-05-13T07:49:54Z</time>
      </trkpt>
      <trkpt lat="44.6859" lon="-0.00885">
        <ele>18.143586666667</ele>
        <time>2018-05-13T07:50:00Z</time>
      </trkpt>
      <trkpt lat="44.68583" lon="-0.00878">
        <ele>17.6433</ele>
        <time>2018-05-13T07:50:06Z</time>
      </trkpt>
      <trkpt lat="44.68577" lon="-0.00869">
        <ele>17.743073333333</ele>
        <time>2018-05-13T07:50:12Z</time>
      </trkpt>
      <trkpt lat="44.68571" lon="-0.00859">
        <ele>18.84284</ele>
        <time>2018-05-13T07:50:18Z</time>
      </trkpt>
      <trkpt lat="44.68566" lon="-0.00849">
        <ele>20.142646666667</ele>
        <time>2018-05-13T07:50:24Z</time>
      </trkpt>
      <trkpt lat="44.68561" lon="-0.0084">
        <ele>20.042446666667</ele>
        <time>2018-05-13T07:50:32Z</time>
      </trkpt>
      <trkpt lat="44.68555" lon="-0.00833">
        <ele>16.842193333333</ele>
        <time>2018-05-13T07:50:41Z</time>
      </trkpt>
      <trkpt lat="44.68549" lon="-0.00823">
        <ele>16.94196</ele>
        <time>2018-05-13T07:50:49Z</time>
      </trkpt>
      <trkpt lat="44.68544" lon="-0.00816">
        <ele>18.941753333333</ele>
        <time>2018-05-13T07:50:55Z</time>
      </trkpt>
      <trkpt lat="44.68537" lon="-0.00808">
        <ele>21.141473333333</ele>
        <time>2018-05-13T07:51:00Z</time>
      </trkpt>
      <trkpt lat="44.68531" lon="-0.008">
        <ele>22.341226666667</ele>
        <time>2018-05-13T07:51:06Z</time>
      </trkpt>
      <trkpt lat="44.68526" lon="-0.0079">
        <ele>14.241026666667</ele>
        <time>2018-05-13T07:51:15Z</time>
      </trkpt>
      <trkpt lat="44.6852" lon="-0.00781">
        <ele>11.24078</ele>
        <time>2018-05-13T07:51:22Z</time>
      </trkpt>
      <trkpt lat="44.68513" lon="-0.00773">
        <ele>6.6405266666667</ele>
        <time>2018-05-13T07:51:29Z</time>
      </trkpt>
      <trkpt lat="44.68506" lon="-0.00767">
        <ele>3.2402533333333</ele>
        <time>2018-05-13T07:51:36Z</time>
      </trkpt>
      <trkpt lat="44.685" lon="-0.00759">
        <ele>3.5399866666666</ele>
        <time>2018-05-13T07:51:43Z</time>
      </trkpt>
      <trkpt lat="44.68504" lon="-0.00749">
        <ele>9.4401666666667</ele>
        <time>2018-05-13T07:51:48Z</time>
      </trkpt>
      <trkpt lat="44.68508" lon="-0.00739">
        <ele>7.9403333333333</ele>
        <time>2018-05-13T07:51:55Z</time>
      </trkpt>
      <trkpt lat="44.68515" lon="-0.00732">
        <ele>11.140593333333</ele>
        <time>2018-05-13T07:52:03Z</time>
      </trkpt>
      <trkpt lat="44.68521" lon="-0.00724">
        <ele>14.840826666667</ele>
        <time>2018-05-13T07:52:09Z</time>
      </trkpt>
      <trkpt lat="44.68527" lon="-0.00717">
        <ele>17.34108</ele>
        <time>2018-05-13T07:52:15Z</time>
      </trkpt>
      <trkpt lat="44.68534" lon="-0.0071">
        <ele>19.94134</ele>
        <time>2018-05-13T07:52:21Z</time>
      </trkpt>
      <trkpt lat="44.6854" lon="-0.00704">
        <ele>19.641593333333</ele>
        <time>2018-05-13T07:52:28Z</time>
      </trkpt>
      <trkpt lat="44.68547" lon="-0.00696">
        <ele>20.141866666667</ele>
        <time>2018-05-13T07:52:34Z</time>
      </trkpt>
      <trkpt lat="44.68551" lon="-0.00685">
        <ele>23.44204</ele>
        <time>2018-05-13T07:52:41Z</time>
      </trkpt>
      <trkpt lat="44.68557" lon="-0.00679">
        <ele>22.342293333333</ele>
        <time>2018-05-13T07:52:48Z</time>
      </trkpt>
      <trkpt lat="44.68563" lon="-0.0067">
        <ele>21.5425</ele>
        <time>2018-05-13T07:52:56Z</time>
      </trkpt>
      <trkpt lat="44.68569" lon="-0.00662">
        <ele>18.54274</ele>
        <time>2018-05-13T07:53:03Z</time>
      </trkpt>
      <trkpt lat="44.68575" lon="-0.00654">
        <ele>20.643</ele>
        <time>2018-05-13T07:53:10Z</time>
      </trkpt>
      <trkpt lat="44.68581" lon="-0.00646">
        <ele>16.34322</ele>
        <time>2018-05-13T07:53:18Z</time>
      </trkpt>
      <trkpt lat="44.68585" lon="-0.00636">
        <ele>14.0434</ele>
        <time>2018-05-13T07:53:25Z</time>
      </trkpt>
      <trkpt lat="44.68587" lon="-0.00624">
        <ele>11.94348</ele>
        <time>2018-05-13T07:53:32Z</time>
      </trkpt>
      <trkpt lat="44.68589" lon="-0.00613">
        <ele>10.943566666667</ele>
        <time>2018-05-13T07:53:39Z</time>
      </trkpt>
      <trkpt lat="44.68595" lon="-0.00603">
        <ele>12.24378</ele>
        <time>2018-05-13T07:53:47Z</time>
      </trkpt>
      <trkpt lat="44.68602" lon="-0.00595">
        <ele>10.14406</ele>
        <time>2018-05-13T07:53:54Z</time>
      </trkpt>
      <trkpt lat="44.68605" lon="-0.00583">
        <ele>7.8442</ele>
        <time>2018-05-13T07:54:01Z</time>
      </trkpt>
      <trkpt lat="44.68609" lon="-0.00572">
        <ele>4.7443466666667</ele>
        <time>2018-05-13T07:54:09Z</time>
      </trkpt>
      <trkpt lat="44.68611" lon="-0.0056">
        <ele>5.44442</ele>
        <time>2018-05-13T07:54:16Z</time>
      </trkpt>
      <trkpt lat="44.68613" lon="-0.00549">
        <ele>7.0445266666667</ele>
        <time>2018-05-13T07:54:24Z</time>
      </trkpt>
      <trkpt lat="44.68619" lon="-0.0054">
        <ele>15.34474</ele>
        <time>2018-05-13T07:54:32Z</time>
      </trkpt>
      <trkpt lat="44.6862" lon="-0.00529">
        <ele>19.644793333333</ele>
        <time>2018-05-13T07:54:38Z</time>
      </trkpt>
      <trkpt lat="44.68617" lon="-0.00517">
        <ele>22.844693333333</ele>
        <time>2018-05-13T07:54:47Z</time>
      </trkpt>
      <trkpt lat="44.68621" lon="-0.00506">
        <ele>19.34484</ele>
        <time>2018-05-13T07:54:57Z</time>
      </trkpt>
      <trkpt lat="44.6863" lon="-0.00503">
        <ele>12.34518</ele>
        <time>2018-05-13T07:55:06Z</time>
      </trkpt>
      <trkpt lat="44.68638" lon="-0.00498">
        <ele>12.445506666667</ele>
        <time>2018-05-13T07:55:14Z</time>
      </trkpt>
      <trkpt lat="44.68646" lon="-0.00494">
        <ele>10.945846666667</ele>
        <time>2018-05-13T07:55:18Z</time>
      </trkpt>
      <trkpt lat="44.68653" lon="-0.00487">
        <ele>4.1461266666666</ele>
        <time>2018-05-13T07:55:26Z</time>
      </trkpt>
      <trkpt lat="44.68659" lon="-0.00478">
        <ele>-2.8536466666666</ele>
        <time>2018-05-13T07:55:34Z</time>
      </trkpt>
      <trkpt lat="44.68665" lon="-0.0047">
        <ele>-4.9534</ele>
        <time>2018-05-13T07:55:40Z</time>
      </trkpt>
      <trkpt lat="44.68668" lon="-0.00458">
        <ele>-6.35328</ele>
        <time>2018-05-13T07:55:48Z</time>
      </trkpt>
      <trkpt lat="44.6867" lon="-0.00448">
        <ele>-4.5532133333333</ele>
        <time>2018-05-13T07:55:55Z</time>
      </trkpt>
      <trkpt lat="44.68671" lon="-0.00436">
        <ele>-1.9531466666667</ele>
        <time>2018-05-13T07:56:02Z</time>
      </trkpt>
      <trkpt lat="44.68676" lon="-0.0043">
        <ele>-1.1529733333334</ele>
        <time>2018-05-13T07:56:06Z</time>
      </trkpt>
      <trkpt lat="44.68686" lon="-0.00422">
        <ele>-3.25258</ele>
        <time>2018-05-13T07:56:11Z</time>
      </trkpt>
      <trkpt lat="44.68689" lon="-0.00411">
        <ele>-3.4524333333334</ele>
        <time>2018-05-13T07:56:18Z</time>
      </trkpt>
      <trkpt lat="44.68691" lon="-0.00399">
        <ele>0.54761999999998</ele>
        <time>2018-05-13T07:56:30Z</time>
      </trkpt>
      <trkpt lat="44.68698" lon="-0.00392">
        <ele>1.7479066666667</ele>
        <time>2018-05-13T07:56:42Z</time>
      </trkpt>
      <trkpt lat="44.68706" lon="-0.00394">
        <ele>-6.8517733333333</ele>
        <time>2018-05-13T07:56:50Z</time>
      </trkpt>
      <trkpt lat="44.68714" lon="-0.004">
        <ele>-18.651453333333</ele>
        <time>2018-05-13T07:56:58Z</time>
      </trkpt>
      <trkpt lat="44.68722" lon="-0.00398">
        <ele>-24.351106666667</ele>
        <time>2018-05-13T07:57:10Z</time>
      </trkpt>
      <trkpt lat="44.68727" lon="-0.00407">
        <ele>-35.050906666667</ele>
        <time>2018-05-13T07:57:16Z</time>
      </trkpt>
      <trkpt lat="44.6873" lon="-0.00417">
        <ele>-48.450793333333</ele>
        <time>2018-05-13T07:57:20Z</time>
      </trkpt>
      <trkpt lat="44.6873" lon="-0.00428">
        <ele>-66.75082</ele>
        <time>2018-05-13T07:57:24Z</time>
      </trkpt>
      <trkpt lat="44.68729" lon="-0.00441">
        <ele>-90.25086</ele>
        <time>2018-05-13T07:57:29Z</time>
      </trkpt>
      <trkpt lat="44.68737" lon="-0.00443">
        <ele>-125.05052666667</ele>
        <time>2018-05-13T07:57:45Z</time>
      </trkpt>
      <trkpt lat="44.68745" lon="-0.00442">
        <ele>-130.75018666667</ele>
        <time>2018-05-13T07:57:52Z</time>
      </trkpt>
      <trkpt lat="44.68754" lon="-0.00435">
        <ele>-120.44984</ele>
        <time>2018-05-13T07:57:56Z</time>
      </trkpt>
      <trkpt lat="44.68765" lon="-0.00418">
        <ele>-102.44941333333</ele>
        <time>2018-05-13T07:58:00Z</time>
      </trkpt>
      <trkpt lat="44.68769" lon="-0.00396">
        <ele>-77.549246666667</ele>
        <time>2018-05-13T07:58:04Z</time>
      </trkpt>
      <trkpt lat="44.68771" lon="-0.00378">
        <ele>-60.549166666667</ele>
        <time>2018-05-13T07:58:09Z</time>
      </trkpt>
      <trkpt lat="44.68779" lon="-0.00371">
        <ele>-47.848826666667</ele>
        <time>2018-05-13T07:58:13Z</time>
      </trkpt>
      <trkpt lat="44.68786" lon="-0.00363">
        <ele>-37.64856</ele>
        <time>2018-05-13T07:58:18Z</time>
      </trkpt>
      <trkpt lat="44.68791" lon="-0.00352">
        <ele>-30.04836</ele>
        <time>2018-05-13T07:58:23Z</time>
      </trkpt>
      <trkpt lat="44.68796" lon="-0.00342">
        <ele>-22.64818</ele>
        <time>2018-05-13T07:58:29Z</time>
      </trkpt>
      <trkpt lat="44.688" lon="-0.00333">
        <ele>-14.948006666667</ele>
        <time>2018-05-13T07:58:39Z</time>
      </trkpt>
      <trkpt lat="44.68811" lon="-0.00334">
        <ele>-14.647566666667</ele>
        <time>2018-05-13T07:58:43Z</time>
      </trkpt>
      <trkpt lat="44.68819" lon="-0.00334">
        <ele>-14.247233333333</ele>
        <time>2018-05-13T07:58:48Z</time>
      </trkpt>
      <trkpt lat="44.68813" lon="-0.00329">
        <ele>-13.047473333333</ele>
        <time>2018-05-13T07:59:00Z</time>
      </trkpt>
      <trkpt lat="44.68808" lon="-0.00339">
        <ele>-0.24769333333333</ele>
        <time>2018-05-13T07:59:25Z</time>
      </trkpt>
      <trkpt lat="44.68815" lon="-0.00345">
        <ele>4.5526066666666</ele>
        <time>2018-05-13T07:59:33Z</time>
      </trkpt>
      <trkpt lat="44.68819" lon="-0.00353">
        <ele>3.05276</ele>
        <time>2018-05-13T07:59:42Z</time>
      </trkpt>
      <trkpt lat="44.68824" lon="-0.00363">
        <ele>-1.7470466666667</ele>
        <time>2018-05-13T07:59:52Z</time>
      </trkpt>
      <trkpt lat="44.68822" lon="-0.00374">
        <ele>-5.5471066666667</ele>
        <time>2018-05-13T07:59:57Z</time>
      </trkpt>
      <trkpt lat="44.68828" lon="-0.00383">
        <ele>-7.5468866666667</ele>
        <time>2018-05-13T08:00:06Z</time>
      </trkpt>
      <trkpt lat="44.68835" lon="-0.00382">
        <ele>-10.046586666667</ele>
        <time>2018-05-13T08:00:10Z</time>
      </trkpt>
      <trkpt lat="44.68837" lon="-0.00394">
        <ele>-7.84654</ele>
        <time>2018-05-13T08:00:31Z</time>
      </trkpt>
      <trkpt lat="44.68845" lon="-0.00396">
        <ele>5.9538133333333</ele>
        <time>2018-05-13T08:00:50Z</time>
      </trkpt>
      <trkpt lat="44.68853" lon="-0.00398">
        <ele>5.2541066666667</ele>
        <time>2018-05-13T08:00:56Z</time>
      </trkpt>
      <trkpt lat="44.6886" lon="-0.00402">
        <ele>2.2544133333334</ele>
        <time>2018-05-13T08:01:05Z</time>
      </trkpt>
      <trkpt lat="44.68868" lon="-0.00408">
        <ele>-2.3452933333333</ele>
        <time>2018-05-13T08:01:21Z</time>
      </trkpt>
      <trkpt lat="44.68876" lon="-0.00409">
        <ele>-4.6449533333333</ele>
        <time>2018-05-13T08:01:29Z</time>
      </trkpt>
      <trkpt lat="44.68885" lon="-0.00405">
        <ele>-5.24462</ele>
        <time>2018-05-13T08:01:37Z</time>
      </trkpt>
      <trkpt lat="44.68889" lon="-0.00411">
        <ele>-3.6444333333333</ele>
        <time>2018-05-13T08:01:59Z</time>
      </trkpt>
      <trkpt lat="44.689" lon="-0.00411">
        <ele>-3.7439866666667</ele>
        <time>2018-05-13T08:02:03Z</time>
      </trkpt>
      <trkpt lat="44.68906" lon="-0.00421">
        <ele>-3.44378</ele>
        <time>2018-05-13T08:02:15Z</time>
      </trkpt>
      <trkpt lat="44.68909" lon="-0.00432">
        <ele>-2.5436333333333</ele>
        <time>2018-05-13T08:02:25Z</time>
      </trkpt>
      <trkpt lat="44.68909" lon="-0.00444">
        <ele>1.7563466666666</ele>
        <time>2018-05-13T08:02:36Z</time>
      </trkpt>
      <trkpt lat="44.68912" lon="-0.00454">
        <ele>2.95646</ele>
        <time>2018-05-13T08:02:41Z</time>
      </trkpt>
      <trkpt lat="44.68917" lon="-0.00464">
        <ele>2.55666</ele>
        <time>2018-05-13T08:02:47Z</time>
      </trkpt>
      <trkpt lat="44.68922" lon="-0.00474">
        <ele>1.95686</ele>
        <time>2018-05-13T08:02:55Z</time>
      </trkpt>
      <trkpt lat="44.68929" lon="-0.0048">
        <ele>1.5571666666667</ele>
        <time>2018-05-13T08:03:05Z</time>
      </trkpt>
      <trkpt lat="44.68933" lon="-0.0049">
        <ele>0.65733333333332</ele>
        <time>2018-05-13T08:03:12Z</time>
      </trkpt>
      <trkpt lat="44.68938" lon="-0.005">
        <ele>-0.44248666666668</ele>
        <time>2018-05-13T08:03:20Z</time>
      </trkpt>
      <trkpt lat="44.68944" lon="-0.00507">
        <ele>-1.84224</ele>
        <time>2018-05-13T08:03:26Z</time>
      </trkpt>
      <trkpt lat="44.68951" lon="-0.00515">
        <ele>-0.44195999999998</ele>
        <time>2018-05-13T08:03:34Z</time>
      </trkpt>
      <trkpt lat="44.68955" lon="-0.00525">
        <ele>1.5581933333334</ele>
        <time>2018-05-13T08:03:41Z</time>
      </trkpt>
      <trkpt lat="44.68958" lon="-0.00534">
        <ele>3.6583333333333</ele>
        <time>2018-05-13T08:03:48Z</time>
      </trkpt>
      <trkpt lat="44.68964" lon="-0.00543">
        <ele>5.1585466666667</ele>
        <time>2018-05-13T08:03:55Z</time>
      </trkpt>
      <trkpt lat="44.68972" lon="-0.00547">
        <ele>5.45886</ele>
        <time>2018-05-13T08:04:02Z</time>
      </trkpt>
      <trkpt lat="44.68977" lon="-0.00558">
        <ele>7.45906</ele>
        <time>2018-05-13T08:04:12Z</time>
      </trkpt>
      <trkpt lat="44.68979" lon="-0.0057">
        <ele>3.5591533333334</ele>
        <time>2018-05-13T08:04:29Z</time>
      </trkpt>
      <trkpt lat="44.68983" lon="-0.00581">
        <ele>6.85932</ele>
        <time>2018-05-13T08:04:37Z</time>
      </trkpt>
      <trkpt lat="44.68989" lon="-0.00589">
        <ele>10.259546666667</ele>
        <time>2018-05-13T08:04:42Z</time>
      </trkpt>
      <trkpt lat="44.68995" lon="-0.00597">
        <ele>11.45978</ele>
        <time>2018-05-13T08:04:49Z</time>
      </trkpt>
      <trkpt lat="44.68999" lon="-0.00606">
        <ele>12.559966666667</ele>
        <time>2018-05-13T08:04:55Z</time>
      </trkpt>
      <trkpt lat="44.69003" lon="-0.00615">
        <ele>13.660133333333</ele>
        <time>2018-05-13T08:05:03Z</time>
      </trkpt>
      <trkpt lat="44.69011" lon="-0.00619">
        <ele>12.260446666667</ele>
        <time>2018-05-13T08:05:08Z</time>
      </trkpt>
      <trkpt lat="44.69017" lon="-0.00623">
        <ele>11.16066</ele>
        <time>2018-05-13T08:05:13Z</time>
      </trkpt>
      <trkpt lat="44.69029" lon="-0.00625">
        <ele>7.6611466666667</ele>
        <time>2018-05-13T08:05:17Z</time>
      </trkpt>
      <trkpt lat="44.69036" lon="-0.00634">
        <ele>5.9614266666667</ele>
        <time>2018-05-13T08:05:21Z</time>
      </trkpt>
      <trkpt lat="44.69036" lon="-0.00647">
        <ele>16.46144</ele>
        <time>2018-05-13T08:05:31Z</time>
      </trkpt>
      <trkpt lat="44.69041" lon="-0.00656">
        <ele>25.46164</ele>
        <time>2018-05-13T08:05:41Z</time>
      </trkpt>
      <trkpt lat="44.69042" lon="-0.0066">
        <ele>25.261686666667</ele>
        <time>2018-05-13T08:06:36Z</time>
      </trkpt>
      <trkpt lat="44.69051" lon="-0.00658">
        <ele>35.56204</ele>
        <time>2018-05-13T08:06:43Z</time>
      </trkpt>
      <trkpt lat="44.69054" lon="-0.00665">
        <ele>34.26216</ele>
        <time>2018-05-13T08:07:28Z</time>
      </trkpt>
      <trkpt lat="44.6905" lon="-0.00676">
        <ele>10.162</ele>
        <time>2018-05-13T08:07:40Z</time>
      </trkpt>
      <trkpt lat="44.69056" lon="-0.00684">
        <ele>5.8622333333333</ele>
        <time>2018-05-13T08:07:57Z</time>
      </trkpt>
      <trkpt lat="44.69062" lon="-0.00693">
        <ele>16.26248</ele>
        <time>2018-05-13T08:08:10Z</time>
      </trkpt>
      <trkpt lat="44.69064" lon="-0.00705">
        <ele>12.062553333333</ele>
        <time>2018-05-13T08:08:16Z</time>
      </trkpt>
      <trkpt lat="44.69074" lon="-0.00704">
        <ele>12.56294</ele>
        <time>2018-05-13T08:08:21Z</time>
      </trkpt>
      <trkpt lat="44.69081" lon="-0.00702">
        <ele>15.563246666667</ele>
        <time>2018-05-13T08:08:30Z</time>
      </trkpt>
      <trkpt lat="44.69089" lon="-0.00702">
        <ele>17.663566666667</ele>
        <time>2018-05-13T08:08:37Z</time>
      </trkpt>
      <trkpt lat="44.69097" lon="-0.00697">
        <ele>21.463873333333</ele>
        <time>2018-05-13T08:08:46Z</time>
      </trkpt>
      <trkpt lat="44.69107" lon="-0.00691">
        <ele>21.164266666667</ele>
        <time>2018-05-13T08:08:51Z</time>
      </trkpt>
      <trkpt lat="44.69115" lon="-0.00689">
        <ele>17.764606666667</ele>
        <time>2018-05-13T08:08:57Z</time>
      </trkpt>
      <trkpt lat="44.69124" lon="-0.0069">
        <ele>17.464953333333</ele>
        <time>2018-05-13T08:09:12Z</time>
      </trkpt>
      <trkpt lat="44.69128" lon="-0.00689">
        <ele>18.865113333333</ele>
        <time>2018-05-13T08:09:24Z</time>
      </trkpt>
      <trkpt lat="44.69145" lon="-0.00689">
        <ele>25.365786666667</ele>
        <time>2018-05-13T08:09:29Z</time>
      </trkpt>
      <trkpt lat="44.69154" lon="-0.00691">
        <ele>23.06614</ele>
        <time>2018-05-13T08:09:34Z</time>
      </trkpt>
      <trkpt lat="44.69162" lon="-0.00692">
        <ele>23.56646</ele>
        <time>2018-05-13T08:09:40Z</time>
      </trkpt>
      <trkpt lat="44.6917" lon="-0.00689">
        <ele>23.466806666667</ele>
        <time>2018-05-13T08:09:47Z</time>
      </trkpt>
      <trkpt lat="44.69178" lon="-0.00693">
        <ele>24.667113333333</ele>
        <time>2018-05-13T08:09:55Z</time>
      </trkpt>
      <trkpt lat="44.69186" lon="-0.00695">
        <ele>29.067433333333</ele>
        <time>2018-05-13T08:10:02Z</time>
      </trkpt>
      <trkpt lat="44.69195" lon="-0.00695">
        <ele>27.467786666667</ele>
        <time>2018-05-13T08:10:12Z</time>
      </trkpt>
      <trkpt lat="44.69203" lon="-0.00692">
        <ele>26.96812</ele>
        <time>2018-05-13T08:10:19Z</time>
      </trkpt>
      <trkpt lat="44.69211" lon="-0.0069">
        <ele>23.368433333333</ele>
        <time>2018-05-13T08:10:27Z</time>
      </trkpt>
      <trkpt lat="44.69218" lon="-0.00687">
        <ele>22.66872</ele>
        <time>2018-05-13T08:10:33Z</time>
      </trkpt>
      <trkpt lat="44.69226" lon="-0.00687">
        <ele>19.769033333333</ele>
        <time>2018-05-13T08:10:39Z</time>
      </trkpt>
      <trkpt lat="44.69235" lon="-0.00685">
        <ele>13.66938</ele>
        <time>2018-05-13T08:10:49Z</time>
      </trkpt>
      <trkpt lat="44.69242" lon="-0.00692">
        <ele>12.96966</ele>
        <time>2018-05-13T08:11:00Z</time>
      </trkpt>
      <trkpt lat="44.69249" lon="-0.00697">
        <ele>12.56996</ele>
        <time>2018-05-13T08:11:11Z</time>
      </trkpt>
      <trkpt lat="44.69257" lon="-0.00699">
        <ele>12.37026</ele>
        <time>2018-05-13T08:11:17Z</time>
      </trkpt>
      <trkpt lat="44.69264" lon="-0.00703">
        <ele>12.37056</ele>
        <time>2018-05-13T08:11:22Z</time>
      </trkpt>
      <trkpt lat="44.69272" lon="-0.00708">
        <ele>11.77086</ele>
        <time>2018-05-13T08:11:28Z</time>
      </trkpt>
      <trkpt lat="44.69278" lon="-0.00715">
        <ele>8.57112</ele>
        <time>2018-05-13T08:11:35Z</time>
      </trkpt>
      <trkpt lat="44.69287" lon="-0.00718">
        <ele>7.9714666666667</ele>
        <time>2018-05-13T08:11:41Z</time>
      </trkpt>
      <trkpt lat="44.69295" lon="-0.00723">
        <ele>4.4717866666667</ele>
        <time>2018-05-13T08:11:50Z</time>
      </trkpt>
      <trkpt lat="44.69302" lon="-0.00731">
        <ele>1.9720733333334</ele>
        <time>2018-05-13T08:11:58Z</time>
      </trkpt>
      <trkpt lat="44.69308" lon="-0.00739">
        <ele>2.3723066666667</ele>
        <time>2018-05-13T08:12:04Z</time>
      </trkpt>
      <trkpt lat="44.69314" lon="-0.00746">
        <ele>4.27256</ele>
        <time>2018-05-13T08:12:09Z</time>
      </trkpt>
      <trkpt lat="44.69321" lon="-0.00752">
        <ele>5.6728533333334</ele>
        <time>2018-05-13T08:12:16Z</time>
      </trkpt>
      <trkpt lat="44.69329" lon="-0.00758">
        <ele>5.17316</ele>
        <time>2018-05-13T08:12:24Z</time>
      </trkpt>
      <trkpt lat="44.69336" lon="-0.00765">
        <ele>5.6734333333333</ele>
        <time>2018-05-13T08:12:32Z</time>
      </trkpt>
      <trkpt lat="44.69343" lon="-0.00771">
        <ele>8.9737</ele>
        <time>2018-05-13T08:12:41Z</time>
      </trkpt>
      <trkpt lat="44.6935" lon="-0.00777">
        <ele>6.1740133333333</ele>
        <time>2018-05-13T08:12:47Z</time>
      </trkpt>
      <trkpt lat="44.69358" lon="-0.00777">
        <ele>2.8743266666666</ele>
        <time>2018-05-13T08:12:52Z</time>
      </trkpt>
      <trkpt lat="44.69366" lon="-0.00779">
        <ele>4.37464</ele>
        <time>2018-05-13T08:12:58Z</time>
      </trkpt>
      <trkpt lat="44.69374" lon="-0.00781">
        <ele>7.3749733333334</ele>
        <time>2018-05-13T08:13:06Z</time>
      </trkpt>
      <trkpt lat="44.69383" lon="-0.00781">
        <ele>7.9753266666667</ele>
        <time>2018-05-13T08:13:13Z</time>
      </trkpt>
      <trkpt lat="44.69392" lon="-0.00782">
        <ele>7.3756666666667</ele>
        <time>2018-05-13T08:13:19Z</time>
      </trkpt>
      <trkpt lat="44.69396" lon="-0.00772">
        <ele>6.87582</ele>
        <time>2018-05-13T08:14:08Z</time>
      </trkpt>
      <trkpt lat="44.69392" lon="-0.00761">
        <ele>2.6756666666667</ele>
        <time>2018-05-13T08:14:18Z</time>
      </trkpt>
      <trkpt lat="44.69386" lon="-0.00754">
        <ele>1.27544</ele>
        <time>2018-05-13T08:14:26Z</time>
      </trkpt>
      <trkpt lat="44.69381" lon="-0.00745">
        <ele>2.6752266666666</ele>
        <time>2018-05-13T08:14:33Z</time>
      </trkpt>
      <trkpt lat="44.69375" lon="-0.00737">
        <ele>5.2749866666666</ele>
        <time>2018-05-13T08:14:40Z</time>
      </trkpt>
      <trkpt lat="44.69368" lon="-0.0073">
        <ele>6.6747333333333</ele>
        <time>2018-05-13T08:14:48Z</time>
      </trkpt>
      <trkpt lat="44.69362" lon="-0.00722">
        <ele>7.77448</ele>
        <time>2018-05-13T08:14:55Z</time>
      </trkpt>
      <trkpt lat="44.69356" lon="-0.00715">
        <ele>9.1742333333334</ele>
        <time>2018-05-13T08:15:03Z</time>
      </trkpt>
      <trkpt lat="44.69349" lon="-0.0071">
        <ele>7.4739733333333</ele>
        <time>2018-05-13T08:15:09Z</time>
      </trkpt>
      <trkpt lat="44.69341" lon="-0.00706">
        <ele>7.67364</ele>
        <time>2018-05-13T08:15:18Z</time>
      </trkpt>
      <trkpt lat="44.69333" lon="-0.007">
        <ele>9.17332</ele>
        <time>2018-05-13T08:15:30Z</time>
      </trkpt>
      <trkpt lat="44.69326" lon="-0.00695">
        <ele>9.57304</ele>
        <time>2018-05-13T08:15:37Z</time>
      </trkpt>
      <trkpt lat="44.6932" lon="-0.00687">
        <ele>7.9727933333334</ele>
        <time>2018-05-13T08:15:46Z</time>
      </trkpt>
      <trkpt lat="44.69315" lon="-0.00678">
        <ele>5.8726133333334</ele>
        <time>2018-05-13T08:15:56Z</time>
      </trkpt>
      <trkpt lat="44.69311" lon="-0.00668">
        <ele>4.07244</ele>
        <time>2018-05-13T08:16:03Z</time>
      </trkpt>
      <trkpt lat="44.69307" lon="-0.00657">
        <ele>0.4722866666667</ele>
        <time>2018-05-13T08:16:14Z</time>
      </trkpt>
      <trkpt lat="44.69303" lon="-0.00648">
        <ele>-2.6278933333333</ele>
        <time>2018-05-13T08:16:23Z</time>
      </trkpt>
      <trkpt lat="44.69298" lon="-0.00637">
        <ele>-1.7280733333333</ele>
        <time>2018-05-13T08:16:32Z</time>
      </trkpt>
      <trkpt lat="44.69293" lon="-0.00628">
        <ele>-0.82830000000002</ele>
        <time>2018-05-13T08:16:40Z</time>
      </trkpt>
      <trkpt lat="44.69289" lon="-0.00617">
        <ele>0.67157333333332</ele>
        <time>2018-05-13T08:16:48Z</time>
      </trkpt>
      <trkpt lat="44.69283" lon="-0.00608">
        <ele>3.97132</ele>
        <time>2018-05-13T08:16:55Z</time>
      </trkpt>
      <trkpt lat="44.69277" lon="-0.00598">
        <ele>7.6710933333333</ele>
        <time>2018-05-13T08:17:02Z</time>
      </trkpt>
      <trkpt lat="44.69275" lon="-0.00587">
        <ele>5.0709866666667</ele>
        <time>2018-05-13T08:17:10Z</time>
      </trkpt>
      <trkpt lat="44.69269" lon="-0.00577">
        <ele>4.4707733333333</ele>
        <time>2018-05-13T08:17:19Z</time>
      </trkpt>
      <trkpt lat="44.69263" lon="-0.00571">
        <ele>3.9705133333334</ele>
        <time>2018-05-13T08:17:25Z</time>
      </trkpt>
      <trkpt lat="44.69255" lon="-0.00564">
        <ele>7.5702133333333</ele>
        <time>2018-05-13T08:17:35Z</time>
      </trkpt>
      <trkpt lat="44.69249" lon="-0.00556">
        <ele>5.96996</ele>
        <time>2018-05-13T08:17:45Z</time>
      </trkpt>
      <trkpt lat="44.69242" lon="-0.00551">
        <ele>2.96966</ele>
        <time>2018-05-13T08:17:57Z</time>
      </trkpt>
      <trkpt lat="44.69234" lon="-0.00546">
        <ele>2.96936</ele>
        <time>2018-05-13T08:18:03Z</time>
      </trkpt>
      <trkpt lat="44.69226" lon="-0.00546">
        <ele>2.2690333333333</ele>
        <time>2018-05-13T08:18:10Z</time>
      </trkpt>
      <trkpt lat="44.69218" lon="-0.00542">
        <ele>-0.33127333333335</ele>
        <time>2018-05-13T08:18:19Z</time>
      </trkpt>
      <trkpt lat="44.6921" lon="-0.00538">
        <ele>-0.13158666666666</ele>
        <time>2018-05-13T08:18:28Z</time>
      </trkpt>
      <trkpt lat="44.69202" lon="-0.00535">
        <ele>3.6680866666667</ele>
        <time>2018-05-13T08:18:39Z</time>
      </trkpt>
      <trkpt lat="44.69194" lon="-0.00533">
        <ele>7.5677533333334</ele>
        <time>2018-05-13T08:18:48Z</time>
      </trkpt>
      <trkpt lat="44.69186" lon="-0.00527">
        <ele>9.5674533333333</ele>
        <time>2018-05-13T08:18:55Z</time>
      </trkpt>
      <trkpt lat="44.69181" lon="-0.00518">
        <ele>9.7672266666667</ele>
        <time>2018-05-13T08:19:03Z</time>
      </trkpt>
      <trkpt lat="44.69178" lon="-0.00512">
        <ele>6.06712</ele>
        <time>2018-05-13T08:20:48Z</time>
      </trkpt>
      <trkpt lat="44.69172" lon="-0.00521">
        <ele>4.5668666666667</ele>
        <time>2018-05-13T08:23:07Z</time>
      </trkpt>
      <trkpt lat="44.69163" lon="-0.00524">
        <ele>2.6665333333333</ele>
        <time>2018-05-13T08:24:13Z</time>
      </trkpt>
      <trkpt lat="44.69171" lon="-0.0052">
        <ele>-10.933166666667</ele>
        <time>2018-05-13T08:24:28Z</time>
      </trkpt>
      <trkpt lat="44.69177" lon="-0.00511">
        <ele>-8.13292</ele>
        <time>2018-05-13T08:24:37Z</time>
      </trkpt>
      <trkpt lat="44.69179" lon="-0.00498">
        <ele>1.4671666666666</ele>
        <time>2018-05-13T08:24:49Z</time>
      </trkpt>
      <trkpt lat="44.69174" lon="-0.00488">
        <ele>2.6669733333333</ele>
        <time>2018-05-13T08:25:04Z</time>
      </trkpt>
      <trkpt lat="44.69169" lon="-0.00479">
        <ele>0.26676</ele>
        <time>2018-05-13T08:25:15Z</time>
      </trkpt>
      <trkpt lat="44.69163" lon="-0.00471">
        <ele>3.8665</ele>
        <time>2018-05-13T08:25:37Z</time>
      </trkpt>
      <trkpt lat="44.69159" lon="-0.00461">
        <ele>7.7663466666667</ele>
        <time>2018-05-13T08:25:53Z</time>
      </trkpt>
      <trkpt lat="44.69153" lon="-0.00453">
        <ele>8.86612</ele>
        <time>2018-05-13T08:26:03Z</time>
      </trkpt>
      <trkpt lat="44.69151" lon="-0.00443">
        <ele>5.6660266666666</ele>
        <time>2018-05-13T08:26:07Z</time>
      </trkpt>
      <trkpt lat="44.69145" lon="-0.00434">
        <ele>3.4658066666667</ele>
        <time>2018-05-13T08:26:19Z</time>
      </trkpt>
      <trkpt lat="44.69137" lon="-0.00432">
        <ele>7.5654666666667</ele>
        <time>2018-05-13T08:26:40Z</time>
      </trkpt>
      <trkpt lat="44.69128" lon="-0.00431">
        <ele>4.9651333333333</ele>
        <time>2018-05-13T08:26:49Z</time>
      </trkpt>
      <trkpt lat="44.69122" lon="-0.00428">
        <ele>2.46488</ele>
        <time>2018-05-13T08:26:57Z</time>
      </trkpt>
      <trkpt lat="44.69119" lon="-0.00416">
        <ele>-24.435233333333</ele>
        <time>2018-05-13T08:27:18Z</time>
      </trkpt>
      <trkpt lat="44.69112" lon="-0.00412">
        <ele>-30.035506666667</ele>
        <time>2018-05-13T08:27:23Z</time>
      </trkpt>
      <trkpt lat="44.69106" lon="-0.00406">
        <ele>-32.43576</ele>
        <time>2018-05-13T08:27:27Z</time>
      </trkpt>
      <trkpt lat="44.69098" lon="-0.00401">
        <ele>-32.436093333333</ele>
        <time>2018-05-13T08:27:31Z</time>
      </trkpt>
      <trkpt lat="44.69089" lon="-0.00395">
        <ele>-32.03644</ele>
        <time>2018-05-13T08:27:35Z</time>
      </trkpt>
      <trkpt lat="44.6908" lon="-0.00387">
        <ele>-28.13682</ele>
        <time>2018-05-13T08:27:39Z</time>
      </trkpt>
      <trkpt lat="44.69072" lon="-0.0038">
        <ele>-22.337113333333</ele>
        <time>2018-05-13T08:27:43Z</time>
      </trkpt>
      <trkpt lat="44.69065" lon="-0.0038">
        <ele>-18.237393333333</ele>
        <time>2018-05-13T08:27:49Z</time>
      </trkpt>
      <trkpt lat="44.69058" lon="-0.00382">
        <ele>-18.237693333333</ele>
        <time>2018-05-13T08:27:53Z</time>
      </trkpt>
      <trkpt lat="44.6905" lon="-0.00386">
        <ele>-26.53802</ele>
        <time>2018-05-13T08:28:00Z</time>
      </trkpt>
      <trkpt lat="44.69044" lon="-0.00376">
        <ele>-40.238246666667</ele>
        <time>2018-05-13T08:28:07Z</time>
      </trkpt>
      <trkpt lat="44.69042" lon="-0.00383">
        <ele>-34.338326666667</ele>
        <time>2018-05-13T08:28:31Z</time>
      </trkpt>
      <trkpt lat="44.6904" lon="-0.00399">
        <ele>-16.738393333333</ele>
        <time>2018-05-13T08:28:35Z</time>
      </trkpt>
      <trkpt lat="44.69034" lon="-0.00406">
        <ele>-19.33864</ele>
        <time>2018-05-13T08:28:41Z</time>
      </trkpt>
      <trkpt lat="44.69028" lon="-0.00415">
        <ele>-18.13888</ele>
        <time>2018-05-13T08:28:48Z</time>
      </trkpt>
      <trkpt lat="44.69022" lon="-0.00422">
        <ele>-15.23912</ele>
        <time>2018-05-13T08:28:53Z</time>
      </trkpt>
      <trkpt lat="44.69018" lon="-0.00433">
        <ele>-12.03928</ele>
        <time>2018-05-13T08:28:58Z</time>
      </trkpt>
      <trkpt lat="44.69014" lon="-0.00442">
        <ele>-4.93946</ele>
        <time>2018-05-13T08:29:03Z</time>
      </trkpt>
      <trkpt lat="44.69009" lon="-0.00453">
        <ele>-4.0396533333333</ele>
        <time>2018-05-13T08:29:07Z</time>
      </trkpt>
      <trkpt lat="44.69001" lon="-0.00464">
        <ele>-5.7399466666666</ele>
        <time>2018-05-13T08:29:11Z</time>
      </trkpt>
      <trkpt lat="44.68994" lon="-0.00472">
        <ele>-9.94024</ele>
        <time>2018-05-13T08:29:15Z</time>
      </trkpt>
      <trkpt lat="44.6899" lon="-0.00482">
        <ele>-16.64042</ele>
        <time>2018-05-13T08:29:20Z</time>
      </trkpt>
      <trkpt lat="44.68983" lon="-0.00487">
        <ele>-29.140686666667</ele>
        <time>2018-05-13T08:29:25Z</time>
      </trkpt>
      <trkpt lat="44.68976" lon="-0.00492">
        <ele>-41.24098</ele>
        <time>2018-05-13T08:29:29Z</time>
      </trkpt>
      <trkpt lat="44.68983" lon="-0.00493">
        <ele>-70.94068</ele>
        <time>2018-05-13T08:29:58Z</time>
      </trkpt>
      <trkpt lat="44.68994" lon="-0.00485">
        <ele>-74.24026</ele>
        <time>2018-05-13T08:30:02Z</time>
      </trkpt>
      <trkpt lat="44.68991" lon="-0.00496">
        <ele>-93.140346666667</ele>
        <time>2018-05-13T08:30:12Z</time>
      </trkpt>
      <trkpt lat="44.68984" lon="-0.005">
        <ele>-112.04065333333</ele>
        <time>2018-05-13T08:30:21Z</time>
      </trkpt>
      <trkpt lat="44.6899" lon="-0.00505">
        <ele>-117.04040666667</ele>
        <time>2018-05-13T08:30:37Z</time>
      </trkpt>
      <trkpt lat="44.68985" lon="-0.00515">
        <ele>-112.1406</ele>
        <time>2018-05-13T08:30:43Z</time>
      </trkpt>
      <trkpt lat="44.68992" lon="-0.00517">
        <ele>-104.24033333333</ele>
        <time>2018-05-13T08:31:23Z</time>
      </trkpt>
      <trkpt lat="44.69001" lon="-0.00518">
        <ele>-103.13996666667</ele>
        <time>2018-05-13T08:31:27Z</time>
      </trkpt>
      <trkpt lat="44.69008" lon="-0.00522">
        <ele>-101.83966666667</ele>
        <time>2018-05-13T08:31:34Z</time>
      </trkpt>
      <trkpt lat="44.69008" lon="-0.00534">
        <ele>-94.039693333333</ele>
        <time>2018-05-13T08:31:48Z</time>
      </trkpt>
      <trkpt lat="44.69017" lon="-0.00539">
        <ele>-89.639333333333</ele>
        <time>2018-05-13T08:31:53Z</time>
      </trkpt>
      <trkpt lat="44.69025" lon="-0.0054">
        <ele>-84.03902</ele>
        <time>2018-05-13T08:31:58Z</time>
      </trkpt>
      <trkpt lat="44.69033" lon="-0.00542">
        <ele>-76.538693333333</ele>
        <time>2018-05-13T08:32:06Z</time>
      </trkpt>
      <trkpt lat="44.69041" lon="-0.00539">
        <ele>-63.738353333333</ele>
        <time>2018-05-13T08:32:13Z</time>
      </trkpt>
      <trkpt lat="44.69049" lon="-0.00536">
        <ele>-53.238026666667</ele>
        <time>2018-05-13T08:32:18Z</time>
      </trkpt>
      <trkpt lat="44.69058" lon="-0.00535">
        <ele>-43.83768</ele>
        <time>2018-05-13T08:32:23Z</time>
      </trkpt>
      <trkpt lat="44.69066" lon="-0.00531">
        <ele>-34.83738</ele>
        <time>2018-05-13T08:32:30Z</time>
      </trkpt>
      <trkpt lat="44.69073" lon="-0.00528">
        <ele>-24.037073333333</ele>
        <time>2018-05-13T08:32:37Z</time>
      </trkpt>
      <trkpt lat="44.69081" lon="-0.00527">
        <ele>-15.236746666667</ele>
        <time>2018-05-13T08:32:43Z</time>
      </trkpt>
      <trkpt lat="44.69089" lon="-0.00524">
        <ele>-8.43646</ele>
        <time>2018-05-13T08:32:47Z</time>
      </trkpt>
      <trkpt lat="44.69097" lon="-0.00522">
        <ele>0.063866666666641</ele>
        <time>2018-05-13T08:32:53Z</time>
      </trkpt>
      <trkpt lat="44.69106" lon="-0.00522">
        <ele>8.56422</ele>
        <time>2018-05-13T08:33:02Z</time>
      </trkpt>
      <trkpt lat="44.69113" lon="-0.00522">
        <ele>13.964513333333</ele>
        <time>2018-05-13T08:33:07Z</time>
      </trkpt>
      <trkpt lat="44.69121" lon="-0.00524">
        <ele>19.964853333333</ele>
        <time>2018-05-13T08:33:14Z</time>
      </trkpt>
      <trkpt lat="44.6913" lon="-0.00522">
        <ele>29.2652</ele>
        <time>2018-05-13T08:33:25Z</time>
      </trkpt>
      <trkpt lat="44.69138" lon="-0.00527">
        <ele>31.16552</ele>
        <time>2018-05-13T08:33:34Z</time>
      </trkpt>
      <trkpt lat="44.69139" lon="-0.00537">
        <ele>31.76554</ele>
        <time>2018-05-13T08:33:45Z</time>
      </trkpt>
      <trkpt lat="44.69128" lon="-0.00558">
        <ele>13.565113333333</ele>
        <time>2018-05-13T08:33:49Z</time>
      </trkpt>
      <trkpt lat="44.69131" lon="-0.00567">
        <ele>6.9652266666667</ele>
        <time>2018-05-13T08:33:56Z</time>
      </trkpt>
      <trkpt lat="44.69138" lon="-0.00572">
        <ele>3.8655266666667</ele>
        <time>2018-05-13T08:34:01Z</time>
      </trkpt>
      <trkpt lat="44.6914" lon="-0.00583">
        <ele>-12.834406666667</ele>
        <time>2018-05-13T08:34:11Z</time>
      </trkpt>
      <trkpt lat="44.69146" lon="-0.0059">
        <ele>-16.934173333333</ele>
        <time>2018-05-13T08:34:18Z</time>
      </trkpt>
      <trkpt lat="44.69147" lon="-0.00603">
        <ele>-28.23412</ele>
        <time>2018-05-13T08:34:31Z</time>
      </trkpt>
      <trkpt lat="44.69155" lon="-0.00609">
        <ele>-21.93382</ele>
        <time>2018-05-13T08:34:45Z</time>
      </trkpt>
      <trkpt lat="44.69157" lon="-0.00621">
        <ele>-4.4337333333334</ele>
        <time>2018-05-13T08:35:01Z</time>
      </trkpt>
      <trkpt lat="44.69159" lon="-0.00622">
        <ele>-0.63363333333333</ele>
        <time>2018-05-13T08:35:09Z</time>
      </trkpt>
      <trkpt lat="44.69167" lon="-0.00629">
        <ele>0.26667333333336</ele>
        <time>2018-05-13T08:35:13Z</time>
      </trkpt>
      <trkpt lat="44.69165" lon="-0.0064">
        <ele>5.9666133333333</ele>
        <time>2018-05-13T08:35:22Z</time>
      </trkpt>
      <trkpt lat="44.69164" lon="-0.00651">
        <ele>8.1665666666666</ele>
        <time>2018-05-13T08:35:27Z</time>
      </trkpt>
      <trkpt lat="44.69166" lon="-0.00662">
        <ele>8.26662</ele>
        <time>2018-05-13T08:35:33Z</time>
      </trkpt>
      <trkpt lat="44.69168" lon="-0.00673">
        <ele>10.166706666667</ele>
        <time>2018-05-13T08:35:45Z</time>
      </trkpt>
      <trkpt lat="44.69168" lon="-0.00681">
        <ele>14.066726666667</ele>
        <time>2018-05-13T08:36:51Z</time>
      </trkpt>
      <trkpt lat="44.69163" lon="-0.00694">
        <ele>27.466513333333</ele>
        <time>2018-05-13T08:36:55Z</time>
      </trkpt>
      <trkpt lat="44.69154" lon="-0.00694">
        <ele>25.066173333333</ele>
        <time>2018-05-13T08:37:04Z</time>
      </trkpt>
      <trkpt lat="44.69147" lon="-0.00688">
        <ele>15.665893333333</ele>
        <time>2018-05-13T08:37:13Z</time>
      </trkpt>
      <trkpt lat="44.69141" lon="-0.00681">
        <ele>4.1656266666667</ele>
        <time>2018-05-13T08:37:21Z</time>
      </trkpt>
      <trkpt lat="44.69133" lon="-0.00676">
        <ele>-2.6346866666667</ele>
        <time>2018-05-13T08:37:29Z</time>
      </trkpt>
      <trkpt lat="44.69125" lon="-0.00676">
        <ele>-4.6350133333333</ele>
        <time>2018-05-13T08:37:35Z</time>
      </trkpt>
      <trkpt lat="44.69117" lon="-0.0068">
        <ele>-6.93532</ele>
        <time>2018-05-13T08:37:42Z</time>
      </trkpt>
      <trkpt lat="44.6911" lon="-0.00684">
        <ele>-6.8356066666667</ele>
        <time>2018-05-13T08:37:47Z</time>
      </trkpt>
      <trkpt lat="44.69102" lon="-0.00689">
        <ele>-6.3359266666666</ele>
        <time>2018-05-13T08:37:53Z</time>
      </trkpt>
      <trkpt lat="44.69094" lon="-0.00692">
        <ele>-4.0362533333334</ele>
        <time>2018-05-13T08:37:59Z</time>
      </trkpt>
      <trkpt lat="44.69086" lon="-0.00698">
        <ele>0.46344000000003</ele>
        <time>2018-05-13T08:38:04Z</time>
      </trkpt>
      <trkpt lat="44.69078" lon="-0.00701">
        <ele>0.76310000000001</ele>
        <time>2018-05-13T08:38:11Z</time>
      </trkpt>
      <trkpt lat="44.6907" lon="-0.00695">
        <ele>6.0628066666667</ele>
        <time>2018-05-13T08:38:22Z</time>
      </trkpt>
      <trkpt lat="44.69067" lon="-0.00685">
        <ele>15.362666666667</ele>
        <time>2018-05-13T08:38:33Z</time>
      </trkpt>
      <trkpt lat="44.69063" lon="-0.00676">
        <ele>17.362506666667</ele>
        <time>2018-05-13T08:38:38Z</time>
      </trkpt>
      <trkpt lat="44.69055" lon="-0.00669">
        <ele>20.062206666667</ele>
        <time>2018-05-13T08:38:44Z</time>
      </trkpt>
      <trkpt lat="44.69048" lon="-0.00666">
        <ele>17.3619</ele>
        <time>2018-05-13T08:38:51Z</time>
      </trkpt>
      <trkpt lat="44.6904" lon="-0.0066">
        <ele>14.16158</ele>
        <time>2018-05-13T08:39:00Z</time>
      </trkpt>
      <trkpt lat="44.69034" lon="-0.00652">
        <ele>14.861366666667</ele>
        <time>2018-05-13T08:39:08Z</time>
      </trkpt>
      <trkpt lat="44.6903" lon="-0.00644">
        <ele>14.261193333333</ele>
        <time>2018-05-13T08:39:14Z</time>
      </trkpt>
      <trkpt lat="44.69025" lon="-0.00635">
        <ele>21.461013333333</ele>
        <time>2018-05-13T08:39:20Z</time>
      </trkpt>
      <trkpt lat="44.6902" lon="-0.00625">
        <ele>19.060793333333</ele>
        <time>2018-05-13T08:39:28Z</time>
      </trkpt>
      <trkpt lat="44.69016" lon="-0.00617">
        <ele>18.16062</ele>
        <time>2018-05-13T08:39:34Z</time>
      </trkpt>
      <trkpt lat="44.6901" lon="-0.00605">
        <ele>15.4604</ele>
        <time>2018-05-13T08:39:39Z</time>
      </trkpt>
      <trkpt lat="44.69007" lon="-0.00594">
        <ele>11.660266666667</ele>
        <time>2018-05-13T08:39:47Z</time>
      </trkpt>
      <trkpt lat="44.69001" lon="-0.00587">
        <ele>9.86004</ele>
        <time>2018-05-13T08:39:53Z</time>
      </trkpt>
      <trkpt lat="44.68994" lon="-0.0058">
        <ele>6.75976</ele>
        <time>2018-05-13T08:40:01Z</time>
      </trkpt>
      <trkpt lat="44.68987" lon="-0.00574">
        <ele>13.359473333333</ele>
        <time>2018-05-13T08:40:08Z</time>
      </trkpt>
      <trkpt lat="44.68983" lon="-0.00567">
        <ele>10.9593</ele>
        <time>2018-05-13T08:40:14Z</time>
      </trkpt>
      <trkpt lat="44.6898" lon="-0.00557">
        <ele>8.3591933333333</ele>
        <time>2018-05-13T08:40:20Z</time>
      </trkpt>
      <trkpt lat="44.68976" lon="-0.00546">
        <ele>6.05904</ele>
        <time>2018-05-13T08:40:27Z</time>
      </trkpt>
      <trkpt lat="44.68969" lon="-0.0054">
        <ele>10.25876</ele>
        <time>2018-05-13T08:40:35Z</time>
      </trkpt>
      <trkpt lat="44.68962" lon="-0.00534">
        <ele>16.15848</ele>
        <time>2018-05-13T08:40:43Z</time>
      </trkpt>
      <trkpt lat="44.68956" lon="-0.00527">
        <ele>18.05824</ele>
        <time>2018-05-13T08:40:51Z</time>
      </trkpt>
      <trkpt lat="44.6895" lon="-0.0052">
        <ele>18.458</ele>
        <time>2018-05-13T08:40:58Z</time>
      </trkpt>
      <trkpt lat="44.68946" lon="-0.00509">
        <ele>17.057846666667</ele>
        <time>2018-05-13T08:41:06Z</time>
      </trkpt>
      <trkpt lat="44.68945" lon="-0.00497">
        <ele>14.757813333333</ele>
        <time>2018-05-13T08:41:13Z</time>
      </trkpt>
      <trkpt lat="44.68942" lon="-0.00486">
        <ele>13.957673333333</ele>
        <time>2018-05-13T08:41:20Z</time>
      </trkpt>
      <trkpt lat="44.68938" lon="-0.00476">
        <ele>15.757513333333</ele>
        <time>2018-05-13T08:41:27Z</time>
      </trkpt>
      <trkpt lat="44.68931" lon="-0.00468">
        <ele>15.75724</ele>
        <time>2018-05-13T08:41:33Z</time>
      </trkpt>
      <trkpt lat="44.68924" lon="-0.00461">
        <ele>14.156953333333</ele>
        <time>2018-05-13T08:41:40Z</time>
      </trkpt>
      <trkpt lat="44.68923" lon="-0.00449">
        <ele>7.5569333333334</ele>
        <time>2018-05-13T08:41:49Z</time>
      </trkpt>
      <trkpt lat="44.68919" lon="-0.00439">
        <ele>1.1567533333334</ele>
        <time>2018-05-13T08:41:58Z</time>
      </trkpt>
      <trkpt lat="44.68912" lon="-0.00432">
        <ele>0.75648666666669</ele>
        <time>2018-05-13T08:42:02Z</time>
      </trkpt>
      <trkpt lat="44.68905" lon="-0.00426">
        <ele>-0.44379333333335</ele>
        <time>2018-05-13T08:42:07Z</time>
      </trkpt>
      <trkpt lat="44.68898" lon="-0.00419">
        <ele>-0.8441</ele>
        <time>2018-05-13T08:42:12Z</time>
      </trkpt>
      <trkpt lat="44.68889" lon="-0.00413">
        <ele>-4.6444533333333</ele>
        <time>2018-05-13T08:42:17Z</time>
      </trkpt>
      <trkpt lat="44.68883" lon="-0.00405">
        <ele>-9.1447</ele>
        <time>2018-05-13T08:42:23Z</time>
      </trkpt>
      <trkpt lat="44.68877" lon="-0.00398">
        <ele>-11.244926666667</ele>
        <time>2018-05-13T08:42:28Z</time>
      </trkpt>
      <trkpt lat="44.68869" lon="-0.00397">
        <ele>-10.74524</ele>
        <time>2018-05-13T08:42:33Z</time>
      </trkpt>
      <trkpt lat="44.68861" lon="-0.00397">
        <ele>1.2544266666667</ele>
        <time>2018-05-13T08:42:39Z</time>
      </trkpt>
      <trkpt lat="44.68853" lon="-0.00402">
        <ele>10.254133333333</ele>
        <time>2018-05-13T08:42:47Z</time>
      </trkpt>
      <trkpt lat="44.68845" lon="-0.00404">
        <ele>12.053793333333</ele>
        <time>2018-05-13T08:42:54Z</time>
      </trkpt>
      <trkpt lat="44.68838" lon="-0.00399">
        <ele>11.253526666667</ele>
        <time>2018-05-13T08:42:59Z</time>
      </trkpt>
      <trkpt lat="44.6883" lon="-0.00398">
        <ele>14.953206666667</ele>
        <time>2018-05-13T08:43:05Z</time>
      </trkpt>
      <trkpt lat="44.68822" lon="-0.00397">
        <ele>17.35288</ele>
        <time>2018-05-13T08:43:15Z</time>
      </trkpt>
      <trkpt lat="44.68813" lon="-0.00394">
        <ele>14.752533333333</ele>
        <time>2018-05-13T08:43:22Z</time>
      </trkpt>
      <trkpt lat="44.6881" lon="-0.00384">
        <ele>14.352386666667</ele>
        <time>2018-05-13T08:43:34Z</time>
      </trkpt>
      <trkpt lat="44.68806" lon="-0.00372">
        <ele>13.652253333333</ele>
        <time>2018-05-13T08:43:43Z</time>
      </trkpt>
      <trkpt lat="44.6881" lon="-0.00361">
        <ele>5.5524</ele>
        <time>2018-05-13T08:43:53Z</time>
      </trkpt>
      <trkpt lat="44.68812" lon="-0.0035">
        <ele>-1.4475333333333</ele>
        <time>2018-05-13T08:44:02Z</time>
      </trkpt>
      <trkpt lat="44.6881" lon="-0.00338">
        <ele>-5.9476066666667</ele>
        <time>2018-05-13T08:44:07Z</time>
      </trkpt>
      <trkpt lat="44.68811" lon="-0.00326">
        <ele>-8.3475533333333</ele>
        <time>2018-05-13T08:44:14Z</time>
      </trkpt>
      <trkpt lat="44.68812" lon="-0.00315">
        <ele>-10.24754</ele>
        <time>2018-05-13T08:44:23Z</time>
      </trkpt>
      <trkpt lat="44.68813" lon="-0.00303">
        <ele>-2.74748</ele>
        <time>2018-05-13T08:44:30Z</time>
      </trkpt>
      <trkpt lat="44.68816" lon="-0.00293">
        <ele>1.15264</ele>
        <time>2018-05-13T08:44:36Z</time>
      </trkpt>
      <trkpt lat="44.6882" lon="-0.00282">
        <ele>-3.0472</ele>
        <time>2018-05-13T08:44:44Z</time>
      </trkpt>
      <trkpt lat="44.68828" lon="-0.00284">
        <ele>-19.946893333333</ele>
        <time>2018-05-13T08:44:54Z</time>
      </trkpt>
      <trkpt lat="44.68835" lon="-0.00288">
        <ele>-33.74662</ele>
        <time>2018-05-13T08:44:59Z</time>
      </trkpt>
      <trkpt lat="44.68844" lon="-0.00288">
        <ele>-40.74624</ele>
        <time>2018-05-13T08:45:04Z</time>
      </trkpt>
      <trkpt lat="44.68852" lon="-0.00285">
        <ele>-47.045913333333</ele>
        <time>2018-05-13T08:45:10Z</time>
      </trkpt>
      <trkpt lat="44.68859" lon="-0.00279">
        <ele>-50.345626666667</ele>
        <time>2018-05-13T08:45:16Z</time>
      </trkpt>
      <trkpt lat="44.68866" lon="-0.00275">
        <ele>-51.645353333333</ele>
        <time>2018-05-13T08:45:22Z</time>
      </trkpt>
      <trkpt lat="44.68874" lon="-0.00269">
        <ele>-55.64504</ele>
        <time>2018-05-13T08:45:30Z</time>
      </trkpt>
      <trkpt lat="44.68881" lon="-0.00265">
        <ele>-57.744766666667</ele>
        <time>2018-05-13T08:45:36Z</time>
      </trkpt>
      <trkpt lat="44.68889" lon="-0.00259">
        <ele>-58.54446</ele>
        <time>2018-05-13T08:45:43Z</time>
      </trkpt>
      <trkpt lat="44.68895" lon="-0.00252">
        <ele>-59.4442</ele>
        <time>2018-05-13T08:45:56Z</time>
      </trkpt>
      <trkpt lat="44.68901" lon="-0.00244">
        <ele>-58.443966666667</ele>
        <time>2018-05-13T08:46:15Z</time>
      </trkpt>
      <trkpt lat="44.68909" lon="-0.00238">
        <ele>-62.34364</ele>
        <time>2018-05-13T08:46:19Z</time>
      </trkpt>
      <trkpt lat="44.6891" lon="-0.00235">
        <ele>-61.443613333333</ele>
        <time>2018-05-13T08:46:30Z</time>
      </trkpt>
      <trkpt lat="44.689" lon="-0.00225">
        <ele>-54.743993333333</ele>
        <time>2018-05-13T08:46:35Z</time>
      </trkpt>
      <trkpt lat="44.68899" lon="-0.00213">
        <ele>-45.84406</ele>
        <time>2018-05-13T08:46:43Z</time>
      </trkpt>
      <trkpt lat="44.68898" lon="-0.00201">
        <ele>-33.944086666667</ele>
        <time>2018-05-13T08:46:49Z</time>
      </trkpt>
      <trkpt lat="44.68897" lon="-0.00189">
        <ele>-30.844113333333</ele>
        <time>2018-05-13T08:47:06Z</time>
      </trkpt>
      <trkpt lat="44.68897" lon="-0.00186">
        <ele>-29.54414</ele>
        <time>2018-05-13T08:47:29Z</time>
      </trkpt>
      <trkpt lat="44.68885" lon="-0.00176">
        <ele>-21.044606666667</ele>
        <time>2018-05-13T08:47:33Z</time>
      </trkpt>
      <trkpt lat="44.68892" lon="-0.00169">
        <ele>-18.24432</ele>
        <time>2018-05-13T08:47:45Z</time>
      </trkpt>
      <trkpt lat="44.689" lon="-0.00167">
        <ele>-18.143986666667</ele>
        <time>2018-05-13T08:48:00Z</time>
      </trkpt>
      <trkpt lat="44.68906" lon="-0.00158">
        <ele>-14.24378</ele>
        <time>2018-05-13T08:48:13Z</time>
      </trkpt>
      <trkpt lat="44.68909" lon="-0.00146">
        <ele>-21.143646666667</ele>
        <time>2018-05-13T08:48:24Z</time>
      </trkpt>
      <trkpt lat="44.68914" lon="-0.00137">
        <ele>-25.943446666667</ele>
        <time>2018-05-13T08:48:35Z</time>
      </trkpt>
      <trkpt lat="44.68916" lon="-0.00126">
        <ele>-25.643346666667</ele>
        <time>2018-05-13T08:48:46Z</time>
      </trkpt>
      <trkpt lat="44.6892" lon="-0.00116">
        <ele>-28.343186666667</ele>
        <time>2018-05-13T08:48:58Z</time>
      </trkpt>
      <trkpt lat="44.68924" lon="-0.00105">
        <ele>-29.44304</ele>
        <time>2018-05-13T08:49:29Z</time>
      </trkpt>
      <trkpt lat="44.68918" lon="-0.00094">
        <ele>-13.743286666667</ele>
        <time>2018-05-13T08:49:33Z</time>
      </trkpt>
      <trkpt lat="44.6892" lon="-0.00083">
        <ele>-9.2432133333333</ele>
        <time>2018-05-13T08:49:43Z</time>
      </trkpt>
      <trkpt lat="44.68924" lon="-0.00072">
        <ele>-10.643053333333</ele>
        <time>2018-05-13T08:49:50Z</time>
      </trkpt>
      <trkpt lat="44.68928" lon="-0.00062">
        <ele>-10.842893333333</ele>
        <time>2018-05-13T08:49:57Z</time>
      </trkpt>
      <trkpt lat="44.68929" lon="-0.0005">
        <ele>-7.34284</ele>
        <time>2018-05-13T08:50:05Z</time>
      </trkpt>
      <trkpt lat="44.68929" lon="-0.00037">
        <ele>-0.84284666666668</ele>
        <time>2018-05-13T08:50:12Z</time>
      </trkpt>
      <trkpt lat="44.68932" lon="-0.00026">
        <ele>-2.74274</ele>
        <time>2018-05-13T08:50:20Z</time>
      </trkpt>
      <trkpt lat="44.68933" lon="-0.00014">
        <ele>-8.5426666666667</ele>
        <time>2018-05-13T08:50:28Z</time>
      </trkpt>
      <trkpt lat="44.68936" lon="-2.0E-5">
        <ele>-12.442573333333</ele>
        <time>2018-05-13T08:50:38Z</time>
      </trkpt>
      <trkpt lat="44.68938" lon="0.0001">
        <ele>-12.442774521733</ele>
        <time>2018-05-13T08:50:54Z</time>
      </trkpt>
      <trkpt lat="44.68939" lon="0.0002">
        <ele>-15.843037775822</ele>
        <time>2018-05-13T08:51:05Z</time>
      </trkpt>
      <trkpt lat="44.68942" lon="0.00031">
        <ele>-20.443256308978</ele>
        <time>2018-05-13T08:51:11Z</time>
      </trkpt>
      <trkpt lat="44.68934" lon="0.00031">
        <ele>-22.643570637733</ele>
        <time>2018-05-13T08:51:44Z</time>
      </trkpt>
      <trkpt lat="44.68942" lon="0.00031">
        <ele>-7.0432310525333</ele>
        <time>2018-05-13T08:52:19Z</time>
      </trkpt>
      <trkpt lat="44.68948" lon="0.00039">
        <ele>-10.843249042667</ele>
        <time>2018-05-13T08:52:30Z</time>
      </trkpt>
      <trkpt lat="44.68953" lon="0.00049">
        <ele>-21.743357406533</ele>
        <time>2018-05-13T08:52:40Z</time>
      </trkpt>
      <trkpt lat="44.68956" lon="0.00059">
        <ele>-21.243537740489</ele>
        <time>2018-05-13T08:52:49Z</time>
      </trkpt>
      <trkpt lat="44.68958" lon="0.0007">
        <ele>-17.44382324</ele>
        <time>2018-05-13T08:52:55Z</time>
      </trkpt>
      <trkpt lat="44.68959" lon="0.00081">
        <ele>-17.144108787156</ele>
        <time>2018-05-13T08:53:01Z</time>
      </trkpt>
      <trkpt lat="44.68962" lon="0.00093">
        <ele>-22.644354829333</ele>
        <time>2018-05-13T08:53:11Z</time>
      </trkpt>
      <trkpt lat="44.68965" lon="0.00104">
        <ele>-28.744574111111</ele>
        <time>2018-05-13T08:53:20Z</time>
      </trkpt>
      <trkpt lat="44.68972" lon="0.00112">
        <ele>-32.644534633733</ele>
        <time>2018-05-13T08:53:29Z</time>
      </trkpt>
      <trkpt lat="44.68972" lon="0.00124">
        <ele>-31.3448707776</ele>
        <time>2018-05-13T08:53:40Z</time>
      </trkpt>
      <trkpt lat="44.68972" lon="0.00135">
        <ele>-27.445247962133</ele>
        <time>2018-05-13T08:53:48Z</time>
      </trkpt>
      <trkpt lat="44.68974" lon="0.00148">
        <ele>-24.845537746</ele>
        <time>2018-05-13T08:53:56Z</time>
      </trkpt>
      <trkpt lat="44.68974" lon="0.00159">
        <ele>-18.245865421111</ele>
        <time>2018-05-13T08:54:14Z</time>
      </trkpt>
      <trkpt lat="44.68979" lon="0.00162">
        <ele>-14.245776102311</ele>
        <time>2018-05-13T08:55:00Z</time>
      </trkpt>
      <trkpt lat="44.68985" lon="0.00172">
        <ele>-14.345802863067</ele>
        <time>2018-05-13T08:55:05Z</time>
      </trkpt>
      <trkpt lat="44.68989" lon="0.00181">
        <ele>-14.945930641733</ele>
        <time>2018-05-13T08:55:13Z</time>
      </trkpt>
      <trkpt lat="44.68997" lon="0.00179">
        <ele>-15.445559187778</ele>
        <time>2018-05-13T08:55:19Z</time>
      </trkpt>
      <trkpt lat="44.68998" lon="0.00192">
        <ele>-16.4459259</ele>
        <time>2018-05-13T08:55:31Z</time>
      </trkpt>
      <trkpt lat="44.69001" lon="0.00202">
        <ele>-17.646106190133</ele>
        <time>2018-05-13T08:55:45Z</time>
      </trkpt>
      <trkpt lat="44.69009" lon="0.00206">
        <ele>-18.345935339467</ele>
        <time>2018-05-13T08:55:57Z</time>
      </trkpt>
      <trkpt lat="44.69009" lon="0.00207">
        <ele>-19.145934238444</ele>
        <time>2018-05-13T08:56:39Z</time>
      </trkpt>
      <trkpt lat="44.69015" lon="0.00223">
        <ele>-2.3462043736</ele>
        <time>2018-05-13T08:56:44Z</time>
      </trkpt>
      <trkpt lat="44.69016" lon="0.00235">
        <ele>0.75347170515553</ele>
        <time>2018-05-13T08:56:51Z</time>
      </trkpt>
      <trkpt lat="44.69023" lon="0.00239">
        <ele>2.8536354592</ele>
        <time>2018-05-13T08:56:59Z</time>
      </trkpt>
      <trkpt lat="44.6903" lon="0.00244">
        <ele>8.1537772896</ele>
        <time>2018-05-13T08:57:04Z</time>
      </trkpt>
      <trkpt lat="44.69038" lon="0.00249">
        <ele>11.853948461333</ele>
        <time>2018-05-13T08:57:12Z</time>
      </trkpt>
      <trkpt lat="44.69042" lon="0.0026">
        <ele>-17.246241472</ele>
        <time>2018-05-13T08:57:31Z</time>
      </trkpt>
      <trkpt lat="44.69048" lon="0.00268">
        <ele>-33.746232544</ele>
        <time>2018-05-13T08:57:40Z</time>
      </trkpt>
      <trkpt lat="44.69054" lon="0.00277">
        <ele>-36.446281163556</ele>
        <time>2018-05-13T08:57:47Z</time>
      </trkpt>
      <trkpt lat="44.69062" lon="0.00283">
        <ele>-36.3461710472</ele>
        <time>2018-05-13T08:58:02Z</time>
      </trkpt>
      <trkpt lat="44.6907" lon="0.00282">
        <ele>-38.745786115644</ele>
        <time>2018-05-13T08:58:18Z</time>
      </trkpt>
      <trkpt lat="44.69075" lon="0.00292">
        <ele>-16.345888488889</ele>
        <time>2018-05-13T08:59:10Z</time>
      </trkpt>
      <trkpt lat="44.69079" lon="0.0028">
        <ele>-12.545399071689</ele>
        <time>2018-05-13T08:59:32Z</time>
      </trkpt>
      <trkpt lat="44.69086" lon="0.00274">
        <ele>-8.9449054398667</ele>
        <time>2018-05-13T08:59:41Z</time>
      </trkpt>
      <trkpt lat="44.69093" lon="0.00267">
        <ele>-6.9444344464</ele>
        <time>2018-05-13T08:59:48Z</time>
      </trkpt>
      <trkpt lat="44.691" lon="0.0026">
        <ele>-9.7439288159111</ele>
        <time>2018-05-13T08:59:57Z</time>
      </trkpt>
      <trkpt lat="44.69105" lon="0.00249">
        <ele>-6.6434231268889</ele>
        <time>2018-05-13T09:00:04Z</time>
      </trkpt>
      <trkpt lat="44.69111" lon="0.0024">
        <ele>-3.3429067331555</ele>
        <time>2018-05-13T09:00:13Z</time>
      </trkpt>
      <trkpt lat="44.69117" lon="0.00231">
        <ele>-3.0423958389334</ele>
        <time>2018-05-13T09:00:22Z</time>
      </trkpt>
      <trkpt lat="44.69124" lon="0.00224">
        <ele>-0.94190215582224</ele>
        <time>2018-05-13T09:00:29Z</time>
      </trkpt>
      <trkpt lat="44.69126" lon="0.00213">
        <ele>-2.7414613303111</ele>
        <time>2018-05-13T09:00:37Z</time>
      </trkpt>
      <trkpt lat="44.69133" lon="0.00204">
        <ele>-2.8409418276445</ele>
        <time>2018-05-13T09:00:46Z</time>
      </trkpt>
      <trkpt lat="44.69141" lon="0.002">
        <ele>-2.0404902242667</ele>
        <time>2018-05-13T09:00:52Z</time>
      </trkpt>
      <trkpt lat="44.69148" lon="0.00194">
        <ele>-1.7400265569778</ele>
        <time>2018-05-13T09:00:59Z</time>
      </trkpt>
      <trkpt lat="44.69154" lon="0.00186">
        <ele>-1.1395483568889</ele>
        <time>2018-05-13T09:01:06Z</time>
      </trkpt>
      <trkpt lat="44.6916" lon="0.00178">
        <ele>0.46092848360003</ele>
        <time>2018-05-13T09:01:13Z</time>
      </trkpt>
      <trkpt lat="44.69165" lon="0.00169">
        <ele>3.2614295163111</ele>
        <time>2018-05-13T09:01:21Z</time>
      </trkpt>
      <trkpt lat="44.69171" lon="0.0016">
        <ele>5.2619219994666</ele>
        <time>2018-05-13T09:01:28Z</time>
      </trkpt>
      <trkpt lat="44.69177" lon="0.00152">
        <ele>8.1624447477333</ele>
        <time>2018-05-13T09:01:35Z</time>
      </trkpt>
      <trkpt lat="44.69184" lon="0.00145">
        <ele>8.5629180310666</ele>
        <time>2018-05-13T09:01:42Z</time>
      </trkpt>
      <trkpt lat="44.6919" lon="0.00138">
        <ele>8.3633863425778</ele>
        <time>2018-05-13T09:01:49Z</time>
      </trkpt>
      <trkpt lat="44.69197" lon="0.00132">
        <ele>9.3638292004444</ele>
        <time>2018-05-13T09:01:55Z</time>
      </trkpt>
      <trkpt lat="44.69204" lon="0.00126">
        <ele>11.2642905704</ele>
        <time>2018-05-13T09:02:01Z</time>
      </trkpt>
      <trkpt lat="44.69211" lon="0.00119">
        <ele>13.2647520752</ele>
        <time>2018-05-13T09:02:09Z</time>
      </trkpt>
      <trkpt lat="44.69219" lon="0.00115">
        <ele>13.165217068</ele>
        <time>2018-05-13T09:02:17Z</time>
      </trkpt>
      <trkpt lat="44.69226" lon="0.0011">
        <ele>12.765657734356</ele>
        <time>2018-05-13T09:02:25Z</time>
      </trkpt>
      <trkpt lat="44.69233" lon="0.00103">
        <ele>12.666138633644</ele>
        <time>2018-05-13T09:02:32Z</time>
      </trkpt>
      <trkpt lat="44.69241" lon="0.00103">
        <ele>12.166479345067</ele>
        <time>2018-05-13T09:02:39Z</time>
      </trkpt>
      <trkpt lat="44.69249" lon="0.00105">
        <ele>10.566739445333</ele>
        <time>2018-05-13T09:02:51Z</time>
      </trkpt>
      <trkpt lat="44.69257" lon="0.00098">
        <ele>10.167247221333</ele>
        <time>2018-05-13T09:02:59Z</time>
      </trkpt>
      <trkpt lat="44.69251" lon="0.00088">
        <ele>12.267330968756</ele>
        <time>2018-05-13T09:03:04Z</time>
      </trkpt>
      <trkpt lat="44.69256" lon="0.00078">
        <ele>13.167841986133</ele>
        <time>2018-05-13T09:03:14Z</time>
      </trkpt>
      <trkpt lat="44.69254" lon="0.00068">
        <ele>10.868093865333</ele>
        <time>2018-05-13T09:03:24Z</time>
      </trkpt>
      <trkpt lat="44.69262" lon="0.00061">
        <ele>2.1685985148889</ele>
        <time>2018-05-13T09:03:35Z</time>
      </trkpt>
      <trkpt lat="44.69269" lon="0.00056">
        <ele>-1.3309649891111</ele>
        <time>2018-05-13T09:03:39Z</time>
      </trkpt>
      <trkpt lat="44.69279" lon="0.00052">
        <ele>-4.2304219366666</ele>
        <time>2018-05-13T09:03:43Z</time>
      </trkpt>
      <trkpt lat="44.69291" lon="0.00049">
        <ele>-6.5298436741333</ele>
        <time>2018-05-13T09:03:47Z</time>
      </trkpt>
      <trkpt lat="44.69302" lon="0.00049">
        <ele>-9.7294148223111</ele>
        <time>2018-05-13T09:03:52Z</time>
      </trkpt>
      <trkpt lat="44.6931" lon="0.00047">
        <ele>-10.229062410667</ele>
        <time>2018-05-13T09:03:56Z</time>
      </trkpt>
      <trkpt lat="44.69318" lon="0.00044">
        <ele>-9.5286496493333</ele>
        <time>2018-05-13T09:04:01Z</time>
      </trkpt>
      <trkpt lat="44.69327" lon="0.00043">
        <ele>-9.8282593557333</ele>
        <time>2018-05-13T09:04:05Z</time>
      </trkpt>
      <trkpt lat="44.69335" lon="0.00043">
        <ele>-10.427913280711</ele>
        <time>2018-05-13T09:04:09Z</time>
      </trkpt>
      <trkpt lat="44.69342" lon="0.00036">
        <ele>-10.127444414933</ele>
        <time>2018-05-13T09:04:16Z</time>
      </trkpt>
      <trkpt lat="44.69347" lon="0.00027">
        <ele>-4.7269676090222</ele>
        <time>2018-05-13T09:04:21Z</time>
      </trkpt>
      <trkpt lat="44.69351" lon="0.00017">
        <ele>-3.1264811869333</ele>
        <time>2018-05-13T09:04:31Z</time>
      </trkpt>
      <trkpt lat="44.69357" lon="9.0E-5">
        <ele>-2.3259765908</ele>
        <time>2018-05-13T09:04:37Z</time>
      </trkpt>
      <trkpt lat="44.69365" lon="3.0E-5">
        <ele>-0.62547962026665</ele>
        <time>2018-05-13T09:04:41Z</time>
      </trkpt>
      <trkpt lat="44.69372" lon="-4.0E-5">
        <ele>0.67488666666667</ele>
        <time>2018-05-13T09:04:46Z</time>
      </trkpt>
      <trkpt lat="44.69378" lon="-0.0001">
        <ele>2.9751266666667</ele>
        <time>2018-05-13T09:04:50Z</time>
      </trkpt>
      <trkpt lat="44.69385" lon="-0.00017">
        <ele>5.6754133333333</ele>
        <time>2018-05-13T09:04:55Z</time>
      </trkpt>
      <trkpt lat="44.69392" lon="-0.00024">
        <ele>7.37568</ele>
        <time>2018-05-13T09:05:01Z</time>
      </trkpt>
      <trkpt lat="44.69398" lon="-0.00032">
        <ele>10.375933333333</ele>
        <time>2018-05-13T09:05:10Z</time>
      </trkpt>
      <trkpt lat="44.69405" lon="-0.00038">
        <ele>8.7762066666667</ele>
        <time>2018-05-13T09:05:23Z</time>
      </trkpt>
      <trkpt lat="44.69408" lon="-0.00028">
        <ele>13.47632</ele>
        <time>2018-05-13T09:07:28Z</time>
      </trkpt>
      <trkpt lat="44.69409" lon="-0.00016">
        <ele>14.97636</ele>
        <time>2018-05-13T09:07:34Z</time>
      </trkpt>
      <trkpt lat="44.6941" lon="-4.0E-5">
        <ele>13.776393333333</ele>
        <time>2018-05-13T09:07:40Z</time>
      </trkpt>
      <trkpt lat="44.69413" lon="6.0E-5">
        <ele>8.5763558308</ele>
        <time>2018-05-13T09:07:50Z</time>
      </trkpt>
      <trkpt lat="44.69418" lon="0.00016">
        <ele>2.0762384336</ele>
        <time>2018-05-13T09:07:58Z</time>
      </trkpt>
      <trkpt lat="44.69418" lon="0.00028">
        <ele>-2.1241314297778</ele>
        <time>2018-05-13T09:08:05Z</time>
      </trkpt>
      <trkpt lat="44.69417" lon="0.00039">
        <ele>-3.1245131303111</ele>
        <time>2018-05-13T09:08:10Z</time>
      </trkpt>
      <trkpt lat="44.69417" lon="0.0005">
        <ele>-2.9248837157333</ele>
        <time>2018-05-13T09:08:15Z</time>
      </trkpt>
      <trkpt lat="44.69416" lon="0.00062">
        <ele>1.2747154052889</ele>
        <time>2018-05-13T09:08:20Z</time>
      </trkpt>
      <trkpt lat="44.69416" lon="0.00074">
        <ele>0.67435297017778</ele>
        <time>2018-05-13T09:08:26Z</time>
      </trkpt>
      <trkpt lat="44.69415" lon="0.00086">
        <ele>-0.52607003764445</ele>
        <time>2018-05-13T09:08:32Z</time>
      </trkpt>
      <trkpt lat="44.69418" lon="0.00098">
        <ele>-0.32632620484445</ele>
        <time>2018-05-13T09:08:39Z</time>
      </trkpt>
      <trkpt lat="44.69417" lon="0.00109">
        <ele>-1.2267365930666</ele>
        <time>2018-05-13T09:08:45Z</time>
      </trkpt>
      <trkpt lat="44.69419" lon="0.00121">
        <ele>-0.52697734866666</ele>
        <time>2018-05-13T09:08:52Z</time>
      </trkpt>
      <trkpt lat="44.69422" lon="0.00132">
        <ele>1.5727737164</ele>
        <time>2018-05-13T09:08:58Z</time>
      </trkpt>
      <trkpt lat="44.69425" lon="0.00142">
        <ele>1.4725837422222</ele>
        <time>2018-05-13T09:09:05Z</time>
      </trkpt>
      <trkpt lat="44.69428" lon="0.00152">
        <ele>2.2723974002667</ele>
        <time>2018-05-13T09:09:10Z</time>
      </trkpt>
      <trkpt lat="44.69431" lon="0.00162">
        <ele>3.1721836144</ele>
        <time>2018-05-13T09:09:16Z</time>
      </trkpt>
      <trkpt lat="44.69433" lon="0.00174">
        <ele>4.3719069763556</ele>
        <time>2018-05-13T09:09:22Z</time>
      </trkpt>
      <trkpt lat="44.69432" lon="0.00186">
        <ele>2.8714970368</ele>
        <time>2018-05-13T09:09:29Z</time>
      </trkpt>
      <trkpt lat="44.69433" lon="0.00199">
        <ele>-15.128865148267</ele>
        <time>2018-05-13T09:09:41Z</time>
      </trkpt>
      <trkpt lat="44.69435" lon="0.00209">
        <ele>-10.329109429333</ele>
        <time>2018-05-13T09:09:47Z</time>
      </trkpt>
      <trkpt lat="44.69437" lon="0.00222">
        <ele>-6.8293952576</ele>
        <time>2018-05-13T09:09:56Z</time>
      </trkpt>
      <trkpt lat="44.69439" lon="0.00233">
        <ele>-5.1297118564</ele>
        <time>2018-05-13T09:10:03Z</time>
      </trkpt>
      <trkpt lat="44.69442" lon="0.00244">
        <ele>-4.1299285444444</ele>
        <time>2018-05-13T09:10:12Z</time>
      </trkpt>
      <trkpt lat="44.69444" lon="0.00256">
        <ele>-0.83020049075557</ele>
        <time>2018-05-13T09:10:21Z</time>
      </trkpt>
      <trkpt lat="44.69444" lon="0.00267">
        <ele>2.6694417427111</ele>
        <time>2018-05-13T09:10:28Z</time>
      </trkpt>
      <trkpt lat="44.69444" lon="0.00279">
        <ele>4.2690881977777</ele>
        <time>2018-05-13T09:10:37Z</time>
      </trkpt>
      <trkpt lat="44.69446" lon="0.0029">
        <ele>5.8688118704</ele>
        <time>2018-05-13T09:10:46Z</time>
      </trkpt>
      <trkpt lat="44.69448" lon="0.00302">
        <ele>6.1685330986667</ele>
        <time>2018-05-13T09:10:56Z</time>
      </trkpt>
      <trkpt lat="44.69451" lon="0.00313">
        <ele>4.4682753991111</ele>
        <time>2018-05-13T09:11:07Z</time>
      </trkpt>
      <trkpt lat="44.69455" lon="0.00324">
        <ele>8.2681117432889</ele>
        <time>2018-05-13T09:11:20Z</time>
      </trkpt>
      <trkpt lat="44.69457" lon="0.00335">
        <ele>5.5678378933333</ele>
        <time>2018-05-13T09:11:27Z</time>
      </trkpt>
      <trkpt lat="44.69458" lon="0.00348">
        <ele>4.36748163</ele>
        <time>2018-05-13T09:11:36Z</time>
      </trkpt>
      <trkpt lat="44.69458" lon="0.0036">
        <ele>6.5671343292</ele>
        <time>2018-05-13T09:11:45Z</time>
      </trkpt>
      <trkpt lat="44.69458" lon="0.00371">
        <ele>8.9667631634666</ele>
        <time>2018-05-13T09:11:53Z</time>
      </trkpt>
      <trkpt lat="44.69461" lon="0.00382">
        <ele>11.266541622311</ele>
        <time>2018-05-13T09:12:04Z</time>
      </trkpt>
      <trkpt lat="44.69463" lon="0.00394">
        <ele>11.6662660952</ele>
        <time>2018-05-13T09:12:14Z</time>
      </trkpt>
      <trkpt lat="44.6946" lon="0.00405">
        <ele>3.7658082267556</ele>
        <time>2018-05-13T09:12:23Z</time>
      </trkpt>
      <trkpt lat="44.69462" lon="0.00417">
        <ele>-0.33451296755558</ele>
        <time>2018-05-13T09:12:34Z</time>
      </trkpt>
      <trkpt lat="44.69465" lon="0.00427">
        <ele>-0.83471023142222</ele>
        <time>2018-05-13T09:12:42Z</time>
      </trkpt>
      <trkpt lat="44.69469" lon="0.00438">
        <ele>9.1650978334222</ele>
        <time>2018-05-13T09:12:48Z</time>
      </trkpt>
      <trkpt lat="44.6947" lon="0.0045">
        <ele>11.8647775356</ele>
        <time>2018-05-13T09:12:55Z</time>
      </trkpt>
      <trkpt lat="44.69473" lon="0.00461">
        <ele>13.064538435022</ele>
        <time>2018-05-13T09:13:03Z</time>
      </trkpt>
      <trkpt lat="44.69474" lon="0.00472">
        <ele>15.164249389778</ele>
        <time>2018-05-13T09:13:10Z</time>
      </trkpt>
      <trkpt lat="44.69479" lon="0.00482">
        <ele>16.464114330311</ele>
        <time>2018-05-13T09:13:20Z</time>
      </trkpt>
      <trkpt lat="44.69486" lon="0.00488">
        <ele>17.564218794667</ele>
        <time>2018-05-13T09:13:27Z</time>
      </trkpt>
      <trkpt lat="44.69494" lon="0.00485">
        <ele>11.864614383022</ele>
        <time>2018-05-13T09:13:33Z</time>
      </trkpt>
      <trkpt lat="44.69502" lon="0.00484">
        <ele>1.8649607126222</ele>
        <time>2018-05-13T09:13:40Z</time>
      </trkpt>
      <trkpt lat="44.69508" lon="0.00491">
        <ele>4.1650179911111</ele>
        <time>2018-05-13T09:13:45Z</time>
      </trkpt>
      <trkpt lat="44.69516" lon="0.00495">
        <ele>6.8651702586666</ele>
        <time>2018-05-13T09:13:50Z</time>
      </trkpt>
      <trkpt lat="44.69522" lon="0.00503">
        <ele>10.8651490968</ele>
        <time>2018-05-13T09:13:58Z</time>
      </trkpt>
      <trkpt lat="44.69526" lon="0.00514">
        <ele>16.565010497867</ele>
        <time>2018-05-13T09:14:05Z</time>
      </trkpt>
      <trkpt lat="44.69533" lon="0.00521">
        <ele>18.265017708</ele>
        <time>2018-05-13T09:14:13Z</time>
      </trkpt>
      <trkpt lat="44.69537" lon="0.00531">
        <ele>24.064877470044</ele>
        <time>2018-05-13T09:14:21Z</time>
      </trkpt>
      <trkpt lat="44.69541" lon="0.00541">
        <ele>21.864747465733</ele>
        <time>2018-05-13T09:14:28Z</time>
      </trkpt>
      <trkpt lat="44.69548" lon="0.00547">
        <ele>21.664794644089</ele>
        <time>2018-05-13T09:14:34Z</time>
      </trkpt>
      <trkpt lat="44.69556" lon="0.00551">
        <ele>22.765002035467</ele>
        <time>2018-05-13T09:14:41Z</time>
      </trkpt>
      <trkpt lat="44.69562" lon="0.00557">
        <ele>22.965048948622</ele>
        <time>2018-05-13T09:14:49Z</time>
      </trkpt>
      <trkpt lat="44.6957" lon="0.00562">
        <ele>24.265219610222</ele>
        <time>2018-05-13T09:15:00Z</time>
      </trkpt>
      <trkpt lat="44.69578" lon="0.00566">
        <ele>25.165381057333</ele>
        <time>2018-05-13T09:15:07Z</time>
      </trkpt>
      <trkpt lat="44.69586" lon="0.00569">
        <ele>17.965625866489</ele>
        <time>2018-05-13T09:15:19Z</time>
      </trkpt>
      <trkpt lat="44.69594" lon="0.00563">
        <ele>8.0661110162223</ele>
        <time>2018-05-13T09:15:26Z</time>
      </trkpt>
      <trkpt lat="44.69601" lon="0.0057">
        <ele>14.066165175689</ele>
        <time>2018-05-13T09:15:32Z</time>
      </trkpt>
      <trkpt lat="44.69609" lon="0.00572">
        <ele>20.966408614133</ele>
        <time>2018-05-13T09:15:40Z</time>
      </trkpt>
      <trkpt lat="44.69617" lon="0.00574">
        <ele>26.366665029556</ele>
        <time>2018-05-13T09:15:48Z</time>
      </trkpt>
      <trkpt lat="44.69625" lon="0.00574">
        <ele>25.9669633728</ele>
        <time>2018-05-13T09:15:53Z</time>
      </trkpt>
      <trkpt lat="44.69634" lon="0.00574">
        <ele>25.667316385111</ele>
        <time>2018-05-13T09:15:58Z</time>
      </trkpt>
      <trkpt lat="44.69642" lon="0.00578">
        <ele>29.167528103467</ele>
        <time>2018-05-13T09:16:05Z</time>
      </trkpt>
      <trkpt lat="44.6965" lon="0.00584">
        <ele>32.06764428</ele>
        <time>2018-05-13T09:16:13Z</time>
      </trkpt>
      <trkpt lat="44.69658" lon="0.00584">
        <ele>34.267959344444</ele>
        <time>2018-05-13T09:16:19Z</time>
      </trkpt>
      <trkpt lat="44.69667" lon="0.00584">
        <ele>34.268308399733</ele>
        <time>2018-05-13T09:16:26Z</time>
      </trkpt>
      <trkpt lat="44.69675" lon="0.00584">
        <ele>34.968616944222</ele>
        <time>2018-05-13T09:16:32Z</time>
      </trkpt>
      <trkpt lat="44.69683" lon="0.00578">
        <ele>26.369106664</ele>
        <time>2018-05-13T09:16:37Z</time>
      </trkpt>
      <trkpt lat="44.69692" lon="0.00577">
        <ele>21.369475556133</ele>
        <time>2018-05-13T09:16:43Z</time>
      </trkpt>
      <trkpt lat="44.69699" lon="0.00576">
        <ele>18.9698081344</ele>
        <time>2018-05-13T09:16:49Z</time>
      </trkpt>
      <trkpt lat="44.69706" lon="0.00569">
        <ele>15.170281372889</ele>
        <time>2018-05-13T09:16:53Z</time>
      </trkpt>
      <trkpt lat="44.69714" lon="0.00566">
        <ele>7.3707292886666</ele>
        <time>2018-05-13T09:17:02Z</time>
      </trkpt>
      <trkpt lat="44.69723" lon="0.00568">
        <ele>12.070998485333</ele>
        <time>2018-05-13T09:17:09Z</time>
      </trkpt>
      <trkpt lat="44.69731" lon="0.00569">
        <ele>17.371286167333</ele>
        <time>2018-05-13T09:17:15Z</time>
      </trkpt>
      <trkpt lat="44.69739" lon="0.00572">
        <ele>21.371497367822</ele>
        <time>2018-05-13T09:17:22Z</time>
      </trkpt>
      <trkpt lat="44.69747" lon="0.00577">
        <ele>26.571636544</ele>
        <time>2018-05-13T09:17:29Z</time>
      </trkpt>
      <trkpt lat="44.69753" lon="0.00585">
        <ele>32.471660016</ele>
        <time>2018-05-13T09:17:45Z</time>
      </trkpt>
      <trkpt lat="44.69762" lon="0.00587">
        <ele>46.471924799467</ele>
        <time>2018-05-13T09:19:46Z</time>
      </trkpt>
      <trkpt lat="44.6977" lon="0.00586">
        <ele>44.372264886356</ele>
        <time>2018-05-13T09:20:22Z</time>
      </trkpt>
      <trkpt lat="44.69779" lon="0.00586">
        <ele>44.772603424844</ele>
        <time>2018-05-13T09:20:33Z</time>
      </trkpt>
      <trkpt lat="44.69788" lon="0.00589">
        <ele>46.372862813333</ele>
        <time>2018-05-13T09:20:44Z</time>
      </trkpt>
      <trkpt lat="44.69796" lon="0.00594">
        <ele>47.9730287016</ele>
        <time>2018-05-13T09:20:54Z</time>
      </trkpt>
      <trkpt lat="44.69804" lon="0.00597">
        <ele>47.973218415867</ele>
        <time>2018-05-13T09:21:00Z</time>
      </trkpt>
      <trkpt lat="44.69811" lon="0.00604">
        <ele>45.2732946496</ele>
        <time>2018-05-13T09:21:08Z</time>
      </trkpt>
      <trkpt lat="44.69818" lon="0.00611">
        <ele>43.273357711778</ele>
        <time>2018-05-13T09:21:15Z</time>
      </trkpt>
      <trkpt lat="44.69825" lon="0.00617">
        <ele>42.073434046667</ele>
        <time>2018-05-13T09:21:22Z</time>
      </trkpt>
      <trkpt lat="44.69831" lon="0.00623">
        <ele>42.173480171911</ele>
        <time>2018-05-13T09:21:29Z</time>
      </trkpt>
      <trkpt lat="44.69839" lon="0.00629">
        <ele>42.5735745336</ele>
        <time>2018-05-13T09:21:35Z</time>
      </trkpt>
      <trkpt lat="44.69846" lon="0.00634">
        <ele>41.173704130578</ele>
        <time>2018-05-13T09:21:42Z</time>
      </trkpt>
      <trkpt lat="44.6985" lon="0.00645">
        <ele>33.273516001289</ele>
        <time>2018-05-13T09:21:50Z</time>
      </trkpt>
      <trkpt lat="44.69854" lon="0.00656">
        <ele>44.873317144444</ele>
        <time>2018-05-13T09:22:19Z</time>
      </trkpt>
      <trkpt lat="44.69859" lon="0.00667">
        <ele>43.9731417132</ele>
        <time>2018-05-13T09:22:30Z</time>
      </trkpt>
      <trkpt lat="44.69864" lon="0.00675">
        <ele>40.073104500622</ele>
        <time>2018-05-13T09:22:38Z</time>
      </trkpt>
      <trkpt lat="44.6987" lon="0.00681">
        <ele>41.973162618133</ele>
        <time>2018-05-13T09:22:43Z</time>
      </trkpt>
      <trkpt lat="44.69877" lon="0.00688">
        <ele>45.073191732444</ele>
        <time>2018-05-13T09:22:48Z</time>
      </trkpt>
      <trkpt lat="44.69882" lon="0.00696">
        <ele>50.073145885867</ele>
        <time>2018-05-13T09:22:54Z</time>
      </trkpt>
      <trkpt lat="44.69889" lon="0.00704">
        <ele>53.7731729416</ele>
        <time>2018-05-13T09:23:01Z</time>
      </trkpt>
      <trkpt lat="44.69895" lon="0.00713">
        <ele>54.073073744</ele>
        <time>2018-05-13T09:23:08Z</time>
      </trkpt>
      <trkpt lat="44.69898" lon="0.00724">
        <ele>54.472893716444</ele>
        <time>2018-05-13T09:23:15Z</time>
      </trkpt>
      <trkpt lat="44.69902" lon="0.00735">
        <ele>53.872675248</ele>
        <time>2018-05-13T09:23:22Z</time>
      </trkpt>
      <trkpt lat="44.69905" lon="0.00746">
        <ele>54.872427296667</ele>
        <time>2018-05-13T09:23:28Z</time>
      </trkpt>
      <trkpt lat="44.69909" lon="0.00757">
        <ele>52.872250372444</ele>
        <time>2018-05-13T09:23:35Z</time>
      </trkpt>
      <trkpt lat="44.69912" lon="0.00768">
        <ele>51.272025058133</ele>
        <time>2018-05-13T09:23:41Z</time>
      </trkpt>
      <trkpt lat="44.69917" lon="0.00778">
        <ele>48.871909711333</ele>
        <time>2018-05-13T09:23:47Z</time>
      </trkpt>
      <trkpt lat="44.6992" lon="0.00789">
        <ele>49.071663616</ele>
        <time>2018-05-13T09:23:54Z</time>
      </trkpt>
      <trkpt lat="44.69924" lon="0.00799">
        <ele>47.471495612</ele>
        <time>2018-05-13T09:24:00Z</time>
      </trkpt>
      <trkpt lat="44.6993" lon="0.00809">
        <ele>47.371388569733</ele>
        <time>2018-05-13T09:24:08Z</time>
      </trkpt>
      <trkpt lat="44.69934" lon="0.0082">
        <ele>48.671216091067</ele>
        <time>2018-05-13T09:24:15Z</time>
      </trkpt>
      <trkpt lat="44.69937" lon="0.00831">
        <ele>49.670964191111</ele>
        <time>2018-05-13T09:24:21Z</time>
      </trkpt>
      <trkpt lat="44.69941" lon="0.00842">
        <ele>51.070778553067</ele>
        <time>2018-05-13T09:24:28Z</time>
      </trkpt>
      <trkpt lat="44.69945" lon="0.00851">
        <ele>49.870635327111</ele>
        <time>2018-05-13T09:24:34Z</time>
      </trkpt>
      <trkpt lat="44.69948" lon="0.00862">
        <ele>53.470390642756</ele>
        <time>2018-05-13T09:24:41Z</time>
      </trkpt>
      <trkpt lat="44.69951" lon="0.00873">
        <ele>51.970188404</ele>
        <time>2018-05-13T09:24:47Z</time>
      </trkpt>
      <trkpt lat="44.69954" lon="0.00883">
        <ele>51.969957236578</ele>
        <time>2018-05-13T09:24:53Z</time>
      </trkpt>
      <trkpt lat="44.69959" lon="0.00892">
        <ele>49.969882050311</ele>
        <time>2018-05-13T09:24:59Z</time>
      </trkpt>
      <trkpt lat="44.69964" lon="0.00902">
        <ele>50.969758602667</ele>
        <time>2018-05-13T09:25:06Z</time>
      </trkpt>
      <trkpt lat="44.69968" lon="0.00913">
        <ele>52.769543223911</ele>
        <time>2018-05-13T09:25:14Z</time>
      </trkpt>
      <trkpt lat="44.69971" lon="0.00924">
        <ele>50.269317062756</ele>
        <time>2018-05-13T09:25:21Z</time>
      </trkpt>
      <trkpt lat="44.69974" lon="0.00936">
        <ele>50.769051173244</ele>
        <time>2018-05-13T09:25:31Z</time>
      </trkpt>
      <trkpt lat="44.69978" lon="0.00946">
        <ele>43.6688812992</ele>
        <time>2018-05-13T09:26:02Z</time>
      </trkpt>
      <trkpt lat="44.69984" lon="0.00943">
        <ele>41.369210312889</ele>
        <time>2018-05-13T09:26:28Z</time>
      </trkpt>
      <trkpt lat="44.69992" lon="0.00937">
        <ele>44.669689828889</ele>
        <time>2018-05-13T09:26:39Z</time>
      </trkpt>
      <trkpt lat="44.69999" lon="0.00931">
        <ele>44.970145986844</ele>
        <time>2018-05-13T09:26:49Z</time>
      </trkpt>
      <trkpt lat="44.70006" lon="0.00926">
        <ele>42.670594860178</ele>
        <time>2018-05-13T09:27:00Z</time>
      </trkpt>
      <trkpt lat="44.70013" lon="0.00918">
        <ele>41.471112061867</ele>
        <time>2018-05-13T09:27:13Z</time>
      </trkpt>
      <trkpt lat="44.70021" lon="0.00915">
        <ele>38.471523917067</ele>
        <time>2018-05-13T09:27:20Z</time>
      </trkpt>
      <trkpt lat="44.70029" lon="0.00909">
        <ele>33.971999867733</ele>
        <time>2018-05-13T09:27:35Z</time>
      </trkpt>
      <trkpt lat="44.70037" lon="0.00904">
        <ele>36.3724952356</ele>
        <time>2018-05-13T09:27:40Z</time>
      </trkpt>
      <trkpt lat="44.70045" lon="0.00903">
        <ele>42.37285502</ele>
        <time>2018-05-13T09:27:54Z</time>
      </trkpt>
      <trkpt lat="44.70051" lon="0.00895">
        <ele>43.373355865067</ele>
        <time>2018-05-13T09:28:07Z</time>
      </trkpt>
      <trkpt lat="44.70058" lon="0.00888">
        <ele>42.67383764</ele>
        <time>2018-05-13T09:28:19Z</time>
      </trkpt>
      <trkpt lat="44.70065" lon="0.00879">
        <ele>39.374362368889</ele>
        <time>2018-05-13T09:28:25Z</time>
      </trkpt>
      <trkpt lat="44.70072" lon="0.00871">
        <ele>37.9748883576</ele>
        <time>2018-05-13T09:28:34Z</time>
      </trkpt>
      <trkpt lat="44.70079" lon="0.00865">
        <ele>31.275380291067</ele>
        <time>2018-05-13T09:28:46Z</time>
      </trkpt>
      <trkpt lat="44.70086" lon="0.0086">
        <ele>29.175819895022</ele>
        <time>2018-05-13T09:28:57Z</time>
      </trkpt>
      <trkpt lat="44.70094" lon="0.00856">
        <ele>27.776245696</ele>
        <time>2018-05-13T09:29:05Z</time>
      </trkpt>
      <trkpt lat="44.70103" lon="0.00856">
        <ele>27.876579415111</ele>
        <time>2018-05-13T09:29:16Z</time>
      </trkpt>
      <trkpt lat="44.70109" lon="0.00852">
        <ele>26.176948488222</ele>
        <time>2018-05-13T09:29:48Z</time>
      </trkpt>
      <trkpt lat="44.70119" lon="0.00842">
        <ele>20.177654606089</ele>
        <time>2018-05-13T09:29:53Z</time>
      </trkpt>
      <trkpt lat="44.70126" lon="0.0084">
        <ele>29.9779874284</ele>
        <time>2018-05-13T09:30:39Z</time>
      </trkpt>
      <trkpt lat="44.70137" lon="0.00831">
        <ele>37.778712289867</ele>
        <time>2018-05-13T09:30:44Z</time>
      </trkpt>
      <trkpt lat="44.7013" lon="0.00824">
        <ele>31.978642346222</ele>
        <time>2018-05-13T09:30:52Z</time>
      </trkpt>
      <trkpt lat="44.70137" lon="0.00831">
        <ele>34.3787058448</ele>
        <time>2018-05-13T09:31:23Z</time>
      </trkpt>
      <trkpt lat="44.70143" lon="0.00822">
        <ele>44.279235449778</ele>
        <time>2018-05-13T09:31:39Z</time>
      </trkpt>
      <trkpt lat="44.70144" lon="0.00822">
        <ele>45.579264459556</ele>
        <time>2018-05-13T09:31:49Z</time>
      </trkpt>
      <trkpt lat="44.70132" lon="0.00833">
        <ele>40.978470620667</ele>
        <time>2018-05-13T09:31:53Z</time>
      </trkpt>
      <trkpt lat="44.70134" lon="0.00831">
        <ele>43.578602723733</ele>
        <time>2018-05-13T09:32:03Z</time>
      </trkpt>
      <trkpt lat="44.70144" lon="0.00823">
        <ele>43.879251571556</ele>
        <time>2018-05-13T09:32:07Z</time>
      </trkpt>
      <trkpt lat="44.70152" lon="0.00817">
        <ele>50.1797308568</ele>
        <time>2018-05-13T09:32:15Z</time>
      </trkpt>
      <trkpt lat="44.70157" lon="0.00807">
        <ele>45.780255433956</ele>
        <time>2018-05-13T09:32:21Z</time>
      </trkpt>
      <trkpt lat="44.70165" lon="0.00801">
        <ele>39.4807371768</ele>
        <time>2018-05-13T09:32:38Z</time>
      </trkpt>
      <trkpt lat="44.70172" lon="0.00795">
        <ele>34.7812179892</ele>
        <time>2018-05-13T09:32:48Z</time>
      </trkpt>
      <trkpt lat="44.7018" lon="0.0079">
        <ele>21.2816784932</ele>
        <time>2018-05-13T09:33:00Z</time>
      </trkpt>
      <trkpt lat="44.70184" lon="0.00777">
        <ele>12.082248949956</ele>
        <time>2018-05-13T09:33:05Z</time>
      </trkpt>
      <trkpt lat="44.70185" lon="0.00766">
        <ele>-0.61733551306663</ele>
        <time>2018-05-13T09:33:14Z</time>
      </trkpt>
      <trkpt lat="44.70189" lon="0.00756">
        <ele>-6.2168487655555</ele>
        <time>2018-05-13T09:33:20Z</time>
      </trkpt>
      <trkpt lat="44.70196" lon="0.00749">
        <ele>-10.016375820267</ele>
        <time>2018-05-13T09:33:25Z</time>
      </trkpt>
      <trkpt lat="44.70203" lon="0.00745">
        <ele>-11.615952281733</ele>
        <time>2018-05-13T09:33:31Z</time>
      </trkpt>
      <trkpt lat="44.70211" lon="0.00744">
        <ele>-12.115625642667</ele>
        <time>2018-05-13T09:33:39Z</time>
      </trkpt>
      <trkpt lat="44.70218" lon="0.00737">
        <ele>-8.8151458673333</ele>
        <time>2018-05-13T09:34:18Z</time>
      </trkpt>
      <trkpt lat="44.70224" lon="0.00731">
        <ele>-3.4146896760889</ele>
        <time>2018-05-13T09:34:23Z</time>
      </trkpt>
      <trkpt lat="44.70231" lon="0.00724">
        <ele>1.7857957784</ele>
        <time>2018-05-13T09:34:29Z</time>
      </trkpt>
      <trkpt lat="44.70238" lon="0.00722">
        <ele>7.1861173207111</ele>
        <time>2018-05-13T09:34:33Z</time>
      </trkpt>
      <trkpt lat="44.70245" lon="0.00722">
        <ele>10.986411900489</ele>
        <time>2018-05-13T09:34:37Z</time>
      </trkpt>
      <trkpt lat="44.70254" lon="0.00721">
        <ele>16.486786364267</ele>
        <time>2018-05-13T09:34:42Z</time>
      </trkpt>
      <trkpt lat="44.70262" lon="0.00718">
        <ele>21.287200870222</ele>
        <time>2018-05-13T09:34:49Z</time>
      </trkpt>
      <trkpt lat="44.70269" lon="0.00715">
        <ele>23.087579810844</ele>
        <time>2018-05-13T09:34:56Z</time>
      </trkpt>
      <trkpt lat="44.70277" lon="0.00719">
        <ele>24.487771696356</ele>
        <time>2018-05-13T09:35:06Z</time>
      </trkpt>
      <trkpt lat="44.70286" lon="0.00718">
        <ele>22.3881408528</ele>
        <time>2018-05-13T09:35:13Z</time>
      </trkpt>
      <trkpt lat="44.70292" lon="0.00708">
        <ele>20.388686744533</ele>
        <time>2018-05-13T09:35:17Z</time>
      </trkpt>
      <trkpt lat="44.70298" lon="0.00698">
        <ele>17.889274980444</ele>
        <time>2018-05-13T09:35:21Z</time>
      </trkpt>
      <trkpt lat="44.70305" lon="0.00691">
        <ele>11.789756206667</ele>
        <time>2018-05-13T09:35:28Z</time>
      </trkpt>
      <trkpt lat="44.70312" lon="0.00684">
        <ele>8.5902603124</ele>
        <time>2018-05-13T09:35:36Z</time>
      </trkpt>
      <trkpt lat="44.70317" lon="0.00693">
        <ele>-10.309865871111</ele>
        <time>2018-05-13T09:35:55Z</time>
      </trkpt>
      <trkpt lat="44.70321" lon="0.00703">
        <ele>-13.410034377778</ele>
        <time>2018-05-13T09:36:05Z</time>
      </trkpt>
      <trkpt lat="44.7032" lon="0.00715">
        <ele>-19.710456917333</ele>
        <time>2018-05-13T09:36:44Z</time>
      </trkpt>
      <trkpt lat="44.70321" lon="0.00728">
        <ele>-20.010826589333</ele>
        <time>2018-05-13T09:37:00Z</time>
      </trkpt>
      <trkpt lat="44.70313" lon="0.00732">
        <ele>-20.611300833333</ele>
        <time>2018-05-13T09:37:13Z</time>
      </trkpt>
      <trkpt lat="44.7033" lon="0.00728">
        <ele>-20.5104998016</ele>
        <time>2018-05-13T09:37:17Z</time>
      </trkpt>
      <trkpt lat="44.70338" lon="0.00723">
        <ele>-21.010015573333</ele>
        <time>2018-05-13T09:37:25Z</time>
      </trkpt>
      <trkpt lat="44.7034" lon="0.00699">
        <ele>-21.2091255036</ele>
        <time>2018-05-13T09:37:29Z</time>
      </trkpt>
      <trkpt lat="44.70337" lon="0.00681">
        <ele>-19.908691103422</ele>
        <time>2018-05-13T09:37:34Z</time>
      </trkpt>
      <trkpt lat="44.70331" lon="0.00683">
        <ele>-16.708985264356</ele>
        <time>2018-05-13T09:37:45Z</time>
      </trkpt>
      <trkpt lat="44.70324" lon="0.00696">
        <ele>-14.2096630284</ele>
        <time>2018-05-13T09:37:49Z</time>
      </trkpt>
      <trkpt lat="44.70324" lon="0.00696">
        <ele>-14.2096630284</ele>
        <time>2018-05-13T09:38:03Z</time>
      </trkpt>
      <trkpt lat="44.70331" lon="0.00702">
        <ele>15.090373939467</ele>
        <time>2018-05-13T09:38:24Z</time>
      </trkpt>
      <trkpt lat="44.70337" lon="0.00696">
        <ele>5.9908143315556</ele>
        <time>2018-05-13T09:38:33Z</time>
      </trkpt>
      <trkpt lat="44.70343" lon="0.00688">
        <ele>4.8913080344889</ele>
        <time>2018-05-13T09:38:45Z</time>
      </trkpt>
      <trkpt lat="44.7035" lon="0.00682">
        <ele>9.1917691990667</ele>
        <time>2018-05-13T09:38:51Z</time>
      </trkpt>
      <trkpt lat="44.70358" lon="0.00683">
        <ele>17.192071721822</ele>
        <time>2018-05-13T09:39:00Z</time>
      </trkpt>
      <trkpt lat="44.70353" lon="0.00672">
        <ele>17.892238574222</ele>
        <time>2018-05-13T09:39:20Z</time>
      </trkpt>
      <trkpt lat="44.7035" lon="0.00663">
        <ele>19.092404103467</ele>
        <time>2018-05-13T09:39:26Z</time>
      </trkpt>
      <trkpt lat="44.70343" lon="0.00654">
        <ele>23.5924222352</ele>
        <time>2018-05-13T09:39:33Z</time>
      </trkpt>
      <trkpt lat="44.70336" lon="0.00648">
        <ele>30.392363199911</ele>
        <time>2018-05-13T09:39:45Z</time>
      </trkpt>
      <trkpt lat="44.70334" lon="0.00637">
        <ele>31.292621519067</ele>
        <time>2018-05-13T09:39:52Z</time>
      </trkpt>
      <trkpt lat="44.70331" lon="0.00625">
        <ele>32.992890578489</ele>
        <time>2018-05-13T09:40:12Z</time>
      </trkpt>
      <trkpt lat="44.70325" lon="0.00617">
        <ele>34.492952502222</ele>
        <time>2018-05-13T09:40:20Z</time>
      </trkpt>
      <trkpt lat="44.70321" lon="0.00607">
        <ele>35.0931172544</ele>
        <time>2018-05-13T09:40:27Z</time>
      </trkpt>
      <trkpt lat="44.70319" lon="0.00595">
        <ele>36.593417401556</ele>
        <time>2018-05-13T09:40:34Z</time>
      </trkpt>
      <trkpt lat="44.7032" lon="0.00583">
        <ele>35.693827063022</ele>
        <time>2018-05-13T09:40:43Z</time>
      </trkpt>
      <trkpt lat="44.70313" lon="0.00575">
        <ele>34.493820109911</ele>
        <time>2018-05-13T09:40:51Z</time>
      </trkpt>
      <trkpt lat="44.7031" lon="0.00564">
        <ele>31.594096120711</ele>
        <time>2018-05-13T09:41:01Z</time>
      </trkpt>
      <trkpt lat="44.70308" lon="0.00552">
        <ele>27.394364416</ele>
        <time>2018-05-13T09:41:10Z</time>
      </trkpt>
      <trkpt lat="44.70301" lon="0.00544">
        <ele>21.794388466489</ele>
        <time>2018-05-13T09:41:16Z</time>
      </trkpt>
      <trkpt lat="44.703" lon="0.00532">
        <ele>21.294744516444</ele>
        <time>2018-05-13T09:41:26Z</time>
      </trkpt>
      <trkpt lat="44.70295" lon="0.00523">
        <ele>18.594846434667</ele>
        <time>2018-05-13T09:41:33Z</time>
      </trkpt>
      <trkpt lat="44.70294" lon="0.0051">
        <ele>20.395176211378</ele>
        <time>2018-05-13T09:41:46Z</time>
      </trkpt>
      <trkpt lat="44.70292" lon="0.00499">
        <ele>19.895482033333</ele>
        <time>2018-05-13T09:41:53Z</time>
      </trkpt>
      <trkpt lat="44.70286" lon="0.00495">
        <ele>17.295360418667</ele>
        <time>2018-05-13T09:41:57Z</time>
      </trkpt>
      <trkpt lat="44.70281" lon="0.00484">
        <ele>15.095542060444</ele>
        <time>2018-05-13T09:42:08Z</time>
      </trkpt>
      <trkpt lat="44.70279" lon="0.00473">
        <ele>15.995830208889</ele>
        <time>2018-05-13T09:42:16Z</time>
      </trkpt>
      <trkpt lat="44.70276" lon="0.00461">
        <ele>15.596092102844</ele>
        <time>2018-05-13T09:42:27Z</time>
      </trkpt>
      <trkpt lat="44.70274" lon="0.00452">
        <ele>14.096300969867</ele>
        <time>2018-05-13T09:42:32Z</time>
      </trkpt>
      <trkpt lat="44.70273" lon="0.00439">
        <ele>15.19665519</ele>
        <time>2018-05-13T09:42:38Z</time>
      </trkpt>
      <trkpt lat="44.70272" lon="0.00428">
        <ele>16.996972671067</ele>
        <time>2018-05-13T09:42:45Z</time>
      </trkpt>
      <trkpt lat="44.70266" lon="0.00418">
        <ele>16.597093805244</ele>
        <time>2018-05-13T09:42:52Z</time>
      </trkpt>
      <trkpt lat="44.70259" lon="0.00412">
        <ele>15.6969944624</ele>
        <time>2018-05-13T09:43:00Z</time>
      </trkpt>
      <trkpt lat="44.70256" lon="0.00402">
        <ele>16.197235263111</ele>
        <time>2018-05-13T09:43:07Z</time>
      </trkpt>
      <trkpt lat="44.70257" lon="0.00389">
        <ele>15.197673204222</ele>
        <time>2018-05-13T09:43:13Z</time>
      </trkpt>
      <trkpt lat="44.70257" lon="0.00377">
        <ele>15.298054411467</ele>
        <time>2018-05-13T09:43:20Z</time>
      </trkpt>
      <trkpt lat="44.70256" lon="0.00366">
        <ele>16.198391224533</ele>
        <time>2018-05-13T09:43:27Z</time>
      </trkpt>
      <trkpt lat="44.70252" lon="0.00356">
        <ele>17.598542118222</ele>
        <time>2018-05-13T09:43:34Z</time>
      </trkpt>
      <trkpt lat="44.70249" lon="0.00345">
        <ele>19.5987520288</ele>
        <time>2018-05-13T09:43:40Z</time>
      </trkpt>
      <trkpt lat="44.70244" lon="0.00335">
        <ele>21.798889484</ele>
        <time>2018-05-13T09:43:47Z</time>
      </trkpt>
      <trkpt lat="44.70239" lon="0.00325">
        <ele>22.299036902889</ele>
        <time>2018-05-13T09:43:54Z</time>
      </trkpt>
      <trkpt lat="44.70231" lon="0.0032">
        <ele>25.298888309333</ele>
        <time>2018-05-13T09:44:01Z</time>
      </trkpt>
      <trkpt lat="44.70227" lon="0.00311">
        <ele>25.899024642533</ele>
        <time>2018-05-13T09:44:09Z</time>
      </trkpt>
      <trkpt lat="44.70222" lon="0.00301">
        <ele>26.699170435467</ele>
        <time>2018-05-13T09:44:17Z</time>
      </trkpt>
      <trkpt lat="44.70217" lon="0.00291">
        <ele>27.199271158044</ele>
        <time>2018-05-13T09:44:25Z</time>
      </trkpt>
      <trkpt lat="44.70213" lon="0.00279">
        <ele>27.299499320889</ele>
        <time>2018-05-13T09:44:34Z</time>
      </trkpt>
      <trkpt lat="44.70211" lon="0.00269">
        <ele>28.3997519648</ele>
        <time>2018-05-13T09:44:40Z</time>
      </trkpt>
      <trkpt lat="44.70208" lon="0.00258">
        <ele>28.999959553156</ele>
        <time>2018-05-13T09:44:46Z</time>
      </trkpt>
      <trkpt lat="44.70203" lon="0.0025">
        <ele>29.200020212622</ele>
        <time>2018-05-13T09:44:51Z</time>
      </trkpt>
      <trkpt lat="44.70196" lon="0.00242">
        <ele>29.000002735556</ele>
        <time>2018-05-13T09:44:56Z</time>
      </trkpt>
      <trkpt lat="44.7019" lon="0.00234">
        <ele>26.900028875778</ele>
        <time>2018-05-13T09:45:03Z</time>
      </trkpt>
      <trkpt lat="44.70186" lon="0.00223">
        <ele>23.700238859422</ele>
        <time>2018-05-13T09:45:12Z</time>
      </trkpt>
      <trkpt lat="44.70184" lon="0.00212">
        <ele>22.800520197333</ele>
        <time>2018-05-13T09:45:18Z</time>
      </trkpt>
      <trkpt lat="44.70184" lon="0.002">
        <ele>23.700904040267</ele>
        <time>2018-05-13T09:45:24Z</time>
      </trkpt>
      <trkpt lat="44.70184" lon="0.00188">
        <ele>24.401291566667</ele>
        <time>2018-05-13T09:45:30Z</time>
      </trkpt>
      <trkpt lat="44.70182" lon="0.00175">
        <ele>24.601624896178</ele>
        <time>2018-05-13T09:45:37Z</time>
      </trkpt>
      <trkpt lat="44.70179" lon="0.00165">
        <ele>24.4018621328</ele>
        <time>2018-05-13T09:45:44Z</time>
      </trkpt>
      <trkpt lat="44.70177" lon="0.00152">
        <ele>22.602175444622</ele>
        <time>2018-05-13T09:45:55Z</time>
      </trkpt>
      <trkpt lat="44.70179" lon="0.00141">
        <ele>21.802606369556</ele>
        <time>2018-05-13T09:46:02Z</time>
      </trkpt>
      <trkpt lat="44.70181" lon="0.0013">
        <ele>24.103054365644</ele>
        <time>2018-05-13T09:46:07Z</time>
      </trkpt>
      <trkpt lat="44.70185" lon="0.00118">
        <ele>26.303571671556</ele>
        <time>2018-05-13T09:46:13Z</time>
      </trkpt>
      <trkpt lat="44.70186" lon="0.00107">
        <ele>25.004008199111</ele>
        <time>2018-05-13T09:46:20Z</time>
      </trkpt>
      <trkpt lat="44.70186" lon="0.00096">
        <ele>22.1043555792</ele>
        <time>2018-05-13T09:46:27Z</time>
      </trkpt>
      <trkpt lat="44.70188" lon="0.00085">
        <ele>18.204773171422</ele>
        <time>2018-05-13T09:46:33Z</time>
      </trkpt>
      <trkpt lat="44.7019" lon="0.00074">
        <ele>13.405214888</ele>
        <time>2018-05-13T09:46:40Z</time>
      </trkpt>
      <trkpt lat="44.70193" lon="0.00063">
        <ele>9.6056924604445</ele>
        <time>2018-05-13T09:46:46Z</time>
      </trkpt>
      <trkpt lat="44.70198" lon="0.00054">
        <ele>7.9061707727111</ele>
        <time>2018-05-13T09:46:51Z</time>
      </trkpt>
      <trkpt lat="44.70203" lon="0.00045">
        <ele>4.7066774261778</ele>
        <time>2018-05-13T09:46:59Z</time>
      </trkpt>
      <trkpt lat="44.70209" lon="0.00035">
        <ele>3.1071975461333</ele>
        <time>2018-05-13T09:47:06Z</time>
      </trkpt>
      <trkpt lat="44.70209" lon="0.00023">
        <ele>-2.4923957407556</ele>
        <time>2018-05-13T09:47:13Z</time>
      </trkpt>
      <trkpt lat="44.70213" lon="0.00012">
        <ele>0.10810780337777</ele>
        <time>2018-05-13T09:47:20Z</time>
      </trkpt>
      <trkpt lat="44.70214" lon="1.0E-5">
        <ele>2.7085571618667</ele>
        <time>2018-05-13T09:47:28Z</time>
      </trkpt>
      <trkpt lat="44.70215" lon="-0.0001">
        <ele>6.1086066666667</ele>
        <time>2018-05-13T09:47:35Z</time>
      </trkpt>
      <trkpt lat="44.70218" lon="-0.00022">
        <ele>11.208733333333</ele>
        <time>2018-05-13T09:47:40Z</time>
      </trkpt>
      <trkpt lat="44.70217" lon="-0.00034">
        <ele>13.30866</ele>
        <time>2018-05-13T09:47:47Z</time>
      </trkpt>
      <trkpt lat="44.70219" lon="-0.00044">
        <ele>18.708753333333</ele>
        <time>2018-05-13T09:47:53Z</time>
      </trkpt>
      <trkpt lat="44.70219" lon="-0.00056">
        <ele>19.40874</ele>
        <time>2018-05-13T09:48:00Z</time>
      </trkpt>
      <trkpt lat="44.70216" lon="-0.00066">
        <ele>18.70864</ele>
        <time>2018-05-13T09:48:06Z</time>
      </trkpt>
      <trkpt lat="44.70213" lon="-0.00077">
        <ele>15.408526666667</ele>
        <time>2018-05-13T09:48:12Z</time>
      </trkpt>
      <trkpt lat="44.70208" lon="-0.00086">
        <ele>11.208313333333</ele>
        <time>2018-05-13T09:48:18Z</time>
      </trkpt>
      <trkpt lat="44.70204" lon="-0.00097">
        <ele>10.308146666667</ele>
        <time>2018-05-13T09:48:27Z</time>
      </trkpt>
      <trkpt lat="44.702" lon="-0.00108">
        <ele>9.5079933333333</ele>
        <time>2018-05-13T09:48:36Z</time>
      </trkpt>
      <trkpt lat="44.70198" lon="-0.00119">
        <ele>11.307913333333</ele>
        <time>2018-05-13T09:48:43Z</time>
      </trkpt>
      <trkpt lat="44.70196" lon="-0.0013">
        <ele>16.207833333333</ele>
        <time>2018-05-13T09:48:48Z</time>
      </trkpt>
      <trkpt lat="44.70197" lon="-0.0014">
        <ele>19.20786</ele>
        <time>2018-05-13T09:48:53Z</time>
      </trkpt>
      <trkpt lat="44.70195" lon="-0.00149">
        <ele>19.107806666667</ele>
        <time>2018-05-13T09:48:58Z</time>
      </trkpt>
      <trkpt lat="44.70192" lon="-0.0016">
        <ele>17.907693333333</ele>
        <time>2018-05-13T09:49:03Z</time>
      </trkpt>
      <trkpt lat="44.70189" lon="-0.00167">
        <ele>19.707553333333</ele>
        <time>2018-05-13T09:49:07Z</time>
      </trkpt>
      <trkpt lat="44.70185" lon="-0.00177">
        <ele>18.807386666667</ele>
        <time>2018-05-13T09:49:11Z</time>
      </trkpt>
      <trkpt lat="44.70184" lon="-0.00189">
        <ele>19.507346666667</ele>
        <time>2018-05-13T09:49:18Z</time>
      </trkpt>
      <trkpt lat="44.70186" lon="-0.00202">
        <ele>13.90742</ele>
        <time>2018-05-13T09:49:23Z</time>
      </trkpt>
      <trkpt lat="44.70187" lon="-0.00213">
        <ele>8.5074733333334</ele>
        <time>2018-05-13T09:49:34Z</time>
      </trkpt>
      <trkpt lat="44.70188" lon="-0.00224">
        <ele>10.607506666667</ele>
        <time>2018-05-13T09:49:39Z</time>
      </trkpt>
      <trkpt lat="44.70188" lon="-0.00236">
        <ele>14.1075</ele>
        <time>2018-05-13T09:49:46Z</time>
      </trkpt>
      <trkpt lat="44.70183" lon="-0.00244">
        <ele>8.3073066666666</ele>
        <time>2018-05-13T09:50:05Z</time>
      </trkpt>
      <trkpt lat="44.70182" lon="-0.00255">
        <ele>16.20726</ele>
        <time>2018-05-13T09:50:13Z</time>
      </trkpt>
      <trkpt lat="44.7019" lon="-0.00256">
        <ele>24.707606666667</ele>
        <time>2018-05-13T09:50:39Z</time>
      </trkpt>
      <trkpt lat="44.70194" lon="-0.00258">
        <ele>19.407746666667</ele>
        <time>2018-05-13T09:51:39Z</time>
      </trkpt>
      <trkpt lat="44.70186" lon="-0.0027">
        <ele>17.50742</ele>
        <time>2018-05-13T09:51:43Z</time>
      </trkpt>
      <trkpt lat="44.70177" lon="-0.00266">
        <ele>23.007086666667</ele>
        <time>2018-05-13T09:52:31Z</time>
      </trkpt>
      <trkpt lat="44.70169" lon="-0.00266">
        <ele>22.306766666667</ele>
        <time>2018-05-13T09:52:39Z</time>
      </trkpt>
      <trkpt lat="44.70161" lon="-0.00267">
        <ele>23.606446666667</ele>
        <time>2018-05-13T09:52:46Z</time>
      </trkpt>
      <trkpt lat="44.70153" lon="-0.00264">
        <ele>23.606113333333</ele>
        <time>2018-05-13T09:52:54Z</time>
      </trkpt>
      <trkpt lat="44.70146" lon="-0.00257">
        <ele>23.905826666667</ele>
        <time>2018-05-13T09:53:01Z</time>
      </trkpt>
      <trkpt lat="44.70141" lon="-0.00249">
        <ele>26.605633333333</ele>
        <time>2018-05-13T09:53:07Z</time>
      </trkpt>
      <trkpt lat="44.70136" lon="-0.0024">
        <ele>26.405426666667</ele>
        <time>2018-05-13T09:53:14Z</time>
      </trkpt>
      <trkpt lat="44.70129" lon="-0.00231">
        <ele>22.40516</ele>
        <time>2018-05-13T09:53:24Z</time>
      </trkpt>
      <trkpt lat="44.70123" lon="-0.00222">
        <ele>19.30492</ele>
        <time>2018-05-13T09:53:32Z</time>
      </trkpt>
      <trkpt lat="44.70116" lon="-0.00215">
        <ele>17.70464</ele>
        <time>2018-05-13T09:53:41Z</time>
      </trkpt>
      <trkpt lat="44.70111" lon="-0.00206">
        <ele>17.70442</ele>
        <time>2018-05-13T09:53:48Z</time>
      </trkpt>
      <trkpt lat="44.70103" lon="-0.00198">
        <ele>18.204133333333</ele>
        <time>2018-05-13T09:53:55Z</time>
      </trkpt>
      <trkpt lat="44.70096" lon="-0.00193">
        <ele>19.503846666667</ele>
        <time>2018-05-13T09:54:03Z</time>
      </trkpt>
      <trkpt lat="44.70089" lon="-0.00189">
        <ele>21.803546666667</ele>
        <time>2018-05-13T09:54:10Z</time>
      </trkpt>
      <trkpt lat="44.70081" lon="-0.00186">
        <ele>25.403226666667</ele>
        <time>2018-05-13T09:54:17Z</time>
      </trkpt>
      <trkpt lat="44.70073" lon="-0.00185">
        <ele>27.702913333333</ele>
        <time>2018-05-13T09:54:23Z</time>
      </trkpt>
      <trkpt lat="44.70067" lon="-0.00177">
        <ele>28.902686666667</ele>
        <time>2018-05-13T09:54:32Z</time>
      </trkpt>
      <trkpt lat="44.70062" lon="-0.00167">
        <ele>27.70246</ele>
        <time>2018-05-13T09:54:39Z</time>
      </trkpt>
      <trkpt lat="44.70055" lon="-0.0017">
        <ele>28.00218</ele>
        <time>2018-05-13T09:54:44Z</time>
      </trkpt>
      <trkpt lat="44.70048" lon="-0.00174">
        <ele>28.801913333333</ele>
        <time>2018-05-13T09:54:48Z</time>
      </trkpt>
      <trkpt lat="44.70039" lon="-0.00181">
        <ele>31.901573333333</ele>
        <time>2018-05-13T09:54:53Z</time>
      </trkpt>
      <trkpt lat="44.70035" lon="-0.0019">
        <ele>34.201393333333</ele>
        <time>2018-05-13T09:54:58Z</time>
      </trkpt>
      <trkpt lat="44.7003" lon="-0.00199">
        <ele>35.501193333333</ele>
        <time>2018-05-13T09:55:03Z</time>
      </trkpt>
      <trkpt lat="44.70025" lon="-0.00208">
        <ele>36.601</ele>
        <time>2018-05-13T09:55:08Z</time>
      </trkpt>
      <trkpt lat="44.70019" lon="-0.00218">
        <ele>38.200766666667</ele>
        <time>2018-05-13T09:55:14Z</time>
      </trkpt>
      <trkpt lat="44.70015" lon="-0.00226">
        <ele>38.40058</ele>
        <time>2018-05-13T09:55:20Z</time>
      </trkpt>
      <trkpt lat="44.70009" lon="-0.00235">
        <ele>36.800373333333</ele>
        <time>2018-05-13T09:55:26Z</time>
      </trkpt>
      <trkpt lat="44.70004" lon="-0.00245">
        <ele>36.40014</ele>
        <time>2018-05-13T09:55:32Z</time>
      </trkpt>
      <trkpt lat="44.69999" lon="-0.00254">
        <ele>37.29996</ele>
        <time>2018-05-13T09:55:38Z</time>
      </trkpt>
      <trkpt lat="44.69993" lon="-0.00263">
        <ele>36.39972</ele>
        <time>2018-05-13T09:55:44Z</time>
      </trkpt>
      <trkpt lat="44.69988" lon="-0.00274">
        <ele>36.999533333333</ele>
        <time>2018-05-13T09:55:50Z</time>
      </trkpt>
      <trkpt lat="44.69983" lon="-0.00281">
        <ele>38.89932</ele>
        <time>2018-05-13T09:55:55Z</time>
      </trkpt>
      <trkpt lat="44.69978" lon="-0.00291">
        <ele>39.29912</ele>
        <time>2018-05-13T09:56:02Z</time>
      </trkpt>
      <trkpt lat="44.69972" lon="-0.00299">
        <ele>37.498873333333</ele>
        <time>2018-05-13T09:56:10Z</time>
      </trkpt>
      <trkpt lat="44.69967" lon="-0.00309">
        <ele>38.69868</ele>
        <time>2018-05-13T09:56:20Z</time>
      </trkpt>
      <trkpt lat="44.69963" lon="-0.00319">
        <ele>39.898513333333</ele>
        <time>2018-05-13T09:56:27Z</time>
      </trkpt>
      <trkpt lat="44.69958" lon="-0.00328">
        <ele>38.9983</ele>
        <time>2018-05-13T09:56:34Z</time>
      </trkpt>
      <trkpt lat="44.69954" lon="-0.00339">
        <ele>39.29814</ele>
        <time>2018-05-13T09:56:41Z</time>
      </trkpt>
      <trkpt lat="44.6995" lon="-0.0035">
        <ele>40.098006666667</ele>
        <time>2018-05-13T09:56:47Z</time>
      </trkpt>
      <trkpt lat="44.69946" lon="-0.00358">
        <ele>39.497833333333</ele>
        <time>2018-05-13T09:56:53Z</time>
      </trkpt>
      <trkpt lat="44.6994" lon="-0.00368">
        <ele>40.297613333333</ele>
        <time>2018-05-13T09:56:59Z</time>
      </trkpt>
      <trkpt lat="44.69935" lon="-0.00378">
        <ele>41.297393333333</ele>
        <time>2018-05-13T09:57:07Z</time>
      </trkpt>
      <trkpt lat="44.6993" lon="-0.00388">
        <ele>42.897193333333</ele>
        <time>2018-05-13T09:57:14Z</time>
      </trkpt>
      <trkpt lat="44.69928" lon="-0.00399">
        <ele>47.797133333333</ele>
        <time>2018-05-13T09:57:20Z</time>
      </trkpt>
      <trkpt lat="44.69926" lon="-0.00411">
        <ele>50.297046666667</ele>
        <time>2018-05-13T09:57:26Z</time>
      </trkpt>
      <trkpt lat="44.69921" lon="-0.0042">
        <ele>52.496846666667</ele>
        <time>2018-05-13T09:57:34Z</time>
      </trkpt>
      <trkpt lat="44.69915" lon="-0.00429">
        <ele>53.096606666667</ele>
        <time>2018-05-13T09:57:41Z</time>
      </trkpt>
      <trkpt lat="44.6991" lon="-0.00438">
        <ele>51.496393333333</ele>
        <time>2018-05-13T09:57:46Z</time>
      </trkpt>
      <trkpt lat="44.69907" lon="-0.00448">
        <ele>48.596266666667</ele>
        <time>2018-05-13T09:57:53Z</time>
      </trkpt>
      <trkpt lat="44.69904" lon="-0.00459">
        <ele>46.89614</ele>
        <time>2018-05-13T09:58:02Z</time>
      </trkpt>
      <trkpt lat="44.69902" lon="-0.0047">
        <ele>43.496086666667</ele>
        <time>2018-05-13T09:58:13Z</time>
      </trkpt>
      <trkpt lat="44.699" lon="-0.00482">
        <ele>45.695986666667</ele>
        <time>2018-05-13T09:58:19Z</time>
      </trkpt>
      <trkpt lat="44.69895" lon="-0.00492">
        <ele>50.095793333333</ele>
        <time>2018-05-13T09:58:50Z</time>
      </trkpt>
      <trkpt lat="44.69896" lon="-0.00503">
        <ele>52.595853333333</ele>
        <time>2018-05-13T09:58:57Z</time>
      </trkpt>
      <trkpt lat="44.69899" lon="-0.00515">
        <ele>51.595966666667</ele>
        <time>2018-05-13T09:59:04Z</time>
      </trkpt>
      <trkpt lat="44.699" lon="-0.00527">
        <ele>51.396013333333</ele>
        <time>2018-05-13T09:59:12Z</time>
      </trkpt>
      <trkpt lat="44.69905" lon="-0.00537">
        <ele>50.296186666667</ele>
        <time>2018-05-13T09:59:22Z</time>
      </trkpt>
      <trkpt lat="44.6991" lon="-0.00546">
        <ele>48.0964</ele>
        <time>2018-05-13T09:59:32Z</time>
      </trkpt>
      <trkpt lat="44.69916" lon="-0.00553">
        <ele>46.796653333333</ele>
        <time>2018-05-13T10:00:22Z</time>
      </trkpt>
      <trkpt lat="44.69922" lon="-0.00561">
        <ele>45.396886666667</ele>
        <time>2018-05-13T10:00:26Z</time>
      </trkpt>
      <trkpt lat="44.69927" lon="-0.0057">
        <ele>47.597093333333</ele>
        <time>2018-05-13T10:00:32Z</time>
      </trkpt>
      <trkpt lat="44.69931" lon="-0.0058">
        <ele>47.397253333333</ele>
        <time>2018-05-13T10:00:40Z</time>
      </trkpt>
      <trkpt lat="44.69938" lon="-0.00588">
        <ele>36.397526666667</ele>
        <time>2018-05-13T10:00:58Z</time>
      </trkpt>
      <trkpt lat="44.69946" lon="-0.00593">
        <ele>39.197846666667</ele>
        <time>2018-05-13T10:01:04Z</time>
      </trkpt>
      <trkpt lat="44.69953" lon="-0.006">
        <ele>39.8981</ele>
        <time>2018-05-13T10:01:10Z</time>
      </trkpt>
      <trkpt lat="44.69957" lon="-0.0061">
        <ele>42.998293333333</ele>
        <time>2018-05-13T10:01:16Z</time>
      </trkpt>
      <trkpt lat="44.69964" lon="-0.00617">
        <ele>41.798573333333</ele>
        <time>2018-05-13T10:01:23Z</time>
      </trkpt>
      <trkpt lat="44.69969" lon="-0.00626">
        <ele>42.598766666667</ele>
        <time>2018-05-13T10:01:33Z</time>
      </trkpt>
      <trkpt lat="44.69973" lon="-0.00636">
        <ele>40.69892</ele>
        <time>2018-05-13T10:01:40Z</time>
      </trkpt>
      <trkpt lat="44.69979" lon="-0.00645">
        <ele>38.49916</ele>
        <time>2018-05-13T10:01:48Z</time>
      </trkpt>
      <trkpt lat="44.69986" lon="-0.00651">
        <ele>41.199453333333</ele>
        <time>2018-05-13T10:01:55Z</time>
      </trkpt>
      <trkpt lat="44.69994" lon="-0.00656">
        <ele>45.299746666667</ele>
        <time>2018-05-13T10:02:10Z</time>
      </trkpt>
      <trkpt lat="44.69998" lon="-0.00665">
        <ele>43.899933333333</ele>
        <time>2018-05-13T10:02:18Z</time>
      </trkpt>
      <trkpt lat="44.70004" lon="-0.00673">
        <ele>43.600146666667</ele>
        <time>2018-05-13T10:02:24Z</time>
      </trkpt>
      <trkpt lat="44.70011" lon="-0.00679">
        <ele>47.600446666667</ele>
        <time>2018-05-13T10:02:36Z</time>
      </trkpt>
      <trkpt lat="44.70019" lon="-0.00684">
        <ele>50.500753333333</ele>
        <time>2018-05-13T10:02:46Z</time>
      </trkpt>
      <trkpt lat="44.70021" lon="-0.00694">
        <ele>50.70084</ele>
        <time>2018-05-13T10:02:52Z</time>
      </trkpt>
      <trkpt lat="44.70027" lon="-0.00704">
        <ele>49.00106</ele>
        <time>2018-05-13T10:03:02Z</time>
      </trkpt>
      <trkpt lat="44.7003" lon="-0.00715">
        <ele>39.3012</ele>
        <time>2018-05-13T10:03:18Z</time>
      </trkpt>
      <trkpt lat="44.70032" lon="-0.00737">
        <ele>30.701293333333</ele>
        <time>2018-05-13T10:03:23Z</time>
      </trkpt>
      <trkpt lat="44.70035" lon="-0.00749">
        <ele>30.801413333333</ele>
        <time>2018-05-13T10:03:33Z</time>
      </trkpt>
      <trkpt lat="44.70041" lon="-0.00758">
        <ele>22.201626666667</ele>
        <time>2018-05-13T10:03:44Z</time>
      </trkpt>
      <trkpt lat="44.70044" lon="-0.00769">
        <ele>21.10174</ele>
        <time>2018-05-13T10:03:49Z</time>
      </trkpt>
      <trkpt lat="44.70046" lon="-0.00781">
        <ele>18.701826666667</ele>
        <time>2018-05-13T10:03:53Z</time>
      </trkpt>
      <trkpt lat="44.70048" lon="-0.00792">
        <ele>18.5019</ele>
        <time>2018-05-13T10:03:57Z</time>
      </trkpt>
      <trkpt lat="44.70043" lon="-0.00802">
        <ele>21.001726666667</ele>
        <time>2018-05-13T10:04:05Z</time>
      </trkpt>
      <trkpt lat="44.70041" lon="-0.00812">
        <ele>21.901633333333</ele>
        <time>2018-05-13T10:04:10Z</time>
      </trkpt>
      <trkpt lat="44.70042" lon="-0.00825">
        <ele>19.90166</ele>
        <time>2018-05-13T10:04:14Z</time>
      </trkpt>
      <trkpt lat="44.70037" lon="-0.00834">
        <ele>20.001466666667</ele>
        <time>2018-05-13T10:04:27Z</time>
      </trkpt>
      <trkpt lat="44.70029" lon="-0.0084">
        <ele>22.101173333333</ele>
        <time>2018-05-13T10:04:35Z</time>
      </trkpt>
      <trkpt lat="44.70029" lon="-0.00853">
        <ele>33.701146666667</ele>
        <time>2018-05-13T10:04:47Z</time>
      </trkpt>
      <trkpt lat="44.70034" lon="-0.00861">
        <ele>37.60136</ele>
        <time>2018-05-13T10:04:53Z</time>
      </trkpt>
      <trkpt lat="44.70035" lon="-0.00874">
        <ele>41.1014</ele>
        <time>2018-05-13T10:05:04Z</time>
      </trkpt>
      <trkpt lat="44.70037" lon="-0.00885">
        <ele>43.30148</ele>
        <time>2018-05-13T10:05:15Z</time>
      </trkpt>
      <trkpt lat="44.70042" lon="-0.00895">
        <ele>49.001666666667</ele>
        <time>2018-05-13T10:05:32Z</time>
      </trkpt>
      <trkpt lat="44.70044" lon="-0.00905">
        <ele>53.101746666667</ele>
        <time>2018-05-13T10:05:38Z</time>
      </trkpt>
      <trkpt lat="44.70051" lon="-0.0091">
        <ele>56.302053333333</ele>
        <time>2018-05-13T10:05:44Z</time>
      </trkpt>
      <trkpt lat="44.70056" lon="-0.00917">
        <ele>58.00222</ele>
        <time>2018-05-13T10:05:49Z</time>
      </trkpt>
      <trkpt lat="44.70063" lon="-0.00929">
        <ele>58.802533333333</ele>
        <time>2018-05-13T10:05:53Z</time>
      </trkpt>
      <trkpt lat="44.70067" lon="-0.00938">
        <ele>58.60268</ele>
        <time>2018-05-13T10:05:59Z</time>
      </trkpt>
      <trkpt lat="44.70075" lon="-0.00943">
        <ele>52.302993333333</ele>
        <time>2018-05-13T10:06:06Z</time>
      </trkpt>
      <trkpt lat="44.7008" lon="-0.00951">
        <ele>46.603213333333</ele>
        <time>2018-05-13T10:06:12Z</time>
      </trkpt>
      <trkpt lat="44.70084" lon="-0.00962">
        <ele>42.80336</ele>
        <time>2018-05-13T10:06:18Z</time>
      </trkpt>
      <trkpt lat="44.7009" lon="-0.0097">
        <ele>35.303586666667</ele>
        <time>2018-05-13T10:06:29Z</time>
      </trkpt>
      <trkpt lat="44.70095" lon="-0.0098">
        <ele>34.103786666667</ele>
        <time>2018-05-13T10:06:38Z</time>
      </trkpt>
      <trkpt lat="44.70099" lon="-0.00992">
        <ele>35.00394</ele>
        <time>2018-05-13T10:06:46Z</time>
      </trkpt>
      <trkpt lat="44.701" lon="-0.01003">
        <ele>36.703986666667</ele>
        <time>2018-05-13T10:06:54Z</time>
      </trkpt>
      <trkpt lat="44.70098" lon="-0.01014">
        <ele>38.403906666667</ele>
        <time>2018-05-13T10:06:59Z</time>
      </trkpt>
      <trkpt lat="44.70101" lon="-0.01026">
        <ele>40.60402</ele>
        <time>2018-05-13T10:07:07Z</time>
      </trkpt>
      <trkpt lat="44.70106" lon="-0.01034">
        <ele>42.204233333333</ele>
        <time>2018-05-13T10:07:12Z</time>
      </trkpt>
      <trkpt lat="44.70114" lon="-0.01039">
        <ele>43.30454</ele>
        <time>2018-05-13T10:07:20Z</time>
      </trkpt>
      <trkpt lat="44.70122" lon="-0.01041">
        <ele>42.20488</ele>
        <time>2018-05-13T10:07:46Z</time>
      </trkpt>
      <trkpt lat="44.70116" lon="-0.01034">
        <ele>44.40462</ele>
        <time>2018-05-13T10:10:25Z</time>
      </trkpt>
      <trkpt lat="44.70108" lon="-0.01033">
        <ele>43.904333333333</ele>
        <time>2018-05-13T10:11:00Z</time>
      </trkpt>
      <trkpt lat="44.70114" lon="-0.01026">
        <ele>30.30454</ele>
        <time>2018-05-13T10:11:27Z</time>
      </trkpt>
      <trkpt lat="44.70116" lon="-0.01031">
        <ele>33.804633333333</ele>
        <time>2018-05-13T10:11:45Z</time>
      </trkpt>
      <trkpt lat="44.70122" lon="-0.01043">
        <ele>40.704873333333</ele>
        <time>2018-05-13T10:11:49Z</time>
      </trkpt>
      <trkpt lat="44.70129" lon="-0.01048">
        <ele>43.30516</ele>
        <time>2018-05-13T10:11:56Z</time>
      </trkpt>
      <trkpt lat="44.70133" lon="-0.01057">
        <ele>44.605326666667</ele>
        <time>2018-05-13T10:12:04Z</time>
      </trkpt>
      <trkpt lat="44.70138" lon="-0.01066">
        <ele>43.705533333333</ele>
        <time>2018-05-13T10:12:13Z</time>
      </trkpt>
      <trkpt lat="44.70142" lon="-0.01075">
        <ele>43.005686666667</ele>
        <time>2018-05-13T10:12:20Z</time>
      </trkpt>
      <trkpt lat="44.70148" lon="-0.01085">
        <ele>41.905913333333</ele>
        <time>2018-05-13T10:12:27Z</time>
      </trkpt>
      <trkpt lat="44.70154" lon="-0.01093">
        <ele>42.20616</ele>
        <time>2018-05-13T10:12:33Z</time>
      </trkpt>
      <trkpt lat="44.70161" lon="-0.01098">
        <ele>36.006446666667</ele>
        <time>2018-05-13T10:12:40Z</time>
      </trkpt>
      <trkpt lat="44.70168" lon="-0.01101">
        <ele>31.306726666667</ele>
        <time>2018-05-13T10:12:45Z</time>
      </trkpt>
      <trkpt lat="44.70176" lon="-0.01107">
        <ele>25.607026666667</ele>
        <time>2018-05-13T10:12:50Z</time>
      </trkpt>
      <trkpt lat="44.70182" lon="-0.01116">
        <ele>27.207273333333</ele>
        <time>2018-05-13T10:12:56Z</time>
      </trkpt>
      <trkpt lat="44.70187" lon="-0.01125">
        <ele>28.207473333333</ele>
        <time>2018-05-13T10:13:05Z</time>
      </trkpt>
      <trkpt lat="44.70189" lon="-0.01133">
        <ele>28.40754</ele>
        <time>2018-05-13T10:13:08Z</time>
      </trkpt>
      <trkpt lat="44.7019" lon="-0.01145">
        <ele>31.807606666667</ele>
        <time>2018-05-13T10:13:13Z</time>
      </trkpt>
      <trkpt lat="44.70191" lon="-0.01157">
        <ele>34.207653333333</ele>
        <time>2018-05-13T10:13:20Z</time>
      </trkpt>
      <trkpt lat="44.70198" lon="-0.01165">
        <ele>30.707913333333</ele>
        <time>2018-05-13T10:13:28Z</time>
      </trkpt>
      <trkpt lat="44.70199" lon="-0.01177">
        <ele>26.80796</ele>
        <time>2018-05-13T10:13:34Z</time>
      </trkpt>
      <trkpt lat="44.70205" lon="-0.01186">
        <ele>18.70818</ele>
        <time>2018-05-13T10:13:47Z</time>
      </trkpt>
      <trkpt lat="44.70209" lon="-0.01197">
        <ele>16.908346666667</ele>
        <time>2018-05-13T10:13:54Z</time>
      </trkpt>
      <trkpt lat="44.70212" lon="-0.01206">
        <ele>17.408486666667</ele>
        <time>2018-05-13T10:13:59Z</time>
      </trkpt>
      <trkpt lat="44.70209" lon="-0.01221">
        <ele>25.908366666667</ele>
        <time>2018-05-13T10:14:04Z</time>
      </trkpt>
      <trkpt lat="44.70204" lon="-0.0123">
        <ele>29.708166666667</ele>
        <time>2018-05-13T10:14:09Z</time>
      </trkpt>
      <trkpt lat="44.70203" lon="-0.01241">
        <ele>36.008126666667</ele>
        <time>2018-05-13T10:14:20Z</time>
      </trkpt>
      <trkpt lat="44.70204" lon="-0.01253">
        <ele>37.20816</ele>
        <time>2018-05-13T10:14:28Z</time>
      </trkpt>
      <trkpt lat="44.70208" lon="-0.01264">
        <ele>38.80832</ele>
        <time>2018-05-13T10:14:36Z</time>
      </trkpt>
      <trkpt lat="44.70212" lon="-0.01275">
        <ele>37.208493333333</ele>
        <time>2018-05-13T10:14:44Z</time>
      </trkpt>
      <trkpt lat="44.70217" lon="-0.01286">
        <ele>36.00866</ele>
        <time>2018-05-13T10:14:51Z</time>
      </trkpt>
      <trkpt lat="44.70218" lon="-0.01297">
        <ele>36.508706666667</ele>
        <time>2018-05-13T10:15:00Z</time>
      </trkpt>
      <trkpt lat="44.70221" lon="-0.01309">
        <ele>36.00884</ele>
        <time>2018-05-13T10:15:09Z</time>
      </trkpt>
      <trkpt lat="44.70225" lon="-0.01319">
        <ele>34.50898</ele>
        <time>2018-05-13T10:15:20Z</time>
      </trkpt>
      <trkpt lat="44.70231" lon="-0.01327">
        <ele>34.009226666667</ele>
        <time>2018-05-13T10:15:31Z</time>
      </trkpt>
      <trkpt lat="44.70235" lon="-0.01337">
        <ele>35.809406666667</ele>
        <time>2018-05-13T10:15:43Z</time>
      </trkpt>
      <trkpt lat="44.70235" lon="-0.01349">
        <ele>45.709406666667</ele>
        <time>2018-05-13T10:15:53Z</time>
      </trkpt>
      <trkpt lat="44.70237" lon="-0.01361">
        <ele>48.309493333333</ele>
        <time>2018-05-13T10:16:06Z</time>
      </trkpt>
      <trkpt lat="44.70245" lon="-0.01367">
        <ele>57.009793333333</ele>
        <time>2018-05-13T10:16:16Z</time>
      </trkpt>
      <trkpt lat="44.70244" lon="-0.01374">
        <ele>61.009766666667</ele>
        <time>2018-05-13T10:16:48Z</time>
      </trkpt>
      <trkpt lat="44.70251" lon="-0.01388">
        <ele>59.51002</ele>
        <time>2018-05-13T10:16:53Z</time>
      </trkpt>
      <trkpt lat="44.70253" lon="-0.014">
        <ele>58.310106666667</ele>
        <time>2018-05-13T10:17:07Z</time>
      </trkpt>
      <trkpt lat="44.70258" lon="-0.0141">
        <ele>57.3103</ele>
        <time>2018-05-13T10:17:19Z</time>
      </trkpt>
      <trkpt lat="44.70259" lon="-0.01421">
        <ele>55.71036</ele>
        <time>2018-05-13T10:17:39Z</time>
      </trkpt>
      <trkpt lat="44.70264" lon="-0.0143">
        <ele>55.71056</ele>
        <time>2018-05-13T10:17:46Z</time>
      </trkpt>
      <trkpt lat="44.70269" lon="-0.0144">
        <ele>55.910773333333</ele>
        <time>2018-05-13T10:18:00Z</time>
      </trkpt>
      <trkpt lat="44.7027" lon="-0.01453">
        <ele>53.510786666667</ele>
        <time>2018-05-13T10:18:05Z</time>
      </trkpt>
      <trkpt lat="44.70277" lon="-0.01461">
        <ele>51.111066666667</ele>
        <time>2018-05-13T10:18:14Z</time>
      </trkpt>
      <trkpt lat="44.70274" lon="-0.01462">
        <ele>47.910953333333</ele>
        <time>2018-05-13T10:18:24Z</time>
      </trkpt>
      <trkpt lat="44.7025" lon="-0.01459">
        <ele>40.810013333333</ele>
        <time>2018-05-13T10:18:29Z</time>
      </trkpt>
      <trkpt lat="44.70249" lon="-0.01471">
        <ele>38.609973333333</ele>
        <time>2018-05-13T10:18:36Z</time>
      </trkpt>
      <trkpt lat="44.7025" lon="-0.01483">
        <ele>38.61</ele>
        <time>2018-05-13T10:18:42Z</time>
      </trkpt>
      <trkpt lat="44.70253" lon="-0.01496">
        <ele>37.710133333333</ele>
        <time>2018-05-13T10:18:47Z</time>
      </trkpt>
      <trkpt lat="44.70255" lon="-0.01507">
        <ele>37.410193333333</ele>
        <time>2018-05-13T10:18:52Z</time>
      </trkpt>
      <trkpt lat="44.70254" lon="-0.01518">
        <ele>29.010166666667</ele>
        <time>2018-05-13T10:19:06Z</time>
      </trkpt>
      <trkpt lat="44.70254" lon="-0.0153">
        <ele>27.510166666667</ele>
        <time>2018-05-13T10:19:12Z</time>
      </trkpt>
      <trkpt lat="44.70249" lon="-0.01538">
        <ele>31.809966666667</ele>
        <time>2018-05-13T10:19:17Z</time>
      </trkpt>
      <trkpt lat="44.70248" lon="-0.01549">
        <ele>37.009926666667</ele>
        <time>2018-05-13T10:19:24Z</time>
      </trkpt>
      <trkpt lat="44.70245" lon="-0.0156">
        <ele>35.90978</ele>
        <time>2018-05-13T10:19:31Z</time>
      </trkpt>
      <trkpt lat="44.70241" lon="-0.01571">
        <ele>-2.79036</ele>
        <time>2018-05-13T10:20:09Z</time>
      </trkpt>
      <trkpt lat="44.70241" lon="-0.01585">
        <ele>0.30962666666667</ele>
        <time>2018-05-13T10:20:14Z</time>
      </trkpt>
      <trkpt lat="44.70239" lon="-0.01596">
        <ele>5.1095666666667</ele>
        <time>2018-05-13T10:20:22Z</time>
      </trkpt>
      <trkpt lat="44.70235" lon="-0.01606">
        <ele>8.3094133333333</ele>
        <time>2018-05-13T10:20:28Z</time>
      </trkpt>
      <trkpt lat="44.70225" lon="-0.01612">
        <ele>7.3090066666667</ele>
        <time>2018-05-13T10:20:32Z</time>
      </trkpt>
      <trkpt lat="44.7022" lon="-0.01619">
        <ele>11.20878</ele>
        <time>2018-05-13T10:20:36Z</time>
      </trkpt>
      <trkpt lat="44.70213" lon="-0.01631">
        <ele>18.708526666667</ele>
        <time>2018-05-13T10:20:41Z</time>
      </trkpt>
      <trkpt lat="44.7021" lon="-0.01641">
        <ele>31.808393333333</ele>
        <time>2018-05-13T10:20:49Z</time>
      </trkpt>
      <trkpt lat="44.70206" lon="-0.01651">
        <ele>34.508246666667</ele>
        <time>2018-05-13T10:20:56Z</time>
      </trkpt>
      <trkpt lat="44.70202" lon="-0.01649">
        <ele>31.208093333333</ele>
        <time>2018-05-13T10:21:29Z</time>
      </trkpt>
      <trkpt lat="44.70193" lon="-0.01656">
        <ele>61.3077</ele>
        <time>2018-05-13T10:21:34Z</time>
      </trkpt>
      <trkpt lat="44.70191" lon="-0.01667">
        <ele>59.907653333333</ele>
        <time>2018-05-13T10:21:43Z</time>
      </trkpt>
      <trkpt lat="44.70192" lon="-0.01676">
        <ele>57.807686666667</ele>
        <time>2018-05-13T10:21:54Z</time>
      </trkpt>
      <trkpt lat="44.70196" lon="-0.0169">
        <ele>51.307853333333</ele>
        <time>2018-05-13T10:21:58Z</time>
      </trkpt>
      <trkpt lat="44.7019" lon="-0.01698">
        <ele>27.107613333333</ele>
        <time>2018-05-13T10:22:14Z</time>
      </trkpt>
      <trkpt lat="44.70186" lon="-0.01708">
        <ele>24.307446666667</ele>
        <time>2018-05-13T10:22:19Z</time>
      </trkpt>
      <trkpt lat="44.70187" lon="-0.0172">
        <ele>24.70748</ele>
        <time>2018-05-13T10:22:32Z</time>
      </trkpt>
      <trkpt lat="44.70193" lon="-0.01729">
        <ele>26.907733333333</ele>
        <time>2018-05-13T10:22:40Z</time>
      </trkpt>
      <trkpt lat="44.70197" lon="-0.01738">
        <ele>29.307893333333</ele>
        <time>2018-05-13T10:22:47Z</time>
      </trkpt>
      <trkpt lat="44.70202" lon="-0.01749">
        <ele>28.008073333333</ele>
        <time>2018-05-13T10:22:53Z</time>
      </trkpt>
      <trkpt lat="44.70199" lon="-0.0176">
        <ele>25.707966666667</ele>
        <time>2018-05-13T10:23:15Z</time>
      </trkpt>
      <trkpt lat="44.70195" lon="-0.0177">
        <ele>47.607786666667</ele>
        <time>2018-05-13T10:24:38Z</time>
      </trkpt>
      <trkpt lat="44.70195" lon="-0.01779">
        <ele>56.107793333333</ele>
        <time>2018-05-13T10:25:02Z</time>
      </trkpt>
      <trkpt lat="44.70191" lon="-0.01788">
        <ele>56.307626666667</ele>
        <time>2018-05-13T10:25:10Z</time>
      </trkpt>
      <trkpt lat="44.70184" lon="-0.01801">
        <ele>52.307366666667</ele>
        <time>2018-05-13T10:25:15Z</time>
      </trkpt>
      <trkpt lat="44.70186" lon="-0.01812">
        <ele>44.907453333333</ele>
        <time>2018-05-13T10:25:25Z</time>
      </trkpt>
      <trkpt lat="44.7019" lon="-0.01823">
        <ele>25.4076</ele>
        <time>2018-05-13T10:25:54Z</time>
      </trkpt>
      <trkpt lat="44.70196" lon="-0.01826">
        <ele>21.207833333333</ele>
        <time>2018-05-13T10:26:02Z</time>
      </trkpt>
      <trkpt lat="44.70203" lon="-0.01828">
        <ele>14.408106666667</ele>
        <time>2018-05-13T10:26:07Z</time>
      </trkpt>
      <trkpt lat="44.70211" lon="-0.01824">
        <ele>0.60844666666664</ele>
        <time>2018-05-13T10:26:13Z</time>
      </trkpt>
      <trkpt lat="44.70214" lon="-0.01836">
        <ele>0.30854666666667</ele>
        <time>2018-05-13T10:26:30Z</time>
      </trkpt>
      <trkpt lat="44.70205" lon="-0.01852">
        <ele>20.208193333333</ele>
        <time>2018-05-13T10:26:35Z</time>
      </trkpt>
      <trkpt lat="44.70201" lon="-0.01862">
        <ele>26.208026666667</ele>
        <time>2018-05-13T10:26:43Z</time>
      </trkpt>
      <trkpt lat="44.70198" lon="-0.01873">
        <ele>33.207913333333</ele>
        <time>2018-05-13T10:26:50Z</time>
      </trkpt>
      <trkpt lat="44.70205" lon="-0.01878">
        <ele>43.408206666667</ele>
        <time>2018-05-13T10:27:03Z</time>
      </trkpt>
      <trkpt lat="44.7021" lon="-0.01889">
        <ele>47.908393333333</ele>
        <time>2018-05-13T10:27:42Z</time>
      </trkpt>
      <trkpt lat="44.70202" lon="-0.01894">
        <ele>47.508086666667</ele>
        <time>2018-05-13T10:27:53Z</time>
      </trkpt>
      <trkpt lat="44.70195" lon="-0.01894">
        <ele>47.7078</ele>
        <time>2018-05-13T10:27:58Z</time>
      </trkpt>
      <trkpt lat="44.70186" lon="-0.01894">
        <ele>48.00744</ele>
        <time>2018-05-13T10:28:02Z</time>
      </trkpt>
      <trkpt lat="44.70178" lon="-0.01892">
        <ele>48.30712</ele>
        <time>2018-05-13T10:28:07Z</time>
      </trkpt>
      <trkpt lat="44.7017" lon="-0.01894">
        <ele>48.8068</ele>
        <time>2018-05-13T10:28:13Z</time>
      </trkpt>
      <trkpt lat="44.70162" lon="-0.01894">
        <ele>48.806466666667</ele>
        <time>2018-05-13T10:28:18Z</time>
      </trkpt>
      <trkpt lat="44.70154" lon="-0.01898">
        <ele>49.006146666667</ele>
        <time>2018-05-13T10:28:29Z</time>
      </trkpt>
      <trkpt lat="44.70146" lon="-0.01895">
        <ele>49.505853333333</ele>
        <time>2018-05-13T10:28:35Z</time>
      </trkpt>
      <trkpt lat="44.70139" lon="-0.01893">
        <ele>49.705546666667</ele>
        <time>2018-05-13T10:28:39Z</time>
      </trkpt>
      <trkpt lat="44.7013" lon="-0.01893">
        <ele>49.605193333333</ele>
        <time>2018-05-13T10:28:46Z</time>
      </trkpt>
      <trkpt lat="44.70121" lon="-0.01892">
        <ele>48.70484</ele>
        <time>2018-05-13T10:28:53Z</time>
      </trkpt>
      <trkpt lat="44.70114" lon="-0.01892">
        <ele>47.904546666667</ele>
        <time>2018-05-13T10:29:01Z</time>
      </trkpt>
      <trkpt lat="44.70106" lon="-0.01889">
        <ele>47.10424</ele>
        <time>2018-05-13T10:29:06Z</time>
      </trkpt>
      <trkpt lat="44.70098" lon="-0.01887">
        <ele>46.203906666667</ele>
        <time>2018-05-13T10:29:14Z</time>
      </trkpt>
      <trkpt lat="44.7009" lon="-0.01891">
        <ele>45.303606666667</ele>
        <time>2018-05-13T10:29:20Z</time>
      </trkpt>
      <trkpt lat="44.70083" lon="-0.01894">
        <ele>44.703313333333</ele>
        <time>2018-05-13T10:29:25Z</time>
      </trkpt>
      <trkpt lat="44.70074" lon="-0.01892">
        <ele>44.10296</ele>
        <time>2018-05-13T10:29:31Z</time>
      </trkpt>
      <trkpt lat="44.70066" lon="-0.01896">
        <ele>43.302626666667</ele>
        <time>2018-05-13T10:29:40Z</time>
      </trkpt>
      <trkpt lat="44.70059" lon="-0.01903">
        <ele>42.00234</ele>
        <time>2018-05-13T10:29:51Z</time>
      </trkpt>
      <trkpt lat="44.70051" lon="-0.01905">
        <ele>41.602026666667</ele>
        <time>2018-05-13T10:29:59Z</time>
      </trkpt>
      <trkpt lat="44.70043" lon="-0.01905">
        <ele>41.401733333333</ele>
        <time>2018-05-13T10:30:06Z</time>
      </trkpt>
      <trkpt lat="44.70036" lon="-0.01906">
        <ele>41.301446666667</ele>
        <time>2018-05-13T10:30:11Z</time>
      </trkpt>
      <trkpt lat="44.70028" lon="-0.01907">
        <ele>41.401106666667</ele>
        <time>2018-05-13T10:30:17Z</time>
      </trkpt>
      <trkpt lat="44.70019" lon="-0.01909">
        <ele>41.600753333333</ele>
        <time>2018-05-13T10:30:25Z</time>
      </trkpt>
      <trkpt lat="44.70012" lon="-0.01904">
        <ele>41.30046</ele>
        <time>2018-05-13T10:30:30Z</time>
      </trkpt>
      <trkpt lat="44.70005" lon="-0.01902">
        <ele>41.000193333333</ele>
        <time>2018-05-13T10:30:35Z</time>
      </trkpt>
      <trkpt lat="44.69993" lon="-0.019">
        <ele>40.299733333333</ele>
        <time>2018-05-13T10:30:39Z</time>
      </trkpt>
      <trkpt lat="44.69985" lon="-0.01902">
        <ele>40.199393333333</ele>
        <time>2018-05-13T10:30:47Z</time>
      </trkpt>
      <trkpt lat="44.69976" lon="-0.01904">
        <ele>39.799046666667</ele>
        <time>2018-05-13T10:30:56Z</time>
      </trkpt>
      <trkpt lat="44.6997" lon="-0.01906">
        <ele>39.698793333333</ele>
        <time>2018-05-13T10:31:02Z</time>
      </trkpt>
      <trkpt lat="44.69962" lon="-0.01905">
        <ele>39.79846</ele>
        <time>2018-05-13T10:31:09Z</time>
      </trkpt>
      <trkpt lat="44.69953" lon="-0.01906">
        <ele>39.598126666667</ele>
        <time>2018-05-13T10:31:15Z</time>
      </trkpt>
      <trkpt lat="44.69947" lon="-0.01915">
        <ele>39.797893333333</ele>
        <time>2018-05-13T10:31:27Z</time>
      </trkpt>
      <trkpt lat="44.6994" lon="-0.0192">
        <ele>40.297586666667</ele>
        <time>2018-05-13T10:31:36Z</time>
      </trkpt>
      <trkpt lat="44.69932" lon="-0.01923">
        <ele>40.39726</ele>
        <time>2018-05-13T10:31:44Z</time>
      </trkpt>
      <trkpt lat="44.69925" lon="-0.01926">
        <ele>40.79698</ele>
        <time>2018-05-13T10:31:48Z</time>
      </trkpt>
      <trkpt lat="44.69916" lon="-0.01927">
        <ele>40.896653333333</ele>
        <time>2018-05-13T10:31:53Z</time>
      </trkpt>
      <trkpt lat="44.69907" lon="-0.01925">
        <ele>41.096293333333</ele>
        <time>2018-05-13T10:31:57Z</time>
      </trkpt>
      <trkpt lat="44.69899" lon="-0.01923">
        <ele>41.295953333333</ele>
        <time>2018-05-13T10:32:02Z</time>
      </trkpt>
      <trkpt lat="44.69891" lon="-0.01921">
        <ele>42.095626666667</ele>
        <time>2018-05-13T10:32:10Z</time>
      </trkpt>
      <trkpt lat="44.69883" lon="-0.01923">
        <ele>42.395306666667</ele>
        <time>2018-05-13T10:32:18Z</time>
      </trkpt>
      <trkpt lat="44.69874" lon="-0.01925">
        <ele>42.094966666667</ele>
        <time>2018-05-13T10:32:26Z</time>
      </trkpt>
      <trkpt lat="44.69867" lon="-0.01927">
        <ele>42.094693333333</ele>
        <time>2018-05-13T10:32:33Z</time>
      </trkpt>
      <trkpt lat="44.69859" lon="-0.01931">
        <ele>41.89436</ele>
        <time>2018-05-13T10:32:38Z</time>
      </trkpt>
      <trkpt lat="44.69851" lon="-0.01933">
        <ele>41.694033333333</ele>
        <time>2018-05-13T10:32:44Z</time>
      </trkpt>
      <trkpt lat="44.69838" lon="-0.01932">
        <ele>41.793533333333</ele>
        <time>2018-05-13T10:32:48Z</time>
      </trkpt>
      <trkpt lat="44.69831" lon="-0.01931">
        <ele>41.99322</ele>
        <time>2018-05-13T10:32:52Z</time>
      </trkpt>
      <trkpt lat="44.69822" lon="-0.01929">
        <ele>42.292873333333</ele>
        <time>2018-05-13T10:32:58Z</time>
      </trkpt>
      <trkpt lat="44.69814" lon="-0.01934">
        <ele>42.792546666667</ele>
        <time>2018-05-13T10:33:08Z</time>
      </trkpt>
      <trkpt lat="44.69806" lon="-0.01934">
        <ele>43.192226666667</ele>
        <time>2018-05-13T10:33:18Z</time>
      </trkpt>
      <trkpt lat="44.69791" lon="-0.01935">
        <ele>42.791633333333</ele>
        <time>2018-05-13T10:33:23Z</time>
      </trkpt>
      <trkpt lat="44.69782" lon="-0.01937">
        <ele>42.891286666667</ele>
        <time>2018-05-13T10:33:30Z</time>
      </trkpt>
      <trkpt lat="44.69775" lon="-0.01941">
        <ele>42.191</ele>
        <time>2018-05-13T10:33:35Z</time>
      </trkpt>
      <trkpt lat="44.69766" lon="-0.01943">
        <ele>41.290646666667</ele>
        <time>2018-05-13T10:33:43Z</time>
      </trkpt>
      <trkpt lat="44.6976" lon="-0.01934">
        <ele>41.490386666667</ele>
        <time>2018-05-13T10:33:52Z</time>
      </trkpt>
      <trkpt lat="44.69751" lon="-0.01933">
        <ele>41.09004</ele>
        <time>2018-05-13T10:34:00Z</time>
      </trkpt>
      <trkpt lat="44.69743" lon="-0.01935">
        <ele>40.989713333333</ele>
        <time>2018-05-13T10:34:07Z</time>
      </trkpt>
      <trkpt lat="44.69736" lon="-0.01937">
        <ele>40.48942</ele>
        <time>2018-05-13T10:34:12Z</time>
      </trkpt>
      <trkpt lat="44.69729" lon="-0.01941">
        <ele>39.389153333333</ele>
        <time>2018-05-13T10:34:18Z</time>
      </trkpt>
      <trkpt lat="44.6972" lon="-0.01941">
        <ele>38.48878</ele>
        <time>2018-05-13T10:34:23Z</time>
      </trkpt>
      <trkpt lat="44.69712" lon="-0.01943">
        <ele>38.18846</ele>
        <time>2018-05-13T10:34:30Z</time>
      </trkpt>
      <trkpt lat="44.69704" lon="-0.0195">
        <ele>38.088166666667</ele>
        <time>2018-05-13T10:34:36Z</time>
      </trkpt>
      <trkpt lat="44.69696" lon="-0.01952">
        <ele>38.08784</ele>
        <time>2018-05-13T10:34:43Z</time>
      </trkpt>
      <trkpt lat="44.69688" lon="-0.0195">
        <ele>37.387513333333</ele>
        <time>2018-05-13T10:34:54Z</time>
      </trkpt>
      <trkpt lat="44.69679" lon="-0.01952">
        <ele>37.487173333333</ele>
        <time>2018-05-13T10:35:02Z</time>
      </trkpt>
      <trkpt lat="44.69671" lon="-0.01953">
        <ele>38.38684</ele>
        <time>2018-05-13T10:35:09Z</time>
      </trkpt>
      <trkpt lat="44.69663" lon="-0.01952">
        <ele>38.886526666667</ele>
        <time>2018-05-13T10:35:14Z</time>
      </trkpt>
      <trkpt lat="44.69655" lon="-0.01953">
        <ele>39.68618</ele>
        <time>2018-05-13T10:35:21Z</time>
      </trkpt>
      <trkpt lat="44.69646" lon="-0.01955">
        <ele>40.385853333333</ele>
        <time>2018-05-13T10:35:26Z</time>
      </trkpt>
      <trkpt lat="44.69639" lon="-0.01956">
        <ele>40.285573333333</ele>
        <time>2018-05-13T10:35:30Z</time>
      </trkpt>
      <trkpt lat="44.69631" lon="-0.01954">
        <ele>40.58522</ele>
        <time>2018-05-13T10:35:39Z</time>
      </trkpt>
      <trkpt lat="44.69623" lon="-0.01956">
        <ele>41.1849</ele>
        <time>2018-05-13T10:35:45Z</time>
      </trkpt>
      <trkpt lat="44.69618" lon="-0.01961">
        <ele>41.784713333333</ele>
        <time>2018-05-13T10:35:49Z</time>
      </trkpt>
      <trkpt lat="44.69599" lon="-0.01962">
        <ele>40.783953333333</ele>
        <time>2018-05-13T10:35:54Z</time>
      </trkpt>
      <trkpt lat="44.69587" lon="-0.01966">
        <ele>40.083486666667</ele>
        <time>2018-05-13T10:35:58Z</time>
      </trkpt>
      <trkpt lat="44.69575" lon="-0.01972">
        <ele>39.682993333333</ele>
        <time>2018-05-13T10:36:02Z</time>
      </trkpt>
      <trkpt lat="44.69563" lon="-0.01977">
        <ele>39.082533333333</ele>
        <time>2018-05-13T10:36:06Z</time>
      </trkpt>
      <trkpt lat="44.69553" lon="-0.01981">
        <ele>38.282106666667</ele>
        <time>2018-05-13T10:36:11Z</time>
      </trkpt>
      <trkpt lat="44.69545" lon="-0.01978">
        <ele>34.0818</ele>
        <time>2018-05-13T10:36:44Z</time>
      </trkpt>
      <trkpt lat="44.6954" lon="-0.01987">
        <ele>34.3816</ele>
        <time>2018-05-13T10:36:51Z</time>
      </trkpt>
      <trkpt lat="44.69542" lon="-0.01995">
        <ele>34.781693333333</ele>
        <time>2018-05-13T10:36:55Z</time>
      </trkpt>
      <trkpt lat="44.69553" lon="-0.01999">
        <ele>34.682133333333</ele>
        <time>2018-05-13T10:36:59Z</time>
      </trkpt>
      <trkpt lat="44.69558" lon="-0.02007">
        <ele>35.382333333333</ele>
        <time>2018-05-13T10:37:04Z</time>
      </trkpt>
      <trkpt lat="44.69564" lon="-0.02017">
        <ele>36.782546666667</ele>
        <time>2018-05-13T10:37:10Z</time>
      </trkpt>
      <trkpt lat="44.69566" lon="-0.02028">
        <ele>38.18264</ele>
        <time>2018-05-13T10:37:18Z</time>
      </trkpt>
      <trkpt lat="44.69571" lon="-0.02037">
        <ele>39.082826666667</ele>
        <time>2018-05-13T10:37:25Z</time>
      </trkpt>
      <trkpt lat="44.69573" lon="-0.02049">
        <ele>40.282926666667</ele>
        <time>2018-05-13T10:37:33Z</time>
      </trkpt>
      <trkpt lat="44.69579" lon="-0.02057">
        <ele>40.783173333333</ele>
        <time>2018-05-13T10:37:38Z</time>
      </trkpt>
      <trkpt lat="44.69582" lon="-0.02068">
        <ele>41.083273333333</ele>
        <time>2018-05-13T10:37:46Z</time>
      </trkpt>
      <trkpt lat="44.69584" lon="-0.02079">
        <ele>41.68336</ele>
        <time>2018-05-13T10:37:52Z</time>
      </trkpt>
      <trkpt lat="44.6959" lon="-0.02088">
        <ele>42.383593333333</ele>
        <time>2018-05-13T10:38:00Z</time>
      </trkpt>
      <trkpt lat="44.69592" lon="-0.021">
        <ele>42.88366</ele>
        <time>2018-05-13T10:38:06Z</time>
      </trkpt>
      <trkpt lat="44.69597" lon="-0.0211">
        <ele>43.08386</ele>
        <time>2018-05-13T10:38:13Z</time>
      </trkpt>
      <trkpt lat="44.69598" lon="-0.02121">
        <ele>43.483926666667</ele>
        <time>2018-05-13T10:38:20Z</time>
      </trkpt>
      <trkpt lat="44.69601" lon="-0.0213">
        <ele>43.684053333333</ele>
        <time>2018-05-13T10:38:25Z</time>
      </trkpt>
      <trkpt lat="44.69602" lon="-0.02142">
        <ele>44.08408</ele>
        <time>2018-05-13T10:38:31Z</time>
      </trkpt>
      <trkpt lat="44.69603" lon="-0.02154">
        <ele>44.4841</ele>
        <time>2018-05-13T10:38:39Z</time>
      </trkpt>
      <trkpt lat="44.69606" lon="-0.02164">
        <ele>44.684226666667</ele>
        <time>2018-05-13T10:38:44Z</time>
      </trkpt>
      <trkpt lat="44.69604" lon="-0.02175">
        <ele>45.284146666667</ele>
        <time>2018-05-13T10:38:51Z</time>
      </trkpt>
      <trkpt lat="44.69605" lon="-0.02186">
        <ele>45.884193333333</ele>
        <time>2018-05-13T10:38:57Z</time>
      </trkpt>
      <trkpt lat="44.6961" lon="-0.02197">
        <ele>46.38438</ele>
        <time>2018-05-13T10:39:06Z</time>
      </trkpt>
      <trkpt lat="44.69612" lon="-0.02209">
        <ele>46.684466666667</ele>
        <time>2018-05-13T10:39:16Z</time>
      </trkpt>
      <trkpt lat="44.69609" lon="-0.0222">
        <ele>47.284346666667</ele>
        <time>2018-05-13T10:39:23Z</time>
      </trkpt>
      <trkpt lat="44.69609" lon="-0.02232">
        <ele>47.384353333333</ele>
        <time>2018-05-13T10:39:29Z</time>
      </trkpt>
      <trkpt lat="44.69616" lon="-0.0224">
        <ele>46.884626666667</ele>
        <time>2018-05-13T10:39:34Z</time>
      </trkpt>
      <trkpt lat="44.69614" lon="-0.02252">
        <ele>47.48456</ele>
        <time>2018-05-13T10:39:42Z</time>
      </trkpt>
      <trkpt lat="44.69616" lon="-0.02264">
        <ele>47.784633333333</ele>
        <time>2018-05-13T10:39:49Z</time>
      </trkpt>
      <trkpt lat="44.6962" lon="-0.02272">
        <ele>47.884793333333</ele>
        <time>2018-05-13T10:39:53Z</time>
      </trkpt>
      <trkpt lat="44.69621" lon="-0.02284">
        <ele>48.28484</ele>
        <time>2018-05-13T10:39:58Z</time>
      </trkpt>
      <trkpt lat="44.69619" lon="-0.02295">
        <ele>48.184753333333</ele>
        <time>2018-05-13T10:40:04Z</time>
      </trkpt>
      <trkpt lat="44.69627" lon="-0.02298">
        <ele>46.385093333333</ele>
        <time>2018-05-13T10:40:15Z</time>
      </trkpt>
      <trkpt lat="44.69636" lon="-0.02301">
        <ele>45.385426666667</ele>
        <time>2018-05-13T10:40:20Z</time>
      </trkpt>
      <trkpt lat="44.69639" lon="-0.0231">
        <ele>43.98556</ele>
        <time>2018-05-13T10:40:27Z</time>
      </trkpt>
      <trkpt lat="44.69638" lon="-0.02323">
        <ele>43.48552</ele>
        <time>2018-05-13T10:40:31Z</time>
      </trkpt>
      <trkpt lat="44.69632" lon="-0.02331">
        <ele>43.085273333333</ele>
        <time>2018-05-13T10:40:35Z</time>
      </trkpt>
      <trkpt lat="44.69629" lon="-0.0234">
        <ele>42.78514</ele>
        <time>2018-05-13T10:40:39Z</time>
      </trkpt>
      <trkpt lat="44.69632" lon="-0.02352">
        <ele>40.585286666667</ele>
        <time>2018-05-13T10:40:50Z</time>
      </trkpt>
      <trkpt lat="44.69627" lon="-0.02361">
        <ele>39.58506</ele>
        <time>2018-05-13T10:40:55Z</time>
      </trkpt>
      <trkpt lat="44.69615" lon="-0.02367">
        <ele>38.6846</ele>
        <time>2018-05-13T10:41:00Z</time>
      </trkpt>
      <trkpt lat="44.69614" lon="-0.0238">
        <ele>38.38454</ele>
        <time>2018-05-13T10:41:05Z</time>
      </trkpt>
      <trkpt lat="44.69614" lon="-0.0239">
        <ele>38.184553333333</ele>
        <time>2018-05-13T10:41:09Z</time>
      </trkpt>
      <trkpt lat="44.69612" lon="-0.02403">
        <ele>38.18446</ele>
        <time>2018-05-13T10:41:13Z</time>
      </trkpt>
      <trkpt lat="44.6961" lon="-0.02414">
        <ele>38.284413333333</ele>
        <time>2018-05-13T10:41:17Z</time>
      </trkpt>
      <trkpt lat="44.69605" lon="-0.02421">
        <ele>38.284193333333</ele>
        <time>2018-05-13T10:41:22Z</time>
      </trkpt>
      <trkpt lat="44.696" lon="-0.0243">
        <ele>38.084006666667</ele>
        <time>2018-05-13T10:41:27Z</time>
      </trkpt>
      <trkpt lat="44.69599" lon="-0.0244">
        <ele>37.98394</ele>
        <time>2018-05-13T10:41:33Z</time>
      </trkpt>
      <trkpt lat="44.69598" lon="-0.02449">
        <ele>35.983926666667</ele>
        <time>2018-05-13T10:41:50Z</time>
      </trkpt>
      <trkpt lat="44.69585" lon="-0.02456">
        <ele>33.0834</ele>
        <time>2018-05-13T10:41:54Z</time>
      </trkpt>
      <trkpt lat="44.69579" lon="-0.02453">
        <ele>28.68314</ele>
        <time>2018-05-13T10:42:02Z</time>
      </trkpt>
      <trkpt lat="44.69571" lon="-0.02451">
        <ele>27.582833333333</ele>
        <time>2018-05-13T10:42:06Z</time>
      </trkpt>
      <trkpt lat="44.69567" lon="-0.0244">
        <ele>21.582686666667</ele>
        <time>2018-05-13T10:42:24Z</time>
      </trkpt>
      <trkpt lat="44.69576" lon="-0.02433">
        <ele>20.383053333333</ele>
        <time>2018-05-13T10:42:29Z</time>
      </trkpt>
      <trkpt lat="44.69584" lon="-0.02428">
        <ele>18.88334</ele>
        <time>2018-05-13T10:42:34Z</time>
      </trkpt>
      <trkpt lat="44.69575" lon="-0.02429">
        <ele>16.683006666667</ele>
        <time>2018-05-13T10:42:42Z</time>
      </trkpt>
      <trkpt lat="44.69559" lon="-0.02431">
        <ele>15.98234</ele>
        <time>2018-05-13T10:42:46Z</time>
      </trkpt>
      <trkpt lat="44.69549" lon="-0.02431">
        <ele>15.481953333333</ele>
        <time>2018-05-13T10:42:50Z</time>
      </trkpt>
      <trkpt lat="44.69541" lon="-0.02432">
        <ele>15.281626666667</ele>
        <time>2018-05-13T10:42:54Z</time>
      </trkpt>
      <trkpt lat="44.69528" lon="-0.02434">
        <ele>15.281133333333</ele>
        <time>2018-05-13T10:42:58Z</time>
      </trkpt>
      <trkpt lat="44.6952" lon="-0.02434">
        <ele>15.280806666667</ele>
        <time>2018-05-13T10:43:03Z</time>
      </trkpt>
      <trkpt lat="44.69515" lon="-0.02426">
        <ele>15.380593333333</ele>
        <time>2018-05-13T10:43:10Z</time>
      </trkpt>
      <trkpt lat="44.69505" lon="-0.02424">
        <ele>15.680206666667</ele>
        <time>2018-05-13T10:43:15Z</time>
      </trkpt>
      <trkpt lat="44.69498" lon="-0.02425">
        <ele>15.879926666667</ele>
        <time>2018-05-13T10:43:20Z</time>
      </trkpt>
      <trkpt lat="44.69491" lon="-0.02428">
        <ele>16.079626666667</ele>
        <time>2018-05-13T10:43:25Z</time>
      </trkpt>
      <trkpt lat="44.69484" lon="-0.02421">
        <ele>16.179373333333</ele>
        <time>2018-05-13T10:43:33Z</time>
      </trkpt>
      <trkpt lat="44.69481" lon="-0.02411">
        <ele>16.379226666667</ele>
        <time>2018-05-13T10:43:41Z</time>
      </trkpt>
      <trkpt lat="44.69474" lon="-0.02406">
        <ele>16.97896</ele>
        <time>2018-05-13T10:43:50Z</time>
      </trkpt>
      <trkpt lat="44.69465" lon="-0.02415">
        <ele>17.178593333333</ele>
        <time>2018-05-13T10:43:55Z</time>
      </trkpt>
      <trkpt lat="44.69456" lon="-0.02416">
        <ele>17.878253333333</ele>
        <time>2018-05-13T10:44:06Z</time>
      </trkpt>
      <trkpt lat="44.69458" lon="-0.02404">
        <ele>18.778326666667</ele>
        <time>2018-05-13T10:44:23Z</time>
      </trkpt>
      <trkpt lat="44.69462" lon="-0.02394">
        <ele>18.978473333333</ele>
        <time>2018-05-13T10:44:27Z</time>
      </trkpt>
      <trkpt lat="44.69466" lon="-0.02381">
        <ele>19.17864</ele>
        <time>2018-05-13T10:44:31Z</time>
      </trkpt>
      <trkpt lat="44.69465" lon="-0.02371">
        <ele>19.478593333333</ele>
        <time>2018-05-13T10:44:41Z</time>
      </trkpt>
      <trkpt lat="44.69453" lon="-0.0237">
        <ele>19.2781</ele>
        <time>2018-05-13T10:44:46Z</time>
      </trkpt>
      <trkpt lat="44.69446" lon="-0.02366">
        <ele>19.17782</ele>
        <time>2018-05-13T10:44:51Z</time>
      </trkpt>
      <trkpt lat="44.69436" lon="-0.02365">
        <ele>19.077426666667</ele>
        <time>2018-05-13T10:44:56Z</time>
      </trkpt>
      <trkpt lat="44.69436" lon="-0.02353">
        <ele>20.377433333333</ele>
        <time>2018-05-13T10:45:07Z</time>
      </trkpt>
      <trkpt lat="44.6943" lon="-0.02345">
        <ele>21.0772</ele>
        <time>2018-05-13T10:45:14Z</time>
      </trkpt>
      <trkpt lat="44.69424" lon="-0.02338">
        <ele>22.276953333333</ele>
        <time>2018-05-13T10:45:20Z</time>
      </trkpt>
      <trkpt lat="44.69422" lon="-0.02326">
        <ele>24.07688</ele>
        <time>2018-05-13T10:45:32Z</time>
      </trkpt>
      <trkpt lat="44.6942" lon="-0.02315">
        <ele>24.276806666667</ele>
        <time>2018-05-13T10:45:37Z</time>
      </trkpt>
      <trkpt lat="44.69416" lon="-0.02305">
        <ele>24.976626666667</ele>
        <time>2018-05-13T10:45:43Z</time>
      </trkpt>
      <trkpt lat="44.69411" lon="-0.02295">
        <ele>26.676426666667</ele>
        <time>2018-05-13T10:45:53Z</time>
      </trkpt>
      <trkpt lat="44.69405" lon="-0.02287">
        <ele>28.176206666667</ele>
        <time>2018-05-13T10:46:00Z</time>
      </trkpt>
      <trkpt lat="44.69399" lon="-0.02279">
        <ele>29.375973333333</ele>
        <time>2018-05-13T10:46:07Z</time>
      </trkpt>
      <trkpt lat="44.69392" lon="-0.02277">
        <ele>29.87566</ele>
        <time>2018-05-13T10:46:12Z</time>
      </trkpt>
      <trkpt lat="44.69384" lon="-0.02274">
        <ele>30.275353333333</ele>
        <time>2018-05-13T10:46:16Z</time>
      </trkpt>
      <trkpt lat="44.69383" lon="-0.02262">
        <ele>30.675313333333</ele>
        <time>2018-05-13T10:46:24Z</time>
      </trkpt>
      <trkpt lat="44.69377" lon="-0.02253">
        <ele>31.175093333333</ele>
        <time>2018-05-13T10:46:31Z</time>
      </trkpt>
      <trkpt lat="44.69372" lon="-0.02243">
        <ele>30.474873333333</ele>
        <time>2018-05-13T10:46:44Z</time>
      </trkpt>
      <trkpt lat="44.69375" lon="-0.02231">
        <ele>30.474993333333</ele>
        <time>2018-05-13T10:46:50Z</time>
      </trkpt>
      <trkpt lat="44.69376" lon="-0.02227">
        <ele>29.87502</ele>
        <time>2018-05-13T10:47:09Z</time>
      </trkpt>
      <trkpt lat="44.6938" lon="-0.02217">
        <ele>29.075186666667</ele>
        <time>2018-05-13T10:47:15Z</time>
      </trkpt>
      <trkpt lat="44.69373" lon="-0.02209">
        <ele>28.97492</ele>
        <time>2018-05-13T10:47:22Z</time>
      </trkpt>
      <trkpt lat="44.69368" lon="-0.022">
        <ele>28.174726666667</ele>
        <time>2018-05-13T10:47:27Z</time>
      </trkpt>
      <trkpt lat="44.69364" lon="-0.02191">
        <ele>27.47454</ele>
        <time>2018-05-13T10:47:34Z</time>
      </trkpt>
      <trkpt lat="44.69363" lon="-0.02181">
        <ele>25.274526666667</ele>
        <time>2018-05-13T10:47:41Z</time>
      </trkpt>
      <trkpt lat="44.69359" lon="-0.0217">
        <ele>23.674373333333</ele>
        <time>2018-05-13T10:47:49Z</time>
      </trkpt>
      <trkpt lat="44.69354" lon="-0.0216">
        <ele>22.77414</ele>
        <time>2018-05-13T10:47:55Z</time>
      </trkpt>
      <trkpt lat="44.69348" lon="-0.02151">
        <ele>21.973933333333</ele>
        <time>2018-05-13T10:48:02Z</time>
      </trkpt>
      <trkpt lat="44.69346" lon="-0.0214">
        <ele>21.573826666667</ele>
        <time>2018-05-13T10:48:08Z</time>
      </trkpt>
      <trkpt lat="44.69339" lon="-0.02132">
        <ele>21.373553333333</ele>
        <time>2018-05-13T10:48:17Z</time>
      </trkpt>
      <trkpt lat="44.69334" lon="-0.02121">
        <ele>20.973373333333</ele>
        <time>2018-05-13T10:48:25Z</time>
      </trkpt>
      <trkpt lat="44.69327" lon="-0.02115">
        <ele>20.673073333333</ele>
        <time>2018-05-13T10:48:32Z</time>
      </trkpt>
      <trkpt lat="44.6932" lon="-0.02107">
        <ele>19.472806666667</ele>
        <time>2018-05-13T10:48:41Z</time>
      </trkpt>
      <trkpt lat="44.69314" lon="-0.02098">
        <ele>18.572566666667</ele>
        <time>2018-05-13T10:48:49Z</time>
      </trkpt>
      <trkpt lat="44.69308" lon="-0.0209">
        <ele>18.3723</ele>
        <time>2018-05-13T10:48:59Z</time>
      </trkpt>
      <trkpt lat="44.69308" lon="-0.02078">
        <ele>18.372313333333</ele>
        <time>2018-05-13T10:49:08Z</time>
      </trkpt>
      <trkpt lat="44.69302" lon="-0.0207">
        <ele>18.072073333333</ele>
        <time>2018-05-13T10:49:17Z</time>
      </trkpt>
      <trkpt lat="44.69295" lon="-0.02062">
        <ele>18.071813333333</ele>
        <time>2018-05-13T10:49:26Z</time>
      </trkpt>
      <trkpt lat="44.69287" lon="-0.02061">
        <ele>19.471473333333</ele>
        <time>2018-05-13T10:49:32Z</time>
      </trkpt>
      <trkpt lat="44.6928" lon="-0.02053">
        <ele>22.871213333333</ele>
        <time>2018-05-13T10:49:42Z</time>
      </trkpt>
      <trkpt lat="44.69272" lon="-0.02047">
        <ele>28.970893333333</ele>
        <time>2018-05-13T10:49:51Z</time>
      </trkpt>
      <trkpt lat="44.69268" lon="-0.02038">
        <ele>32.170713333333</ele>
        <time>2018-05-13T10:49:59Z</time>
      </trkpt>
      <trkpt lat="44.69262" lon="-0.02029">
        <ele>35.47046</ele>
        <time>2018-05-13T10:50:10Z</time>
      </trkpt>
      <trkpt lat="44.69253" lon="-0.02033">
        <ele>36.070126666667</ele>
        <time>2018-05-13T10:50:32Z</time>
      </trkpt>
      <trkpt lat="44.69249" lon="-0.02044">
        <ele>34.769946666667</ele>
        <time>2018-05-13T10:50:40Z</time>
      </trkpt>
      <trkpt lat="44.69241" lon="-0.02047">
        <ele>34.86962</ele>
        <time>2018-05-13T10:50:47Z</time>
      </trkpt>
      <trkpt lat="44.69232" lon="-0.0205">
        <ele>33.769286666667</ele>
        <time>2018-05-13T10:50:52Z</time>
      </trkpt>
      <trkpt lat="44.69225" lon="-0.02058">
        <ele>39.869006666667</ele>
        <time>2018-05-13T10:51:06Z</time>
      </trkpt>
      <trkpt lat="44.6922" lon="-0.02067">
        <ele>34.768793333333</ele>
        <time>2018-05-13T10:51:15Z</time>
      </trkpt>
      <trkpt lat="44.69214" lon="-0.02075">
        <ele>31.368546666667</ele>
        <time>2018-05-13T10:51:22Z</time>
      </trkpt>
      <trkpt lat="44.69209" lon="-0.02086">
        <ele>25.86836</ele>
        <time>2018-05-13T10:51:29Z</time>
      </trkpt>
      <trkpt lat="44.69204" lon="-0.02094">
        <ele>25.268173333333</ele>
        <time>2018-05-13T10:51:34Z</time>
      </trkpt>
      <trkpt lat="44.69199" lon="-0.02102">
        <ele>26.86796</ele>
        <time>2018-05-13T10:51:39Z</time>
      </trkpt>
      <trkpt lat="44.69193" lon="-0.0211">
        <ele>28.367733333333</ele>
        <time>2018-05-13T10:51:44Z</time>
      </trkpt>
      <trkpt lat="44.69187" lon="-0.02115">
        <ele>30.567473333333</ele>
        <time>2018-05-13T10:51:49Z</time>
      </trkpt>
      <trkpt lat="44.6918" lon="-0.02123">
        <ele>33.367193333333</ele>
        <time>2018-05-13T10:51:55Z</time>
      </trkpt>
      <trkpt lat="44.69173" lon="-0.02128">
        <ele>35.366906666667</ele>
        <time>2018-05-13T10:52:01Z</time>
      </trkpt>
      <trkpt lat="44.69166" lon="-0.02133">
        <ele>37.26662</ele>
        <time>2018-05-13T10:52:06Z</time>
      </trkpt>
      <trkpt lat="44.69159" lon="-0.02138">
        <ele>38.666346666667</ele>
        <time>2018-05-13T10:52:11Z</time>
      </trkpt>
      <trkpt lat="44.69152" lon="-0.02145">
        <ele>40.766073333333</ele>
        <time>2018-05-13T10:52:18Z</time>
      </trkpt>
      <trkpt lat="44.69144" lon="-0.0215">
        <ele>40.565753333333</ele>
        <time>2018-05-13T10:52:26Z</time>
      </trkpt>
      <trkpt lat="44.69138" lon="-0.02157">
        <ele>38.965513333333</ele>
        <time>2018-05-13T10:52:33Z</time>
      </trkpt>
      <trkpt lat="44.69131" lon="-0.02163">
        <ele>37.765253333333</ele>
        <time>2018-05-13T10:52:42Z</time>
      </trkpt>
      <trkpt lat="44.69124" lon="-0.02168">
        <ele>38.86496</ele>
        <time>2018-05-13T10:52:47Z</time>
      </trkpt>
      <trkpt lat="44.69118" lon="-0.02176">
        <ele>36.564713333333</ele>
        <time>2018-05-13T10:52:54Z</time>
      </trkpt>
      <trkpt lat="44.69111" lon="-0.02181">
        <ele>36.564433333333</ele>
        <time>2018-05-13T10:53:02Z</time>
      </trkpt>
      <trkpt lat="44.69102" lon="-0.02184">
        <ele>37.864086666667</ele>
        <time>2018-05-13T10:53:08Z</time>
      </trkpt>
      <trkpt lat="44.69096" lon="-0.02191">
        <ele>38.163826666667</ele>
        <time>2018-05-13T10:53:13Z</time>
      </trkpt>
      <trkpt lat="44.69088" lon="-0.02196">
        <ele>39.163526666667</ele>
        <time>2018-05-13T10:53:28Z</time>
      </trkpt>
      <trkpt lat="44.6908" lon="-0.022">
        <ele>39.863193333333</ele>
        <time>2018-05-13T10:53:34Z</time>
      </trkpt>
      <trkpt lat="44.69072" lon="-0.02205">
        <ele>40.362866666667</ele>
        <time>2018-05-13T10:53:40Z</time>
      </trkpt>
      <trkpt lat="44.69065" lon="-0.02205">
        <ele>40.76258</ele>
        <time>2018-05-13T10:53:45Z</time>
      </trkpt>
      <trkpt lat="44.69056" lon="-0.02207">
        <ele>41.462253333333</ele>
        <time>2018-05-13T10:53:49Z</time>
      </trkpt>
      <trkpt lat="44.69049" lon="-0.02213">
        <ele>43.061953333333</ele>
        <time>2018-05-13T10:53:55Z</time>
      </trkpt>
      <trkpt lat="44.69046" lon="-0.02224">
        <ele>47.961846666667</ele>
        <time>2018-05-13T10:54:07Z</time>
      </trkpt>
      <trkpt lat="44.69039" lon="-0.02227">
        <ele>48.26156</ele>
        <time>2018-05-13T10:54:14Z</time>
      </trkpt>
      <trkpt lat="44.69031" lon="-0.0223">
        <ele>48.361226666667</ele>
        <time>2018-05-13T10:54:20Z</time>
      </trkpt>
      <trkpt lat="44.69022" lon="-0.02234">
        <ele>48.660893333333</ele>
        <time>2018-05-13T10:54:25Z</time>
      </trkpt>
      <trkpt lat="44.69016" lon="-0.02242">
        <ele>49.460653333333</ele>
        <time>2018-05-13T10:54:34Z</time>
      </trkpt>
      <trkpt lat="44.6901" lon="-0.02246">
        <ele>50.26038</ele>
        <time>2018-05-13T10:54:46Z</time>
      </trkpt>
      <trkpt lat="44.69003" lon="-0.02252">
        <ele>50.9601</ele>
        <time>2018-05-13T10:54:51Z</time>
      </trkpt>
      <trkpt lat="44.68998" lon="-0.02258">
        <ele>51.75992</ele>
        <time>2018-05-13T10:54:59Z</time>
      </trkpt>
      <trkpt lat="44.68984" lon="-0.02256">
        <ele>51.359373333333</ele>
        <time>2018-05-13T10:55:04Z</time>
      </trkpt>
      <trkpt lat="44.6898" lon="-0.02245">
        <ele>50.859206666667</ele>
        <time>2018-05-13T10:55:30Z</time>
      </trkpt>
      <trkpt lat="44.68974" lon="-0.02237">
        <ele>50.35894</ele>
        <time>2018-05-13T10:55:38Z</time>
      </trkpt>
      <trkpt lat="44.68969" lon="-0.02229">
        <ele>50.158773333333</ele>
        <time>2018-05-13T10:55:45Z</time>
      </trkpt>
      <trkpt lat="44.68962" lon="-0.02224">
        <ele>49.258466666667</ele>
        <time>2018-05-13T10:55:50Z</time>
      </trkpt>
      <trkpt lat="44.68955" lon="-0.02218">
        <ele>48.758213333333</ele>
        <time>2018-05-13T10:55:55Z</time>
      </trkpt>
      <trkpt lat="44.68949" lon="-0.02211">
        <ele>48.35796</ele>
        <time>2018-05-13T10:56:00Z</time>
      </trkpt>
      <trkpt lat="44.68942" lon="-0.02204">
        <ele>47.857673333333</ele>
        <time>2018-05-13T10:56:06Z</time>
      </trkpt>
      <trkpt lat="44.68941" lon="-0.02192">
        <ele>47.95762</ele>
        <time>2018-05-13T10:56:14Z</time>
      </trkpt>
      <trkpt lat="44.68934" lon="-0.02185">
        <ele>47.55736</ele>
        <time>2018-05-13T10:56:20Z</time>
      </trkpt>
      <trkpt lat="44.68929" lon="-0.02176">
        <ele>47.557153333333</ele>
        <time>2018-05-13T10:56:25Z</time>
      </trkpt>
      <trkpt lat="44.68928" lon="-0.02163">
        <ele>49.857113333333</ele>
        <time>2018-05-13T10:56:33Z</time>
      </trkpt>
      <trkpt lat="44.68924" lon="-0.02153">
        <ele>50.55694</ele>
        <time>2018-05-13T10:56:42Z</time>
      </trkpt>
      <trkpt lat="44.68921" lon="-0.02143">
        <ele>51.256846666667</ele>
        <time>2018-05-13T10:56:49Z</time>
      </trkpt>
      <trkpt lat="44.68922" lon="-0.02132">
        <ele>51.056866666667</ele>
        <time>2018-05-13T10:56:55Z</time>
      </trkpt>
      <trkpt lat="44.68929" lon="-0.02121">
        <ele>50.457146666667</ele>
        <time>2018-05-13T10:56:59Z</time>
      </trkpt>
      <trkpt lat="44.68922" lon="-0.02115">
        <ele>50.156886666667</ele>
        <time>2018-05-13T10:57:07Z</time>
      </trkpt>
      <trkpt lat="44.68915" lon="-0.02111">
        <ele>50.256606666667</ele>
        <time>2018-05-13T10:57:11Z</time>
      </trkpt>
      <trkpt lat="44.68907" lon="-0.02109">
        <ele>50.756286666667</ele>
        <time>2018-05-13T10:57:15Z</time>
      </trkpt>
      <trkpt lat="44.68901" lon="-0.02102">
        <ele>51.056046666667</ele>
        <time>2018-05-13T10:57:20Z</time>
      </trkpt>
      <trkpt lat="44.68896" lon="-0.02093">
        <ele>51.355833333333</ele>
        <time>2018-05-13T10:57:26Z</time>
      </trkpt>
      <trkpt lat="44.68892" lon="-0.02082">
        <ele>51.055686666667</ele>
        <time>2018-05-13T10:57:33Z</time>
      </trkpt>
      <trkpt lat="44.68884" lon="-0.02077">
        <ele>50.65536</ele>
        <time>2018-05-13T10:57:40Z</time>
      </trkpt>
      <trkpt lat="44.68876" lon="-0.02072">
        <ele>51.555033333333</ele>
        <time>2018-05-13T10:57:49Z</time>
      </trkpt>
      <trkpt lat="44.68868" lon="-0.02073">
        <ele>51.4547</ele>
        <time>2018-05-13T10:57:55Z</time>
      </trkpt>
      <trkpt lat="44.6886" lon="-0.02071">
        <ele>51.45438</ele>
        <time>2018-05-13T10:58:04Z</time>
      </trkpt>
      <trkpt lat="44.68851" lon="-0.02071">
        <ele>51.75404</ele>
        <time>2018-05-13T10:58:11Z</time>
      </trkpt>
      <trkpt lat="44.68843" lon="-0.02074">
        <ele>52.1537</ele>
        <time>2018-05-13T10:58:22Z</time>
      </trkpt>
      <trkpt lat="44.68836" lon="-0.02077">
        <ele>52.25342</ele>
        <time>2018-05-13T10:58:30Z</time>
      </trkpt>
      <trkpt lat="44.68828" lon="-0.02082">
        <ele>51.753133333333</ele>
        <time>2018-05-13T10:58:35Z</time>
      </trkpt>
      <trkpt lat="44.6882" lon="-0.02083">
        <ele>52.252786666667</ele>
        <time>2018-05-13T10:58:45Z</time>
      </trkpt>
      <trkpt lat="44.68812" lon="-0.02082">
        <ele>52.252486666667</ele>
        <time>2018-05-13T10:58:49Z</time>
      </trkpt>
      <trkpt lat="44.68804" lon="-0.0208">
        <ele>52.052166666667</ele>
        <time>2018-05-13T10:58:53Z</time>
      </trkpt>
      <trkpt lat="44.68799" lon="-0.02073">
        <ele>52.15196</ele>
        <time>2018-05-13T10:58:59Z</time>
      </trkpt>
      <trkpt lat="44.68795" lon="-0.02063">
        <ele>51.65178</ele>
        <time>2018-05-13T10:59:08Z</time>
      </trkpt>
      <trkpt lat="44.68789" lon="-0.02059">
        <ele>50.951566666667</ele>
        <time>2018-05-13T10:59:25Z</time>
      </trkpt>
      <trkpt lat="44.68784" lon="-0.0205">
        <ele>51.351353333333</ele>
        <time>2018-05-13T10:59:30Z</time>
      </trkpt>
      <trkpt lat="44.68781" lon="-0.0204">
        <ele>50.851233333333</ele>
        <time>2018-05-13T10:59:37Z</time>
      </trkpt>
      <trkpt lat="44.68775" lon="-0.02031">
        <ele>50.651006666667</ele>
        <time>2018-05-13T10:59:44Z</time>
      </trkpt>
      <trkpt lat="44.68761" lon="-0.02031">
        <ele>49.050426666667</ele>
        <time>2018-05-13T10:59:48Z</time>
      </trkpt>
      <trkpt lat="44.68749" lon="-0.02023">
        <ele>43.34996</ele>
        <time>2018-05-13T10:59:53Z</time>
      </trkpt>
      <trkpt lat="44.68746" lon="-0.0201">
        <ele>41.449833333333</ele>
        <time>2018-05-13T10:59:58Z</time>
      </trkpt>
      <trkpt lat="44.68743" lon="-0.01998">
        <ele>31.849726666667</ele>
        <time>2018-05-13T11:00:08Z</time>
      </trkpt>
      <trkpt lat="44.6874" lon="-0.01987">
        <ele>8.1496</ele>
        <time>2018-05-13T11:00:17Z</time>
      </trkpt>
      <trkpt lat="44.68733" lon="-0.0198">
        <ele>-34.850693333333</ele>
        <time>2018-05-13T11:00:32Z</time>
      </trkpt>
      <trkpt lat="44.68724" lon="-0.0198">
        <ele>-42.65104</ele>
        <time>2018-05-13T11:00:40Z</time>
      </trkpt>
      <trkpt lat="44.68717" lon="-0.01974">
        <ele>-51.751313333333</ele>
        <time>2018-05-13T11:00:48Z</time>
      </trkpt>
      <trkpt lat="44.6871" lon="-0.01968">
        <ele>-60.85162</ele>
        <time>2018-05-13T11:00:56Z</time>
      </trkpt>
      <trkpt lat="44.68707" lon="-0.01957">
        <ele>-69.25172</ele>
        <time>2018-05-13T11:01:05Z</time>
      </trkpt>
      <trkpt lat="44.68703" lon="-0.01947">
        <ele>-76.951893333333</ele>
        <time>2018-05-13T11:01:13Z</time>
      </trkpt>
      <trkpt lat="44.68698" lon="-0.01937">
        <ele>-83.552086666667</ele>
        <time>2018-05-13T11:01:21Z</time>
      </trkpt>
      <trkpt lat="44.68694" lon="-0.01927">
        <ele>-92.652253333333</ele>
        <time>2018-05-13T11:01:32Z</time>
      </trkpt>
      <trkpt lat="44.6869" lon="-0.01917">
        <ele>-100.15241333333</ele>
        <time>2018-05-13T11:01:43Z</time>
      </trkpt>
      <trkpt lat="44.68689" lon="-0.01904">
        <ele>-105.05244</ele>
        <time>2018-05-13T11:01:50Z</time>
      </trkpt>
      <trkpt lat="44.68685" lon="-0.01894">
        <ele>-110.85261333333</ele>
        <time>2018-05-13T11:01:59Z</time>
      </trkpt>
      <trkpt lat="44.68681" lon="-0.01882">
        <ele>-115.55274666667</ele>
        <time>2018-05-13T11:02:05Z</time>
      </trkpt>
      <trkpt lat="44.68678" lon="-0.01871">
        <ele>-120.05289333333</ele>
        <time>2018-05-13T11:02:11Z</time>
      </trkpt>
      <trkpt lat="44.68676" lon="-0.01859">
        <ele>-125.55294666667</ele>
        <time>2018-05-13T11:02:18Z</time>
      </trkpt>
      <trkpt lat="44.68677" lon="-0.01847">
        <ele>-130.75292</ele>
        <time>2018-05-13T11:02:24Z</time>
      </trkpt>
      <trkpt lat="44.68683" lon="-0.01839">
        <ele>-140.55268</ele>
        <time>2018-05-13T11:02:38Z</time>
      </trkpt>
      <trkpt lat="44.68688" lon="-0.01831">
        <ele>-144.25248666667</ele>
        <time>2018-05-13T11:02:43Z</time>
      </trkpt>
      <trkpt lat="44.68693" lon="-0.01821">
        <ele>-146.9523</ele>
        <time>2018-05-13T11:02:47Z</time>
      </trkpt>
      <trkpt lat="44.68697" lon="-0.01811">
        <ele>-150.65210666667</ele>
        <time>2018-05-13T11:02:53Z</time>
      </trkpt>
      <trkpt lat="44.68702" lon="-0.01801">
        <ele>-154.55192666667</ele>
        <time>2018-05-13T11:03:00Z</time>
      </trkpt>
      <trkpt lat="44.68705" lon="-0.01789">
        <ele>-157.65182</ele>
        <time>2018-05-13T11:03:06Z</time>
      </trkpt>
      <trkpt lat="44.68704" lon="-0.01778">
        <ele>-160.05184</ele>
        <time>2018-05-13T11:03:11Z</time>
      </trkpt>
      <trkpt lat="44.68704" lon="-0.01768">
        <ele>-160.55185333333</ele>
        <time>2018-05-13T11:03:16Z</time>
      </trkpt>
      <trkpt lat="44.68699" lon="-0.01762">
        <ele>-152.65204</ele>
        <time>2018-05-13T11:03:20Z</time>
      </trkpt>
      <trkpt lat="44.68692" lon="-0.01759">
        <ele>-138.35231333333</ele>
        <time>2018-05-13T11:03:33Z</time>
      </trkpt>
      <trkpt lat="44.6868" lon="-0.01762">
        <ele>-110.25278666667</ele>
        <time>2018-05-13T11:03:37Z</time>
      </trkpt>
      <trkpt lat="44.68672" lon="-0.01761">
        <ele>-88.553133333333</ele>
        <time>2018-05-13T11:04:37Z</time>
      </trkpt>
      <trkpt lat="44.68666" lon="-0.01753">
        <ele>-88.153373333333</ele>
        <time>2018-05-13T11:04:47Z</time>
      </trkpt>
      <trkpt lat="44.68661" lon="-0.01744">
        <ele>-87.053553333333</ele>
        <time>2018-05-13T11:04:55Z</time>
      </trkpt>
      <trkpt lat="44.68654" lon="-0.01738">
        <ele>-85.55384</ele>
        <time>2018-05-13T11:05:02Z</time>
      </trkpt>
      <trkpt lat="44.68647" lon="-0.01731">
        <ele>-83.45412</ele>
        <time>2018-05-13T11:05:10Z</time>
      </trkpt>
      <trkpt lat="44.68639" lon="-0.01725">
        <ele>-81.754433333333</ele>
        <time>2018-05-13T11:05:17Z</time>
      </trkpt>
      <trkpt lat="44.68632" lon="-0.0172">
        <ele>-80.45472</ele>
        <time>2018-05-13T11:05:24Z</time>
      </trkpt>
      <trkpt lat="44.68626" lon="-0.01713">
        <ele>-79.35498</ele>
        <time>2018-05-13T11:05:30Z</time>
      </trkpt>
      <trkpt lat="44.68619" lon="-0.01706">
        <ele>-78.155253333333</ele>
        <time>2018-05-13T11:05:36Z</time>
      </trkpt>
      <trkpt lat="44.68613" lon="-0.01698">
        <ele>-77.055493333333</ele>
        <time>2018-05-13T11:05:41Z</time>
      </trkpt>
      <trkpt lat="44.68608" lon="-0.01689">
        <ele>-75.855693333333</ele>
        <time>2018-05-13T11:05:47Z</time>
      </trkpt>
      <trkpt lat="44.68602" lon="-0.0168">
        <ele>-74.755906666667</ele>
        <time>2018-05-13T11:05:52Z</time>
      </trkpt>
      <trkpt lat="44.68596" lon="-0.01676">
        <ele>-73.756173333333</ele>
        <time>2018-05-13T11:05:57Z</time>
      </trkpt>
      <trkpt lat="44.68588" lon="-0.01672">
        <ele>-72.5565</ele>
        <time>2018-05-13T11:06:03Z</time>
      </trkpt>
      <trkpt lat="44.68582" lon="-0.01664">
        <ele>-67.85672</ele>
        <time>2018-05-13T11:06:11Z</time>
      </trkpt>
      <trkpt lat="44.68575" lon="-0.01659">
        <ele>-62.656993333333</ele>
        <time>2018-05-13T11:06:16Z</time>
      </trkpt>
      <trkpt lat="44.68568" lon="-0.01653">
        <ele>-56.857273333333</ele>
        <time>2018-05-13T11:06:22Z</time>
      </trkpt>
      <trkpt lat="44.68563" lon="-0.01646">
        <ele>-51.757486666667</ele>
        <time>2018-05-13T11:06:29Z</time>
      </trkpt>
      <trkpt lat="44.68557" lon="-0.01637">
        <ele>-47.45774</ele>
        <time>2018-05-13T11:06:36Z</time>
      </trkpt>
      <trkpt lat="44.6855" lon="-0.0163">
        <ele>-44.058</ele>
        <time>2018-05-13T11:06:41Z</time>
      </trkpt>
      <trkpt lat="44.68544" lon="-0.01623">
        <ele>-40.458253333333</ele>
        <time>2018-05-13T11:06:46Z</time>
      </trkpt>
      <trkpt lat="44.68539" lon="-0.01614">
        <ele>-36.25846</ele>
        <time>2018-05-13T11:06:52Z</time>
      </trkpt>
      <trkpt lat="44.68532" lon="-0.01605">
        <ele>-32.158706666667</ele>
        <time>2018-05-13T11:06:58Z</time>
      </trkpt>
      <trkpt lat="44.68526" lon="-0.01597">
        <ele>-27.15896</ele>
        <time>2018-05-13T11:07:05Z</time>
      </trkpt>
      <trkpt lat="44.68521" lon="-0.01587">
        <ele>-22.659146666667</ele>
        <time>2018-05-13T11:07:12Z</time>
      </trkpt>
      <trkpt lat="44.68516" lon="-0.01577">
        <ele>-18.85936</ele>
        <time>2018-05-13T11:07:18Z</time>
      </trkpt>
      <trkpt lat="44.6851" lon="-0.0157">
        <ele>-15.559613333333</ele>
        <time>2018-05-13T11:07:23Z</time>
      </trkpt>
      <trkpt lat="44.68504" lon="-0.01562">
        <ele>-11.959853333333</ele>
        <time>2018-05-13T11:07:29Z</time>
      </trkpt>
      <trkpt lat="44.68498" lon="-0.01552">
        <ele>-8.5600733333333</ele>
        <time>2018-05-13T11:07:35Z</time>
      </trkpt>
      <trkpt lat="44.68492" lon="-0.01544">
        <ele>-4.8603066666667</ele>
        <time>2018-05-13T11:07:41Z</time>
      </trkpt>
      <trkpt lat="44.68486" lon="-0.01538">
        <ele>-0.76057333333333</ele>
        <time>2018-05-13T11:07:48Z</time>
      </trkpt>
      <trkpt lat="44.68481" lon="-0.01528">
        <ele>2.53922</ele>
        <time>2018-05-13T11:07:54Z</time>
      </trkpt>
      <trkpt lat="44.68474" lon="-0.0152">
        <ele>6.3389466666667</ele>
        <time>2018-05-13T11:08:01Z</time>
      </trkpt>
      <trkpt lat="44.68467" lon="-0.01514">
        <ele>9.9386666666667</ele>
        <time>2018-05-13T11:08:07Z</time>
      </trkpt>
      <trkpt lat="44.6846" lon="-0.0151">
        <ele>13.038386666667</ele>
        <time>2018-05-13T11:08:13Z</time>
      </trkpt>
      <trkpt lat="44.68453" lon="-0.01503">
        <ele>17.438113333333</ele>
        <time>2018-05-13T11:08:21Z</time>
      </trkpt>
      <trkpt lat="44.68447" lon="-0.01496">
        <ele>21.037886666667</ele>
        <time>2018-05-13T11:08:27Z</time>
      </trkpt>
      <trkpt lat="44.68442" lon="-0.01486">
        <ele>24.937673333333</ele>
        <time>2018-05-13T11:08:34Z</time>
      </trkpt>
      <trkpt lat="44.68436" lon="-0.01479">
        <ele>28.43742</ele>
        <time>2018-05-13T11:08:39Z</time>
      </trkpt>
      <trkpt lat="44.68431" lon="-0.01467">
        <ele>31.537226666667</ele>
        <time>2018-05-13T11:08:44Z</time>
      </trkpt>
      <trkpt lat="44.6843" lon="-0.01455">
        <ele>26.5372</ele>
        <time>2018-05-13T11:08:50Z</time>
      </trkpt>
      <trkpt lat="44.68422" lon="-0.01451">
        <ele>27.23688</ele>
        <time>2018-05-13T11:08:55Z</time>
      </trkpt>
      <trkpt lat="44.68414" lon="-0.01447">
        <ele>26.436553333333</ele>
        <time>2018-05-13T11:09:01Z</time>
      </trkpt>
      <trkpt lat="44.68406" lon="-0.01445">
        <ele>25.836226666667</ele>
        <time>2018-05-13T11:09:08Z</time>
      </trkpt>
      <trkpt lat="44.68398" lon="-0.01441">
        <ele>21.7359</ele>
        <time>2018-05-13T11:09:17Z</time>
      </trkpt>
      <trkpt lat="44.6839" lon="-0.0144">
        <ele>21.435606666667</ele>
        <time>2018-05-13T11:09:23Z</time>
      </trkpt>
      <trkpt lat="44.68382" lon="-0.01436">
        <ele>18.835266666667</ele>
        <time>2018-05-13T11:09:29Z</time>
      </trkpt>
      <trkpt lat="44.68375" lon="-0.01429">
        <ele>10.635006666667</ele>
        <time>2018-05-13T11:09:37Z</time>
      </trkpt>
      <trkpt lat="44.68369" lon="-0.01421">
        <ele>5.6347466666667</ele>
        <time>2018-05-13T11:09:45Z</time>
      </trkpt>
      <trkpt lat="44.68363" lon="-0.01413">
        <ele>4.8345133333334</ele>
        <time>2018-05-13T11:09:51Z</time>
      </trkpt>
      <trkpt lat="44.68356" lon="-0.01406">
        <ele>3.7342333333333</ele>
        <time>2018-05-13T11:09:58Z</time>
      </trkpt>
      <trkpt lat="44.68349" lon="-0.01399">
        <ele>2.2339666666667</ele>
        <time>2018-05-13T11:10:05Z</time>
      </trkpt>
      <trkpt lat="44.68342" lon="-0.01394">
        <ele>2.13368</ele>
        <time>2018-05-13T11:10:13Z</time>
      </trkpt>
      <trkpt lat="44.68337" lon="-0.01385">
        <ele>1.5334666666667</ele>
        <time>2018-05-13T11:10:19Z</time>
      </trkpt>
      <trkpt lat="44.68331" lon="-0.0138">
        <ele>1.53322</ele>
        <time>2018-05-13T11:10:26Z</time>
      </trkpt>
      <trkpt lat="44.68324" lon="-0.01374">
        <ele>4.93296</ele>
        <time>2018-05-13T11:10:31Z</time>
      </trkpt>
      <trkpt lat="44.68317" lon="-0.01367">
        <ele>11.132673333333</ele>
        <time>2018-05-13T11:10:37Z</time>
      </trkpt>
      <trkpt lat="44.68311" lon="-0.0136">
        <ele>15.032453333333</ele>
        <time>2018-05-13T11:10:42Z</time>
      </trkpt>
      <trkpt lat="44.68308" lon="-0.01349">
        <ele>22.63232</ele>
        <time>2018-05-13T11:10:47Z</time>
      </trkpt>
      <trkpt lat="44.68302" lon="-0.01343">
        <ele>19.532066666667</ele>
        <time>2018-05-13T11:10:53Z</time>
      </trkpt>
      <trkpt lat="44.68295" lon="-0.01334">
        <ele>8.5318066666667</ele>
        <time>2018-05-13T11:11:01Z</time>
      </trkpt>
      <trkpt lat="44.6829" lon="-0.01326">
        <ele>4.4315866666667</ele>
        <time>2018-05-13T11:11:10Z</time>
      </trkpt>
      <trkpt lat="44.68285" lon="-0.01317">
        <ele>3.1314066666667</ele>
        <time>2018-05-13T11:11:15Z</time>
      </trkpt>
      <trkpt lat="44.68278" lon="-0.01311">
        <ele>1.6311333333333</ele>
        <time>2018-05-13T11:11:21Z</time>
      </trkpt>
      <trkpt lat="44.68271" lon="-0.01306">
        <ele>0.33084666666668</ele>
        <time>2018-05-13T11:11:27Z</time>
      </trkpt>
      <trkpt lat="44.68266" lon="-0.01298">
        <ele>-1.0693666666667</ele>
        <time>2018-05-13T11:11:34Z</time>
      </trkpt>
      <trkpt lat="44.6826" lon="-0.01291">
        <ele>-2.4696133333334</ele>
        <time>2018-05-13T11:11:40Z</time>
      </trkpt>
      <trkpt lat="44.68253" lon="-0.01287">
        <ele>-3.9698733333333</ele>
        <time>2018-05-13T11:11:47Z</time>
      </trkpt>
      <trkpt lat="44.68246" lon="-0.0128">
        <ele>-3.9701666666667</ele>
        <time>2018-05-13T11:11:53Z</time>
      </trkpt>
      <trkpt lat="44.68237" lon="-0.01278">
        <ele>-4.67052</ele>
        <time>2018-05-13T11:12:00Z</time>
      </trkpt>
      <trkpt lat="44.68228" lon="-0.01281">
        <ele>-5.8708733333334</ele>
        <time>2018-05-13T11:12:09Z</time>
      </trkpt>
      <trkpt lat="44.6822" lon="-0.01275">
        <ele>-6.7712</ele>
        <time>2018-05-13T11:12:16Z</time>
      </trkpt>
      <trkpt lat="44.68212" lon="-0.01273">
        <ele>-7.37152</ele>
        <time>2018-05-13T11:12:22Z</time>
      </trkpt>
      <trkpt lat="44.68204" lon="-0.01272">
        <ele>-7.87186</ele>
        <time>2018-05-13T11:12:28Z</time>
      </trkpt>
      <trkpt lat="44.68197" lon="-0.01267">
        <ele>-9.07214</ele>
        <time>2018-05-13T11:12:36Z</time>
      </trkpt>
      <trkpt lat="44.68189" lon="-0.01271">
        <ele>-12.47244</ele>
        <time>2018-05-13T11:12:50Z</time>
      </trkpt>
      <trkpt lat="44.68182" lon="-0.01266">
        <ele>-13.172713333333</ele>
        <time>2018-05-13T11:12:55Z</time>
      </trkpt>
      <trkpt lat="44.68175" lon="-0.01261">
        <ele>-14.07302</ele>
        <time>2018-05-13T11:13:00Z</time>
      </trkpt>
      <trkpt lat="44.68167" lon="-0.01258">
        <ele>-15.273326666667</ele>
        <time>2018-05-13T11:13:06Z</time>
      </trkpt>
      <trkpt lat="44.68159" lon="-0.01257">
        <ele>-16.47366</ele>
        <time>2018-05-13T11:13:12Z</time>
      </trkpt>
      <trkpt lat="44.68151" lon="-0.0126">
        <ele>-16.973966666667</ele>
        <time>2018-05-13T11:13:19Z</time>
      </trkpt>
      <trkpt lat="44.68143" lon="-0.01259">
        <ele>-16.574286666667</ele>
        <time>2018-05-13T11:13:24Z</time>
      </trkpt>
      <trkpt lat="44.68134" lon="-0.0126">
        <ele>-17.374626666667</ele>
        <time>2018-05-13T11:13:30Z</time>
      </trkpt>
      <trkpt lat="44.68126" lon="-0.01262">
        <ele>-17.87496</ele>
        <time>2018-05-13T11:13:37Z</time>
      </trkpt>
      <trkpt lat="44.68119" lon="-0.01261">
        <ele>-18.57526</ele>
        <time>2018-05-13T11:13:42Z</time>
      </trkpt>
      <trkpt lat="44.6811" lon="-0.01257">
        <ele>-18.475586666667</ele>
        <time>2018-05-13T11:13:51Z</time>
      </trkpt>
      <trkpt lat="44.68105" lon="-0.01249">
        <ele>-18.57582</ele>
        <time>2018-05-13T11:13:59Z</time>
      </trkpt>
      <trkpt lat="44.68096" lon="-0.01248">
        <ele>-18.576166666667</ele>
        <time>2018-05-13T11:14:05Z</time>
      </trkpt>
      <trkpt lat="44.68089" lon="-0.01241">
        <ele>-19.376433333333</ele>
        <time>2018-05-13T11:14:13Z</time>
      </trkpt>
      <trkpt lat="44.68082" lon="-0.01236">
        <ele>-20.076706666667</ele>
        <time>2018-05-13T11:14:20Z</time>
      </trkpt>
      <trkpt lat="44.6808" lon="-0.01226">
        <ele>-21.176813333333</ele>
        <time>2018-05-13T11:14:26Z</time>
      </trkpt>
      <trkpt lat="44.68073" lon="-0.0122">
        <ele>-22.4771</ele>
        <time>2018-05-13T11:14:33Z</time>
      </trkpt>
      <trkpt lat="44.68069" lon="-0.01213">
        <ele>-22.377246666667</ele>
        <time>2018-05-13T11:14:38Z</time>
      </trkpt>
      <trkpt lat="44.68066" lon="-0.01202">
        <ele>-22.677346666667</ele>
        <time>2018-05-13T11:14:42Z</time>
      </trkpt>
      <trkpt lat="44.6806" lon="-0.01195">
        <ele>-22.8776</ele>
        <time>2018-05-13T11:14:49Z</time>
      </trkpt>
      <trkpt lat="44.68054" lon="-0.01186">
        <ele>-22.777833333333</ele>
        <time>2018-05-13T11:14:55Z</time>
      </trkpt>
      <trkpt lat="44.68047" lon="-0.01185">
        <ele>-22.778113333333</ele>
        <time>2018-05-13T11:15:00Z</time>
      </trkpt>
      <trkpt lat="44.68044" lon="-0.01173">
        <ele>-22.17826</ele>
        <time>2018-05-13T11:15:11Z</time>
      </trkpt>
      <trkpt lat="44.6804" lon="-0.01162">
        <ele>-16.178413333333</ele>
        <time>2018-05-13T11:15:22Z</time>
      </trkpt>
      <trkpt lat="44.6804" lon="-0.01161">
        <ele>-15.27842</ele>
        <time>2018-05-13T11:15:35Z</time>
      </trkpt>
      <trkpt lat="44.6804" lon="-0.01161">
        <ele>-15.27842</ele>
        <time>2018-05-13T11:15:36Z</time>
      </trkpt>
    </trkseg>
  </trk>
</gpx>